<?xml version="1.0" encoding="UTF-8" standalone="no" ?>
<gpx xmlns="http://www.topografix.com/GPX/1/1" xmlns:xsi="http://www.w3.org/2001/XMLSchema-instance" xsi:schemaLocation="http://www.topografix.com/GPX/1/1 http://www.topografix.com/GPX/1/1/gpx.xsd" version="1.1" creator="VisuGPX - https://www.visugpx.com">
  <metadata>
    <name>2024-12-26  Randonnée TwoNav</name>
    <desc><![CDATA[2024-12-26_130929.trk]]></desc>
  </metadata>
  <trk>
    <name><![CDATA[2024-12-26  Randonnée TwoNav_1]]></name>
    <trkseg>
      <trkpt lat="50.1721" lon="4.0785">
        <ele>199.9</ele>
        <time>2024-12-26T12:09:29Z</time>
      </trkpt>
      <trkpt lat="50.17204" lon="4.07847">
        <ele>199.9</ele>
        <time>2024-12-26T12:09:30Z</time>
      </trkpt>
      <trkpt lat="50.17199" lon="4.07843">
        <ele>199.9</ele>
        <time>2024-12-26T12:09:31Z</time>
      </trkpt>
      <trkpt lat="50.17193" lon="4.0784">
        <ele>199.9</ele>
        <time>2024-12-26T12:09:50Z</time>
      </trkpt>
      <trkpt lat="50.17188" lon="4.07836">
        <ele>199.8</ele>
        <time>2024-12-26T12:10:03Z</time>
      </trkpt>
      <trkpt lat="50.17182" lon="4.07832">
        <ele>199.8</ele>
        <time>2024-12-26T12:10:13Z</time>
      </trkpt>
      <trkpt lat="50.17177" lon="4.07829">
        <ele>199.7</ele>
        <time>2024-12-26T12:10:21Z</time>
      </trkpt>
      <trkpt lat="50.17171" lon="4.07825">
        <ele>199.7</ele>
        <time>2024-12-26T12:10:31Z</time>
      </trkpt>
      <trkpt lat="50.17166" lon="4.07822">
        <ele>199.7</ele>
        <time>2024-12-26T12:10:31Z</time>
      </trkpt>
      <trkpt lat="50.17158" lon="4.07814">
        <ele>199.6</ele>
        <time>2024-12-26T12:10:41Z</time>
      </trkpt>
      <trkpt lat="50.17149" lon="4.07807">
        <ele>199.6</ele>
        <time>2024-12-26T12:10:52Z</time>
      </trkpt>
      <trkpt lat="50.17143" lon="4.07797">
        <ele>199.5</ele>
        <time>2024-12-26T12:11:05Z</time>
      </trkpt>
      <trkpt lat="50.17134" lon="4.0779">
        <ele>199.4</ele>
        <time>2024-12-26T12:11:19Z</time>
      </trkpt>
      <trkpt lat="50.17126" lon="4.07783">
        <ele>199.4</ele>
        <time>2024-12-26T12:11:26Z</time>
      </trkpt>
      <trkpt lat="50.17118" lon="4.07776">
        <ele>199.4</ele>
        <time>2024-12-26T12:11:33Z</time>
      </trkpt>
      <trkpt lat="50.1711" lon="4.07768">
        <ele>199.4</ele>
        <time>2024-12-26T12:11:42Z</time>
      </trkpt>
      <trkpt lat="50.17102" lon="4.07762">
        <ele>199.4</ele>
        <time>2024-12-26T12:11:49Z</time>
      </trkpt>
      <trkpt lat="50.17093" lon="4.07754">
        <ele>199.4</ele>
        <time>2024-12-26T12:11:57Z</time>
      </trkpt>
      <trkpt lat="50.17084" lon="4.0775">
        <ele>199.3</ele>
        <time>2024-12-26T12:12:05Z</time>
      </trkpt>
      <trkpt lat="50.17074" lon="4.07746">
        <ele>199.3</ele>
        <time>2024-12-26T12:12:14Z</time>
      </trkpt>
      <trkpt lat="50.17064" lon="4.07741">
        <ele>199.3</ele>
        <time>2024-12-26T12:12:21Z</time>
      </trkpt>
      <trkpt lat="50.17058" lon="4.0773">
        <ele>199.3</ele>
        <time>2024-12-26T12:12:30Z</time>
      </trkpt>
      <trkpt lat="50.1705" lon="4.07724">
        <ele>199.3</ele>
        <time>2024-12-26T12:12:38Z</time>
      </trkpt>
      <trkpt lat="50.17041" lon="4.07719">
        <ele>199.3</ele>
        <time>2024-12-26T12:12:49Z</time>
      </trkpt>
      <trkpt lat="50.17033" lon="4.07711">
        <ele>199.3</ele>
        <time>2024-12-26T12:12:58Z</time>
      </trkpt>
      <trkpt lat="50.17026" lon="4.07701">
        <ele>199.4</ele>
        <time>2024-12-26T12:13:07Z</time>
      </trkpt>
      <trkpt lat="50.17019" lon="4.07691">
        <ele>199.5</ele>
        <time>2024-12-26T12:13:17Z</time>
      </trkpt>
      <trkpt lat="50.1701" lon="4.07684">
        <ele>199.6</ele>
        <time>2024-12-26T12:13:26Z</time>
      </trkpt>
      <trkpt lat="50.17002" lon="4.07677">
        <ele>199.6</ele>
        <time>2024-12-26T12:13:33Z</time>
      </trkpt>
      <trkpt lat="50.16992" lon="4.07673">
        <ele>199.7</ele>
        <time>2024-12-26T12:13:41Z</time>
      </trkpt>
      <trkpt lat="50.16983" lon="4.07669">
        <ele>199.8</ele>
        <time>2024-12-26T12:13:50Z</time>
      </trkpt>
      <trkpt lat="50.16974" lon="4.07664">
        <ele>199.8</ele>
        <time>2024-12-26T12:13:58Z</time>
      </trkpt>
      <trkpt lat="50.16968" lon="4.07653">
        <ele>199.9</ele>
        <time>2024-12-26T12:14:07Z</time>
      </trkpt>
      <trkpt lat="50.16959" lon="4.07647">
        <ele>200</ele>
        <time>2024-12-26T12:14:15Z</time>
      </trkpt>
      <trkpt lat="50.16952" lon="4.0764">
        <ele>200</ele>
        <time>2024-12-26T12:14:27Z</time>
      </trkpt>
      <trkpt lat="50.16945" lon="4.07629">
        <ele>200.1</ele>
        <time>2024-12-26T12:14:36Z</time>
      </trkpt>
      <trkpt lat="50.16937" lon="4.0762">
        <ele>200.3</ele>
        <time>2024-12-26T12:14:45Z</time>
      </trkpt>
      <trkpt lat="50.16929" lon="4.07614">
        <ele>200.3</ele>
        <time>2024-12-26T12:14:53Z</time>
      </trkpt>
      <trkpt lat="50.16919" lon="4.07609">
        <ele>200.4</ele>
        <time>2024-12-26T12:15:00Z</time>
      </trkpt>
      <trkpt lat="50.16912" lon="4.07601">
        <ele>200.5</ele>
        <time>2024-12-26T12:15:11Z</time>
      </trkpt>
      <trkpt lat="50.16903" lon="4.07599">
        <ele>200.5</ele>
        <time>2024-12-26T12:15:17Z</time>
      </trkpt>
      <trkpt lat="50.16893" lon="4.07594">
        <ele>200.6</ele>
        <time>2024-12-26T12:15:27Z</time>
      </trkpt>
      <trkpt lat="50.16883" lon="4.07592">
        <ele>200.7</ele>
        <time>2024-12-26T12:15:35Z</time>
      </trkpt>
      <trkpt lat="50.16874" lon="4.07586">
        <ele>200.9</ele>
        <time>2024-12-26T12:15:49Z</time>
      </trkpt>
      <trkpt lat="50.16864" lon="4.07582">
        <ele>201</ele>
        <time>2024-12-26T12:15:59Z</time>
      </trkpt>
      <trkpt lat="50.16855" lon="4.07576">
        <ele>201.1</ele>
        <time>2024-12-26T12:16:08Z</time>
      </trkpt>
      <trkpt lat="50.16845" lon="4.07572">
        <ele>201.1</ele>
        <time>2024-12-26T12:16:19Z</time>
      </trkpt>
      <trkpt lat="50.16836" lon="4.07571">
        <ele>201.2</ele>
        <time>2024-12-26T12:16:25Z</time>
      </trkpt>
      <trkpt lat="50.16827" lon="4.07567">
        <ele>201.3</ele>
        <time>2024-12-26T12:16:33Z</time>
      </trkpt>
      <trkpt lat="50.1682" lon="4.07557">
        <ele>201.4</ele>
        <time>2024-12-26T12:16:44Z</time>
      </trkpt>
      <trkpt lat="50.16811" lon="4.07551">
        <ele>201.5</ele>
        <time>2024-12-26T12:16:54Z</time>
      </trkpt>
      <trkpt lat="50.16804" lon="4.07542">
        <ele>201.7</ele>
        <time>2024-12-26T12:17:06Z</time>
      </trkpt>
      <trkpt lat="50.16796" lon="4.07535">
        <ele>201.8</ele>
        <time>2024-12-26T12:17:18Z</time>
      </trkpt>
      <trkpt lat="50.16785" lon="4.07533">
        <ele>202</ele>
        <time>2024-12-26T12:17:26Z</time>
      </trkpt>
      <trkpt lat="50.16777" lon="4.07526">
        <ele>202.1</ele>
        <time>2024-12-26T12:17:35Z</time>
      </trkpt>
      <trkpt lat="50.16769" lon="4.07519">
        <ele>202.2</ele>
        <time>2024-12-26T12:17:46Z</time>
      </trkpt>
      <trkpt lat="50.1676" lon="4.07512">
        <ele>202.3</ele>
        <time>2024-12-26T12:17:56Z</time>
      </trkpt>
      <trkpt lat="50.16752" lon="4.07503">
        <ele>202.5</ele>
        <time>2024-12-26T12:18:04Z</time>
      </trkpt>
      <trkpt lat="50.16744" lon="4.07497">
        <ele>202.6</ele>
        <time>2024-12-26T12:18:12Z</time>
      </trkpt>
      <trkpt lat="50.16734" lon="4.07492">
        <ele>202.8</ele>
        <time>2024-12-26T12:18:21Z</time>
      </trkpt>
      <trkpt lat="50.16726" lon="4.07484">
        <ele>202.9</ele>
        <time>2024-12-26T12:18:30Z</time>
      </trkpt>
      <trkpt lat="50.16718" lon="4.07477">
        <ele>203</ele>
        <time>2024-12-26T12:18:41Z</time>
      </trkpt>
      <trkpt lat="50.16709" lon="4.07469">
        <ele>203.2</ele>
        <time>2024-12-26T12:18:51Z</time>
      </trkpt>
      <trkpt lat="50.16702" lon="4.07461">
        <ele>203.4</ele>
        <time>2024-12-26T12:19:03Z</time>
      </trkpt>
      <trkpt lat="50.16693" lon="4.07454">
        <ele>203.7</ele>
        <time>2024-12-26T12:19:15Z</time>
      </trkpt>
      <trkpt lat="50.16684" lon="4.07449">
        <ele>203.9</ele>
        <time>2024-12-26T12:19:23Z</time>
      </trkpt>
      <trkpt lat="50.16676" lon="4.07441">
        <ele>204.1</ele>
        <time>2024-12-26T12:19:33Z</time>
      </trkpt>
      <trkpt lat="50.16667" lon="4.07434">
        <ele>204.3</ele>
        <time>2024-12-26T12:19:40Z</time>
      </trkpt>
      <trkpt lat="50.16658" lon="4.07428">
        <ele>204.5</ele>
        <time>2024-12-26T12:19:50Z</time>
      </trkpt>
      <trkpt lat="50.16651" lon="4.07417">
        <ele>204.7</ele>
        <time>2024-12-26T12:20:03Z</time>
      </trkpt>
      <trkpt lat="50.16642" lon="4.0741">
        <ele>204.8</ele>
        <time>2024-12-26T12:20:12Z</time>
      </trkpt>
      <trkpt lat="50.16633" lon="4.07405">
        <ele>205</ele>
        <time>2024-12-26T12:20:20Z</time>
      </trkpt>
      <trkpt lat="50.16624" lon="4.07399">
        <ele>205.1</ele>
        <time>2024-12-26T12:20:27Z</time>
      </trkpt>
      <trkpt lat="50.16616" lon="4.07391">
        <ele>205.2</ele>
        <time>2024-12-26T12:20:37Z</time>
      </trkpt>
      <trkpt lat="50.16607" lon="4.07387">
        <ele>205.4</ele>
        <time>2024-12-26T12:20:46Z</time>
      </trkpt>
      <trkpt lat="50.16598" lon="4.07378">
        <ele>205.5</ele>
        <time>2024-12-26T12:20:56Z</time>
      </trkpt>
      <trkpt lat="50.1659" lon="4.07371">
        <ele>205.7</ele>
        <time>2024-12-26T12:21:04Z</time>
      </trkpt>
      <trkpt lat="50.16582" lon="4.07365">
        <ele>205.8</ele>
        <time>2024-12-26T12:21:12Z</time>
      </trkpt>
      <trkpt lat="50.16573" lon="4.0736">
        <ele>205.9</ele>
        <time>2024-12-26T12:21:20Z</time>
      </trkpt>
      <trkpt lat="50.16565" lon="4.07351">
        <ele>206.1</ele>
        <time>2024-12-26T12:21:30Z</time>
      </trkpt>
      <trkpt lat="50.16556" lon="4.07345">
        <ele>206.3</ele>
        <time>2024-12-26T12:21:39Z</time>
      </trkpt>
      <trkpt lat="50.16547" lon="4.07339">
        <ele>206.5</ele>
        <time>2024-12-26T12:21:49Z</time>
      </trkpt>
      <trkpt lat="50.16538" lon="4.07334">
        <ele>206.7</ele>
        <time>2024-12-26T12:21:58Z</time>
      </trkpt>
      <trkpt lat="50.1653" lon="4.0733">
        <ele>206.8</ele>
        <time>2024-12-26T12:22:08Z</time>
      </trkpt>
      <trkpt lat="50.16522" lon="4.07322">
        <ele>207</ele>
        <time>2024-12-26T12:22:17Z</time>
      </trkpt>
      <trkpt lat="50.16513" lon="4.07317">
        <ele>207.2</ele>
        <time>2024-12-26T12:22:25Z</time>
      </trkpt>
      <trkpt lat="50.16505" lon="4.07311">
        <ele>207.4</ele>
        <time>2024-12-26T12:22:34Z</time>
      </trkpt>
      <trkpt lat="50.16497" lon="4.07304">
        <ele>207.6</ele>
        <time>2024-12-26T12:22:41Z</time>
      </trkpt>
      <trkpt lat="50.16489" lon="4.07298">
        <ele>207.8</ele>
        <time>2024-12-26T12:22:50Z</time>
      </trkpt>
      <trkpt lat="50.1648" lon="4.0729">
        <ele>207.9</ele>
        <time>2024-12-26T12:23:00Z</time>
      </trkpt>
      <trkpt lat="50.16471" lon="4.07283">
        <ele>208</ele>
        <time>2024-12-26T12:23:09Z</time>
      </trkpt>
      <trkpt lat="50.16461" lon="4.0728">
        <ele>208.2</ele>
        <time>2024-12-26T12:23:20Z</time>
      </trkpt>
      <trkpt lat="50.16453" lon="4.07275">
        <ele>208.3</ele>
        <time>2024-12-26T12:23:28Z</time>
      </trkpt>
      <trkpt lat="50.16445" lon="4.07269">
        <ele>208.4</ele>
        <time>2024-12-26T12:23:38Z</time>
      </trkpt>
      <trkpt lat="50.16436" lon="4.07266">
        <ele>208.5</ele>
        <time>2024-12-26T12:23:48Z</time>
      </trkpt>
      <trkpt lat="50.16428" lon="4.07259">
        <ele>208.6</ele>
        <time>2024-12-26T12:23:56Z</time>
      </trkpt>
      <trkpt lat="50.16419" lon="4.07253">
        <ele>208.7</ele>
        <time>2024-12-26T12:24:09Z</time>
      </trkpt>
      <trkpt lat="50.16409" lon="4.07247">
        <ele>208.9</ele>
        <time>2024-12-26T12:24:16Z</time>
      </trkpt>
      <trkpt lat="50.16401" lon="4.07242">
        <ele>209</ele>
        <time>2024-12-26T12:24:24Z</time>
      </trkpt>
      <trkpt lat="50.16392" lon="4.07235">
        <ele>209.2</ele>
        <time>2024-12-26T12:24:33Z</time>
      </trkpt>
      <trkpt lat="50.16383" lon="4.0723">
        <ele>209.4</ele>
        <time>2024-12-26T12:24:43Z</time>
      </trkpt>
      <trkpt lat="50.16374" lon="4.07227">
        <ele>209.5</ele>
        <time>2024-12-26T12:24:51Z</time>
      </trkpt>
      <trkpt lat="50.16365" lon="4.07225">
        <ele>209.8</ele>
        <time>2024-12-26T12:25:00Z</time>
      </trkpt>
      <trkpt lat="50.16356" lon="4.07218">
        <ele>210</ele>
        <time>2024-12-26T12:25:08Z</time>
      </trkpt>
      <trkpt lat="50.16346" lon="4.07216">
        <ele>210.2</ele>
        <time>2024-12-26T12:25:17Z</time>
      </trkpt>
      <trkpt lat="50.16338" lon="4.07209">
        <ele>210.3</ele>
        <time>2024-12-26T12:25:27Z</time>
      </trkpt>
      <trkpt lat="50.16329" lon="4.07202">
        <ele>210.5</ele>
        <time>2024-12-26T12:25:36Z</time>
      </trkpt>
      <trkpt lat="50.1632" lon="4.07199">
        <ele>210.7</ele>
        <time>2024-12-26T12:25:44Z</time>
      </trkpt>
      <trkpt lat="50.16311" lon="4.07193">
        <ele>210.9</ele>
        <time>2024-12-26T12:25:54Z</time>
      </trkpt>
      <trkpt lat="50.16302" lon="4.0719">
        <ele>211.1</ele>
        <time>2024-12-26T12:26:03Z</time>
      </trkpt>
      <trkpt lat="50.16293" lon="4.07184">
        <ele>211.3</ele>
        <time>2024-12-26T12:26:12Z</time>
      </trkpt>
      <trkpt lat="50.16283" lon="4.0718">
        <ele>211.6</ele>
        <time>2024-12-26T12:26:22Z</time>
      </trkpt>
      <trkpt lat="50.16273" lon="4.07181">
        <ele>211.8</ele>
        <time>2024-12-26T12:26:32Z</time>
      </trkpt>
      <trkpt lat="50.16264" lon="4.07176">
        <ele>212.1</ele>
        <time>2024-12-26T12:26:41Z</time>
      </trkpt>
      <trkpt lat="50.16255" lon="4.07172">
        <ele>212.4</ele>
        <time>2024-12-26T12:26:50Z</time>
      </trkpt>
      <trkpt lat="50.16246" lon="4.07168">
        <ele>212.7</ele>
        <time>2024-12-26T12:26:59Z</time>
      </trkpt>
      <trkpt lat="50.16236" lon="4.07165">
        <ele>213</ele>
        <time>2024-12-26T12:27:08Z</time>
      </trkpt>
      <trkpt lat="50.16227" lon="4.07158">
        <ele>213.3</ele>
        <time>2024-12-26T12:27:17Z</time>
      </trkpt>
      <trkpt lat="50.16218" lon="4.07156">
        <ele>213.3</ele>
        <time>2024-12-26T12:27:28Z</time>
      </trkpt>
      <trkpt lat="50.16209" lon="4.07154">
        <ele>213.4</ele>
        <time>2024-12-26T12:27:39Z</time>
      </trkpt>
      <trkpt lat="50.16199" lon="4.07151">
        <ele>213.4</ele>
        <time>2024-12-26T12:27:50Z</time>
      </trkpt>
      <trkpt lat="50.16191" lon="4.07144">
        <ele>213.5</ele>
        <time>2024-12-26T12:27:59Z</time>
      </trkpt>
      <trkpt lat="50.16183" lon="4.07138">
        <ele>213.6</ele>
        <time>2024-12-26T12:28:08Z</time>
      </trkpt>
      <trkpt lat="50.16173" lon="4.07138">
        <ele>213.8</ele>
        <time>2024-12-26T12:28:21Z</time>
      </trkpt>
      <trkpt lat="50.16165" lon="4.07133">
        <ele>213.9</ele>
        <time>2024-12-26T12:28:35Z</time>
      </trkpt>
      <trkpt lat="50.16155" lon="4.07131">
        <ele>214.1</ele>
        <time>2024-12-26T12:28:46Z</time>
      </trkpt>
      <trkpt lat="50.16146" lon="4.0713">
        <ele>214.4</ele>
        <time>2024-12-26T12:28:52Z</time>
      </trkpt>
      <trkpt lat="50.16137" lon="4.0713">
        <ele>214.6</ele>
        <time>2024-12-26T12:28:59Z</time>
      </trkpt>
      <trkpt lat="50.16127" lon="4.07129">
        <ele>214.8</ele>
        <time>2024-12-26T12:29:08Z</time>
      </trkpt>
      <trkpt lat="50.16119" lon="4.07126">
        <ele>215</ele>
        <time>2024-12-26T12:29:18Z</time>
      </trkpt>
      <trkpt lat="50.16109" lon="4.07122">
        <ele>215.1</ele>
        <time>2024-12-26T12:29:29Z</time>
      </trkpt>
      <trkpt lat="50.161" lon="4.0712">
        <ele>215.3</ele>
        <time>2024-12-26T12:29:39Z</time>
      </trkpt>
      <trkpt lat="50.16091" lon="4.07116">
        <ele>215.4</ele>
        <time>2024-12-26T12:29:47Z</time>
      </trkpt>
      <trkpt lat="50.16083" lon="4.07108">
        <ele>215.6</ele>
        <time>2024-12-26T12:30:02Z</time>
      </trkpt>
      <trkpt lat="50.16073" lon="4.07108">
        <ele>215.7</ele>
        <time>2024-12-26T12:30:09Z</time>
      </trkpt>
      <trkpt lat="50.16064" lon="4.07109">
        <ele>215.9</ele>
        <time>2024-12-26T12:30:17Z</time>
      </trkpt>
      <trkpt lat="50.16056" lon="4.07101">
        <ele>216.1</ele>
        <time>2024-12-26T12:30:23Z</time>
      </trkpt>
      <trkpt lat="50.16045" lon="4.07101">
        <ele>216.3</ele>
        <time>2024-12-26T12:30:30Z</time>
      </trkpt>
      <trkpt lat="50.16037" lon="4.07097">
        <ele>216.5</ele>
        <time>2024-12-26T12:30:37Z</time>
      </trkpt>
      <trkpt lat="50.16027" lon="4.07097">
        <ele>216.6</ele>
        <time>2024-12-26T12:30:45Z</time>
      </trkpt>
      <trkpt lat="50.16017" lon="4.07097">
        <ele>216.8</ele>
        <time>2024-12-26T12:30:55Z</time>
      </trkpt>
      <trkpt lat="50.16008" lon="4.07093">
        <ele>216.9</ele>
        <time>2024-12-26T12:31:05Z</time>
      </trkpt>
      <trkpt lat="50.15999" lon="4.07091">
        <ele>217.1</ele>
        <time>2024-12-26T12:31:13Z</time>
      </trkpt>
      <trkpt lat="50.15989" lon="4.07087">
        <ele>217.2</ele>
        <time>2024-12-26T12:31:25Z</time>
      </trkpt>
      <trkpt lat="50.15981" lon="4.07084">
        <ele>217.4</ele>
        <time>2024-12-26T12:31:36Z</time>
      </trkpt>
      <trkpt lat="50.1597" lon="4.07084">
        <ele>217.6</ele>
        <time>2024-12-26T12:31:43Z</time>
      </trkpt>
      <trkpt lat="50.15961" lon="4.07084">
        <ele>217.8</ele>
        <time>2024-12-26T12:31:50Z</time>
      </trkpt>
      <trkpt lat="50.15951" lon="4.07081">
        <ele>218</ele>
        <time>2024-12-26T12:32:00Z</time>
      </trkpt>
      <trkpt lat="50.15943" lon="4.07076">
        <ele>218.2</ele>
        <time>2024-12-26T12:32:11Z</time>
      </trkpt>
      <trkpt lat="50.15933" lon="4.07076">
        <ele>218.3</ele>
        <time>2024-12-26T12:32:19Z</time>
      </trkpt>
      <trkpt lat="50.15924" lon="4.07077">
        <ele>218.4</ele>
        <time>2024-12-26T12:32:32Z</time>
      </trkpt>
      <trkpt lat="50.15915" lon="4.07073">
        <ele>218.4</ele>
        <time>2024-12-26T12:32:41Z</time>
      </trkpt>
      <trkpt lat="50.15906" lon="4.07071">
        <ele>218.5</ele>
        <time>2024-12-26T12:32:48Z</time>
      </trkpt>
      <trkpt lat="50.15897" lon="4.07068">
        <ele>218.6</ele>
        <time>2024-12-26T12:32:55Z</time>
      </trkpt>
      <trkpt lat="50.15888" lon="4.07065">
        <ele>218.6</ele>
        <time>2024-12-26T12:33:04Z</time>
      </trkpt>
      <trkpt lat="50.15879" lon="4.07065">
        <ele>218.6</ele>
        <time>2024-12-26T12:33:15Z</time>
      </trkpt>
      <trkpt lat="50.1587" lon="4.07062">
        <ele>218.6</ele>
        <time>2024-12-26T12:33:25Z</time>
      </trkpt>
      <trkpt lat="50.1586" lon="4.07064">
        <ele>218.6</ele>
        <time>2024-12-26T12:33:35Z</time>
      </trkpt>
      <trkpt lat="50.15851" lon="4.07064">
        <ele>218.6</ele>
        <time>2024-12-26T12:33:42Z</time>
      </trkpt>
      <trkpt lat="50.15841" lon="4.07062">
        <ele>218.7</ele>
        <time>2024-12-26T12:33:53Z</time>
      </trkpt>
      <trkpt lat="50.15831" lon="4.07064">
        <ele>218.6</ele>
        <time>2024-12-26T12:34:03Z</time>
      </trkpt>
      <trkpt lat="50.15823" lon="4.07061">
        <ele>218.6</ele>
        <time>2024-12-26T12:34:11Z</time>
      </trkpt>
      <trkpt lat="50.15814" lon="4.07057">
        <ele>218.5</ele>
        <time>2024-12-26T12:34:19Z</time>
      </trkpt>
      <trkpt lat="50.15804" lon="4.07059">
        <ele>218.5</ele>
        <time>2024-12-26T12:34:30Z</time>
      </trkpt>
      <trkpt lat="50.15795" lon="4.07056">
        <ele>218.4</ele>
        <time>2024-12-26T12:34:38Z</time>
      </trkpt>
      <trkpt lat="50.15786" lon="4.07052">
        <ele>218.4</ele>
        <time>2024-12-26T12:34:46Z</time>
      </trkpt>
      <trkpt lat="50.15776" lon="4.07049">
        <ele>218.3</ele>
        <time>2024-12-26T12:34:55Z</time>
      </trkpt>
      <trkpt lat="50.15767" lon="4.07049">
        <ele>218.2</ele>
        <time>2024-12-26T12:35:03Z</time>
      </trkpt>
      <trkpt lat="50.15759" lon="4.07046">
        <ele>218.2</ele>
        <time>2024-12-26T12:35:12Z</time>
      </trkpt>
      <trkpt lat="50.1575" lon="4.07045">
        <ele>218.1</ele>
        <time>2024-12-26T12:35:22Z</time>
      </trkpt>
      <trkpt lat="50.15741" lon="4.07039">
        <ele>218.1</ele>
        <time>2024-12-26T12:35:31Z</time>
      </trkpt>
      <trkpt lat="50.15731" lon="4.07039">
        <ele>218</ele>
        <time>2024-12-26T12:35:42Z</time>
      </trkpt>
      <trkpt lat="50.15721" lon="4.07038">
        <ele>217.9</ele>
        <time>2024-12-26T12:35:54Z</time>
      </trkpt>
      <trkpt lat="50.15711" lon="4.07036">
        <ele>217.9</ele>
        <time>2024-12-26T12:36:03Z</time>
      </trkpt>
      <trkpt lat="50.15701" lon="4.07034">
        <ele>217.9</ele>
        <time>2024-12-26T12:36:12Z</time>
      </trkpt>
      <trkpt lat="50.15691" lon="4.07032">
        <ele>217.8</ele>
        <time>2024-12-26T12:36:20Z</time>
      </trkpt>
      <trkpt lat="50.15682" lon="4.07031">
        <ele>217.8</ele>
        <time>2024-12-26T12:36:28Z</time>
      </trkpt>
      <trkpt lat="50.15673" lon="4.07029">
        <ele>217.8</ele>
        <time>2024-12-26T12:36:41Z</time>
      </trkpt>
      <trkpt lat="50.15671" lon="4.07027">
        <ele>217.8</ele>
        <time>2024-12-26T12:36:45Z</time>
      </trkpt>
      <trkpt lat="50.15671" lon="4.07027">
        <ele>217.8</ele>
        <time>2024-12-26T12:36:46Z</time>
      </trkpt>
      <trkpt lat="50.15671" lon="4.07027">
        <ele>217.8</ele>
        <time>2024-12-26T12:36:47Z</time>
      </trkpt>
      <trkpt lat="50.15671" lon="4.07027">
        <ele>217.8</ele>
        <time>2024-12-26T12:36:50Z</time>
      </trkpt>
      <trkpt lat="50.15671" lon="4.07027">
        <ele>217.8</ele>
        <time>2024-12-26T12:36:51Z</time>
      </trkpt>
      <trkpt lat="50.15671" lon="4.07026">
        <ele>217.8</ele>
        <time>2024-12-26T12:36:52Z</time>
      </trkpt>
      <trkpt lat="50.15669" lon="4.07026">
        <ele>217.8</ele>
        <time>2024-12-26T12:36:56Z</time>
      </trkpt>
      <trkpt lat="50.15668" lon="4.07026">
        <ele>217.8</ele>
        <time>2024-12-26T12:36:57Z</time>
      </trkpt>
      <trkpt lat="50.15668" lon="4.07026">
        <ele>217.8</ele>
        <time>2024-12-26T12:36:58Z</time>
      </trkpt>
      <trkpt lat="50.15668" lon="4.07026">
        <ele>217.8</ele>
        <time>2024-12-26T12:36:59Z</time>
      </trkpt>
      <trkpt lat="50.15657" lon="4.07024">
        <ele>217.7</ele>
        <time>2024-12-26T12:37:13Z</time>
      </trkpt>
      <trkpt lat="50.15647" lon="4.07021">
        <ele>217.7</ele>
        <time>2024-12-26T12:37:22Z</time>
      </trkpt>
      <trkpt lat="50.15637" lon="4.07022">
        <ele>217.7</ele>
        <time>2024-12-26T12:37:36Z</time>
      </trkpt>
      <trkpt lat="50.15626" lon="4.07019">
        <ele>217.7</ele>
        <time>2024-12-26T12:37:48Z</time>
      </trkpt>
      <trkpt lat="50.15617" lon="4.07017">
        <ele>217.8</ele>
        <time>2024-12-26T12:37:54Z</time>
      </trkpt>
      <trkpt lat="50.15608" lon="4.07014">
        <ele>217.8</ele>
        <time>2024-12-26T12:38:01Z</time>
      </trkpt>
      <trkpt lat="50.15599" lon="4.07011">
        <ele>217.7</ele>
        <time>2024-12-26T12:38:16Z</time>
      </trkpt>
      <trkpt lat="50.15589" lon="4.07009">
        <ele>217.7</ele>
        <time>2024-12-26T12:38:27Z</time>
      </trkpt>
      <trkpt lat="50.1558" lon="4.07008">
        <ele>217.8</ele>
        <time>2024-12-26T12:38:32Z</time>
      </trkpt>
      <trkpt lat="50.1557" lon="4.07005">
        <ele>217.8</ele>
        <time>2024-12-26T12:38:39Z</time>
      </trkpt>
      <trkpt lat="50.15561" lon="4.07003">
        <ele>217.8</ele>
        <time>2024-12-26T12:38:48Z</time>
      </trkpt>
      <trkpt lat="50.15552" lon="4.07002">
        <ele>217.8</ele>
        <time>2024-12-26T12:38:55Z</time>
      </trkpt>
      <trkpt lat="50.15543" lon="4.07">
        <ele>217.8</ele>
        <time>2024-12-26T12:39:04Z</time>
      </trkpt>
      <trkpt lat="50.15534" lon="4.06997">
        <ele>217.8</ele>
        <time>2024-12-26T12:39:17Z</time>
      </trkpt>
      <trkpt lat="50.15524" lon="4.06997">
        <ele>217.7</ele>
        <time>2024-12-26T12:39:30Z</time>
      </trkpt>
      <trkpt lat="50.15514" lon="4.06995">
        <ele>217.7</ele>
        <time>2024-12-26T12:39:36Z</time>
      </trkpt>
      <trkpt lat="50.15505" lon="4.06995">
        <ele>217.6</ele>
        <time>2024-12-26T12:39:43Z</time>
      </trkpt>
      <trkpt lat="50.15496" lon="4.0699">
        <ele>217.6</ele>
        <time>2024-12-26T12:39:52Z</time>
      </trkpt>
      <trkpt lat="50.15486" lon="4.06988">
        <ele>217.6</ele>
        <time>2024-12-26T12:40:01Z</time>
      </trkpt>
      <trkpt lat="50.15477" lon="4.06986">
        <ele>217.5</ele>
        <time>2024-12-26T12:40:10Z</time>
      </trkpt>
      <trkpt lat="50.15467" lon="4.06982">
        <ele>217.5</ele>
        <time>2024-12-26T12:40:19Z</time>
      </trkpt>
      <trkpt lat="50.15457" lon="4.06982">
        <ele>217.5</ele>
        <time>2024-12-26T12:40:28Z</time>
      </trkpt>
      <trkpt lat="50.15448" lon="4.06982">
        <ele>217.5</ele>
        <time>2024-12-26T12:40:37Z</time>
      </trkpt>
      <trkpt lat="50.15439" lon="4.06979">
        <ele>217.6</ele>
        <time>2024-12-26T12:40:45Z</time>
      </trkpt>
      <trkpt lat="50.1543" lon="4.06977">
        <ele>217.6</ele>
        <time>2024-12-26T12:40:54Z</time>
      </trkpt>
      <trkpt lat="50.15421" lon="4.06976">
        <ele>217.5</ele>
        <time>2024-12-26T12:41:03Z</time>
      </trkpt>
      <trkpt lat="50.15412" lon="4.06974">
        <ele>217.5</ele>
        <time>2024-12-26T12:41:12Z</time>
      </trkpt>
      <trkpt lat="50.15402" lon="4.06971">
        <ele>217.5</ele>
        <time>2024-12-26T12:41:22Z</time>
      </trkpt>
      <trkpt lat="50.15392" lon="4.06969">
        <ele>217.6</ele>
        <time>2024-12-26T12:41:31Z</time>
      </trkpt>
      <trkpt lat="50.15382" lon="4.06968">
        <ele>217.6</ele>
        <time>2024-12-26T12:41:42Z</time>
      </trkpt>
      <trkpt lat="50.15373" lon="4.06966">
        <ele>217.6</ele>
        <time>2024-12-26T12:41:51Z</time>
      </trkpt>
      <trkpt lat="50.15363" lon="4.06964">
        <ele>217.6</ele>
        <time>2024-12-26T12:42:01Z</time>
      </trkpt>
      <trkpt lat="50.15353" lon="4.06966">
        <ele>217.6</ele>
        <time>2024-12-26T12:42:10Z</time>
      </trkpt>
      <trkpt lat="50.15344" lon="4.06963">
        <ele>217.6</ele>
        <time>2024-12-26T12:42:20Z</time>
      </trkpt>
      <trkpt lat="50.15334" lon="4.0696">
        <ele>217.5</ele>
        <time>2024-12-26T12:42:30Z</time>
      </trkpt>
      <trkpt lat="50.15324" lon="4.06957">
        <ele>217.5</ele>
        <time>2024-12-26T12:42:40Z</time>
      </trkpt>
      <trkpt lat="50.15315" lon="4.06952">
        <ele>217.5</ele>
        <time>2024-12-26T12:42:51Z</time>
      </trkpt>
      <trkpt lat="50.15305" lon="4.06948">
        <ele>217.6</ele>
        <time>2024-12-26T12:43:00Z</time>
      </trkpt>
      <trkpt lat="50.15303" lon="4.06951">
        <ele>217.6</ele>
        <time>2024-12-26T12:43:06Z</time>
      </trkpt>
      <trkpt lat="50.15303" lon="4.06951">
        <ele>217.6</ele>
        <time>2024-12-26T12:43:07Z</time>
      </trkpt>
      <trkpt lat="50.15302" lon="4.06951">
        <ele>217.6</ele>
        <time>2024-12-26T12:43:10Z</time>
      </trkpt>
      <trkpt lat="50.153" lon="4.06951">
        <ele>217.6</ele>
        <time>2024-12-26T12:43:11Z</time>
      </trkpt>
      <trkpt lat="50.15299" lon="4.06951">
        <ele>217.6</ele>
        <time>2024-12-26T12:43:12Z</time>
      </trkpt>
      <trkpt lat="50.1529" lon="4.06949">
        <ele>217.4</ele>
        <time>2024-12-26T12:43:23Z</time>
      </trkpt>
      <trkpt lat="50.15281" lon="4.06946">
        <ele>217</ele>
        <time>2024-12-26T12:43:32Z</time>
      </trkpt>
      <trkpt lat="50.15271" lon="4.06945">
        <ele>216.7</ele>
        <time>2024-12-26T12:43:41Z</time>
      </trkpt>
      <trkpt lat="50.15262" lon="4.06942">
        <ele>216.4</ele>
        <time>2024-12-26T12:43:50Z</time>
      </trkpt>
      <trkpt lat="50.15252" lon="4.0694">
        <ele>216.2</ele>
        <time>2024-12-26T12:43:59Z</time>
      </trkpt>
      <trkpt lat="50.15244" lon="4.06933">
        <ele>216</ele>
        <time>2024-12-26T12:44:11Z</time>
      </trkpt>
      <trkpt lat="50.15234" lon="4.06932">
        <ele>215.8</ele>
        <time>2024-12-26T12:44:19Z</time>
      </trkpt>
      <trkpt lat="50.15224" lon="4.06932">
        <ele>215.6</ele>
        <time>2024-12-26T12:44:32Z</time>
      </trkpt>
      <trkpt lat="50.15215" lon="4.06932">
        <ele>215.4</ele>
        <time>2024-12-26T12:44:40Z</time>
      </trkpt>
      <trkpt lat="50.15205" lon="4.0693">
        <ele>215.2</ele>
        <time>2024-12-26T12:44:47Z</time>
      </trkpt>
      <trkpt lat="50.15195" lon="4.0693">
        <ele>215</ele>
        <time>2024-12-26T12:45:00Z</time>
      </trkpt>
      <trkpt lat="50.15185" lon="4.06927">
        <ele>214.8</ele>
        <time>2024-12-26T12:45:08Z</time>
      </trkpt>
      <trkpt lat="50.15175" lon="4.06928">
        <ele>214.6</ele>
        <time>2024-12-26T12:45:19Z</time>
      </trkpt>
      <trkpt lat="50.15166" lon="4.06928">
        <ele>214.4</ele>
        <time>2024-12-26T12:45:29Z</time>
      </trkpt>
      <trkpt lat="50.15158" lon="4.06923">
        <ele>214.3</ele>
        <time>2024-12-26T12:45:39Z</time>
      </trkpt>
      <trkpt lat="50.15149" lon="4.06923">
        <ele>214.1</ele>
        <time>2024-12-26T12:45:48Z</time>
      </trkpt>
      <trkpt lat="50.15139" lon="4.06922">
        <ele>213.9</ele>
        <time>2024-12-26T12:45:58Z</time>
      </trkpt>
      <trkpt lat="50.1513" lon="4.06922">
        <ele>213.6</ele>
        <time>2024-12-26T12:46:06Z</time>
      </trkpt>
      <trkpt lat="50.15121" lon="4.06921">
        <ele>213.4</ele>
        <time>2024-12-26T12:46:13Z</time>
      </trkpt>
      <trkpt lat="50.15111" lon="4.06919">
        <ele>213.2</ele>
        <time>2024-12-26T12:46:20Z</time>
      </trkpt>
      <trkpt lat="50.15103" lon="4.06913">
        <ele>212.9</ele>
        <time>2024-12-26T12:46:28Z</time>
      </trkpt>
      <trkpt lat="50.15093" lon="4.06913">
        <ele>212.7</ele>
        <time>2024-12-26T12:46:36Z</time>
      </trkpt>
      <trkpt lat="50.15084" lon="4.06911">
        <ele>212.4</ele>
        <time>2024-12-26T12:46:44Z</time>
      </trkpt>
      <trkpt lat="50.15075" lon="4.06907">
        <ele>212.3</ele>
        <time>2024-12-26T12:46:53Z</time>
      </trkpt>
      <trkpt lat="50.15066" lon="4.06904">
        <ele>212.1</ele>
        <time>2024-12-26T12:47:02Z</time>
      </trkpt>
      <trkpt lat="50.15056" lon="4.06902">
        <ele>211.9</ele>
        <time>2024-12-26T12:47:12Z</time>
      </trkpt>
      <trkpt lat="50.15046" lon="4.06903">
        <ele>211.7</ele>
        <time>2024-12-26T12:47:22Z</time>
      </trkpt>
      <trkpt lat="50.15037" lon="4.06898">
        <ele>211.5</ele>
        <time>2024-12-26T12:47:30Z</time>
      </trkpt>
      <trkpt lat="50.15027" lon="4.06895">
        <ele>211.2</ele>
        <time>2024-12-26T12:47:42Z</time>
      </trkpt>
      <trkpt lat="50.15018" lon="4.06896">
        <ele>211</ele>
        <time>2024-12-26T12:47:51Z</time>
      </trkpt>
      <trkpt lat="50.15007" lon="4.06896">
        <ele>210.7</ele>
        <time>2024-12-26T12:48:07Z</time>
      </trkpt>
      <trkpt lat="50.14997" lon="4.06893">
        <ele>210.5</ele>
        <time>2024-12-26T12:48:17Z</time>
      </trkpt>
      <trkpt lat="50.14988" lon="4.06891">
        <ele>210.2</ele>
        <time>2024-12-26T12:48:25Z</time>
      </trkpt>
      <trkpt lat="50.14979" lon="4.06891">
        <ele>209.9</ele>
        <time>2024-12-26T12:48:34Z</time>
      </trkpt>
      <trkpt lat="50.1497" lon="4.06886">
        <ele>209.7</ele>
        <time>2024-12-26T12:48:42Z</time>
      </trkpt>
      <trkpt lat="50.1496" lon="4.06884">
        <ele>209.6</ele>
        <time>2024-12-26T12:48:53Z</time>
      </trkpt>
      <trkpt lat="50.14951" lon="4.06879">
        <ele>209.5</ele>
        <time>2024-12-26T12:49:03Z</time>
      </trkpt>
      <trkpt lat="50.14942" lon="4.06883">
        <ele>209.5</ele>
        <time>2024-12-26T12:49:11Z</time>
      </trkpt>
      <trkpt lat="50.14933" lon="4.0688">
        <ele>209.5</ele>
        <time>2024-12-26T12:49:22Z</time>
      </trkpt>
      <trkpt lat="50.14923" lon="4.06878">
        <ele>209.5</ele>
        <time>2024-12-26T12:49:32Z</time>
      </trkpt>
      <trkpt lat="50.14913" lon="4.06875">
        <ele>209.5</ele>
        <time>2024-12-26T12:49:41Z</time>
      </trkpt>
      <trkpt lat="50.14902" lon="4.06874">
        <ele>209.6</ele>
        <time>2024-12-26T12:49:49Z</time>
      </trkpt>
      <trkpt lat="50.14894" lon="4.06869">
        <ele>209.7</ele>
        <time>2024-12-26T12:49:59Z</time>
      </trkpt>
      <trkpt lat="50.14885" lon="4.06868">
        <ele>209.7</ele>
        <time>2024-12-26T12:50:12Z</time>
      </trkpt>
      <trkpt lat="50.14875" lon="4.06867">
        <ele>209.8</ele>
        <time>2024-12-26T12:50:21Z</time>
      </trkpt>
      <trkpt lat="50.14866" lon="4.06862">
        <ele>209.8</ele>
        <time>2024-12-26T12:50:30Z</time>
      </trkpt>
      <trkpt lat="50.14857" lon="4.06862">
        <ele>209.9</ele>
        <time>2024-12-26T12:50:38Z</time>
      </trkpt>
      <trkpt lat="50.14847" lon="4.06861">
        <ele>209.9</ele>
        <time>2024-12-26T12:50:50Z</time>
      </trkpt>
      <trkpt lat="50.14837" lon="4.0686">
        <ele>210</ele>
        <time>2024-12-26T12:50:58Z</time>
      </trkpt>
      <trkpt lat="50.14827" lon="4.06859">
        <ele>210.1</ele>
        <time>2024-12-26T12:51:05Z</time>
      </trkpt>
      <trkpt lat="50.14818" lon="4.06857">
        <ele>210.2</ele>
        <time>2024-12-26T12:51:13Z</time>
      </trkpt>
      <trkpt lat="50.14809" lon="4.06856">
        <ele>210.3</ele>
        <time>2024-12-26T12:51:23Z</time>
      </trkpt>
      <trkpt lat="50.14799" lon="4.06854">
        <ele>210.5</ele>
        <time>2024-12-26T12:51:31Z</time>
      </trkpt>
      <trkpt lat="50.1479" lon="4.06852">
        <ele>210.7</ele>
        <time>2024-12-26T12:51:40Z</time>
      </trkpt>
      <trkpt lat="50.14781" lon="4.06852">
        <ele>210.9</ele>
        <time>2024-12-26T12:51:52Z</time>
      </trkpt>
      <trkpt lat="50.14771" lon="4.06851">
        <ele>211.1</ele>
        <time>2024-12-26T12:52:03Z</time>
      </trkpt>
      <trkpt lat="50.14762" lon="4.06848">
        <ele>211.3</ele>
        <time>2024-12-26T12:52:10Z</time>
      </trkpt>
      <trkpt lat="50.14752" lon="4.06847">
        <ele>211.5</ele>
        <time>2024-12-26T12:52:19Z</time>
      </trkpt>
      <trkpt lat="50.14743" lon="4.06849">
        <ele>211.6</ele>
        <time>2024-12-26T12:52:28Z</time>
      </trkpt>
      <trkpt lat="50.14734" lon="4.06847">
        <ele>211.8</ele>
        <time>2024-12-26T12:52:41Z</time>
      </trkpt>
      <trkpt lat="50.14724" lon="4.06847">
        <ele>212</ele>
        <time>2024-12-26T12:52:52Z</time>
      </trkpt>
      <trkpt lat="50.14714" lon="4.06846">
        <ele>212.2</ele>
        <time>2024-12-26T12:53:02Z</time>
      </trkpt>
      <trkpt lat="50.14705" lon="4.06843">
        <ele>212.4</ele>
        <time>2024-12-26T12:53:10Z</time>
      </trkpt>
      <trkpt lat="50.14695" lon="4.0684">
        <ele>212.7</ele>
        <time>2024-12-26T12:53:18Z</time>
      </trkpt>
      <trkpt lat="50.14686" lon="4.06838">
        <ele>212.9</ele>
        <time>2024-12-26T12:53:30Z</time>
      </trkpt>
      <trkpt lat="50.14677" lon="4.06833">
        <ele>213.1</ele>
        <time>2024-12-26T12:53:44Z</time>
      </trkpt>
      <trkpt lat="50.14673" lon="4.06834">
        <ele>213.2</ele>
        <time>2024-12-26T12:53:51Z</time>
      </trkpt>
      <trkpt lat="50.14672" lon="4.06834">
        <ele>213.2</ele>
        <time>2024-12-26T12:53:52Z</time>
      </trkpt>
      <trkpt lat="50.14674" lon="4.06823">
        <ele>213.3</ele>
        <time>2024-12-26T12:54:06Z</time>
      </trkpt>
      <trkpt lat="50.14674" lon="4.06823">
        <ele>213.3</ele>
        <time>2024-12-26T12:54:07Z</time>
      </trkpt>
      <trkpt lat="50.14665" lon="4.06829">
        <ele>213.6</ele>
        <time>2024-12-26T12:54:18Z</time>
      </trkpt>
      <trkpt lat="50.14661" lon="4.06828">
        <ele>213.7</ele>
        <time>2024-12-26T12:54:23Z</time>
      </trkpt>
      <trkpt lat="50.14661" lon="4.06829">
        <ele>213.7</ele>
        <time>2024-12-26T12:54:24Z</time>
      </trkpt>
      <trkpt lat="50.14661" lon="4.06828">
        <ele>213.7</ele>
        <time>2024-12-26T12:54:28Z</time>
      </trkpt>
      <trkpt lat="50.14661" lon="4.06829">
        <ele>213.7</ele>
        <time>2024-12-26T12:54:29Z</time>
      </trkpt>
      <trkpt lat="50.1466" lon="4.06829">
        <ele>213.7</ele>
        <time>2024-12-26T12:54:30Z</time>
      </trkpt>
      <trkpt lat="50.14658" lon="4.06829">
        <ele>213.8</ele>
        <time>2024-12-26T12:54:33Z</time>
      </trkpt>
      <trkpt lat="50.14658" lon="4.06829">
        <ele>213.8</ele>
        <time>2024-12-26T12:54:34Z</time>
      </trkpt>
      <trkpt lat="50.14654" lon="4.06831">
        <ele>213.9</ele>
        <time>2024-12-26T12:54:38Z</time>
      </trkpt>
      <trkpt lat="50.14652" lon="4.06831">
        <ele>213.9</ele>
        <time>2024-12-26T12:54:39Z</time>
      </trkpt>
      <trkpt lat="50.14651" lon="4.06832">
        <ele>214</ele>
        <time>2024-12-26T12:54:40Z</time>
      </trkpt>
      <trkpt lat="50.14642" lon="4.0683">
        <ele>214.2</ele>
        <time>2024-12-26T12:55:01Z</time>
      </trkpt>
      <trkpt lat="50.1464" lon="4.06831">
        <ele>214.2</ele>
        <time>2024-12-26T12:55:03Z</time>
      </trkpt>
      <trkpt lat="50.1464" lon="4.06832">
        <ele>214.3</ele>
        <time>2024-12-26T12:55:04Z</time>
      </trkpt>
      <trkpt lat="50.14639" lon="4.06832">
        <ele>214.3</ele>
        <time>2024-12-26T12:55:05Z</time>
      </trkpt>
      <trkpt lat="50.14638" lon="4.06831">
        <ele>214.3</ele>
        <time>2024-12-26T12:55:06Z</time>
      </trkpt>
      <trkpt lat="50.14637" lon="4.06831">
        <ele>214.3</ele>
        <time>2024-12-26T12:55:07Z</time>
      </trkpt>
      <trkpt lat="50.14627" lon="4.06832">
        <ele>214.5</ele>
        <time>2024-12-26T12:55:21Z</time>
      </trkpt>
      <trkpt lat="50.14618" lon="4.06832">
        <ele>214.7</ele>
        <time>2024-12-26T12:55:30Z</time>
      </trkpt>
      <trkpt lat="50.14608" lon="4.06831">
        <ele>214.8</ele>
        <time>2024-12-26T12:55:40Z</time>
      </trkpt>
      <trkpt lat="50.14598" lon="4.06827">
        <ele>215</ele>
        <time>2024-12-26T12:55:52Z</time>
      </trkpt>
      <trkpt lat="50.14589" lon="4.06828">
        <ele>215.1</ele>
        <time>2024-12-26T12:56:06Z</time>
      </trkpt>
      <trkpt lat="50.14579" lon="4.06828">
        <ele>215.2</ele>
        <time>2024-12-26T12:56:16Z</time>
      </trkpt>
      <trkpt lat="50.14569" lon="4.06832">
        <ele>215.4</ele>
        <time>2024-12-26T12:56:28Z</time>
      </trkpt>
      <trkpt lat="50.14559" lon="4.06828">
        <ele>215.5</ele>
        <time>2024-12-26T12:56:34Z</time>
      </trkpt>
      <trkpt lat="50.1455" lon="4.06828">
        <ele>215.7</ele>
        <time>2024-12-26T12:56:39Z</time>
      </trkpt>
      <trkpt lat="50.14541" lon="4.06828">
        <ele>215.9</ele>
        <time>2024-12-26T12:56:55Z</time>
      </trkpt>
      <trkpt lat="50.14532" lon="4.06827">
        <ele>216</ele>
        <time>2024-12-26T12:57:04Z</time>
      </trkpt>
      <trkpt lat="50.14523" lon="4.06826">
        <ele>216.1</ele>
        <time>2024-12-26T12:57:17Z</time>
      </trkpt>
      <trkpt lat="50.14513" lon="4.06829">
        <ele>216.2</ele>
        <time>2024-12-26T12:57:25Z</time>
      </trkpt>
      <trkpt lat="50.14504" lon="4.06828">
        <ele>216.2</ele>
        <time>2024-12-26T12:57:36Z</time>
      </trkpt>
      <trkpt lat="50.14494" lon="4.06822">
        <ele>216.3</ele>
        <time>2024-12-26T12:57:49Z</time>
      </trkpt>
      <trkpt lat="50.14485" lon="4.06823">
        <ele>216.4</ele>
        <time>2024-12-26T12:58:01Z</time>
      </trkpt>
      <trkpt lat="50.14475" lon="4.0682">
        <ele>216.5</ele>
        <time>2024-12-26T12:58:10Z</time>
      </trkpt>
      <trkpt lat="50.14466" lon="4.06817">
        <ele>216.6</ele>
        <time>2024-12-26T12:58:18Z</time>
      </trkpt>
      <trkpt lat="50.14456" lon="4.06815">
        <ele>216.7</ele>
        <time>2024-12-26T12:58:26Z</time>
      </trkpt>
      <trkpt lat="50.14446" lon="4.06818">
        <ele>216.7</ele>
        <time>2024-12-26T12:58:34Z</time>
      </trkpt>
      <trkpt lat="50.14436" lon="4.06812">
        <ele>216.7</ele>
        <time>2024-12-26T12:58:45Z</time>
      </trkpt>
      <trkpt lat="50.14427" lon="4.06811">
        <ele>216.7</ele>
        <time>2024-12-26T12:58:56Z</time>
      </trkpt>
      <trkpt lat="50.14418" lon="4.06814">
        <ele>216.7</ele>
        <time>2024-12-26T12:59:02Z</time>
      </trkpt>
      <trkpt lat="50.1441" lon="4.06809">
        <ele>216.6</ele>
        <time>2024-12-26T12:59:12Z</time>
      </trkpt>
      <trkpt lat="50.144" lon="4.06807">
        <ele>216.6</ele>
        <time>2024-12-26T12:59:20Z</time>
      </trkpt>
      <trkpt lat="50.14391" lon="4.06805">
        <ele>216.5</ele>
        <time>2024-12-26T12:59:28Z</time>
      </trkpt>
      <trkpt lat="50.14382" lon="4.06803">
        <ele>216.5</ele>
        <time>2024-12-26T12:59:39Z</time>
      </trkpt>
      <trkpt lat="50.14373" lon="4.06798">
        <ele>216.4</ele>
        <time>2024-12-26T12:59:51Z</time>
      </trkpt>
      <trkpt lat="50.14364" lon="4.06795">
        <ele>216.3</ele>
        <time>2024-12-26T13:00:02Z</time>
      </trkpt>
      <trkpt lat="50.14355" lon="4.06793">
        <ele>216.2</ele>
        <time>2024-12-26T13:00:11Z</time>
      </trkpt>
      <trkpt lat="50.14346" lon="4.06794">
        <ele>216.1</ele>
        <time>2024-12-26T13:00:24Z</time>
      </trkpt>
      <trkpt lat="50.14337" lon="4.06789">
        <ele>216</ele>
        <time>2024-12-26T13:00:32Z</time>
      </trkpt>
      <trkpt lat="50.14328" lon="4.06793">
        <ele>215.9</ele>
        <time>2024-12-26T13:00:40Z</time>
      </trkpt>
      <trkpt lat="50.14319" lon="4.06789">
        <ele>215.7</ele>
        <time>2024-12-26T13:00:52Z</time>
      </trkpt>
      <trkpt lat="50.14311" lon="4.06782">
        <ele>215.6</ele>
        <time>2024-12-26T13:01:00Z</time>
      </trkpt>
      <trkpt lat="50.14301" lon="4.06779">
        <ele>215.5</ele>
        <time>2024-12-26T13:01:09Z</time>
      </trkpt>
      <trkpt lat="50.14292" lon="4.06777">
        <ele>215.4</ele>
        <time>2024-12-26T13:01:14Z</time>
      </trkpt>
      <trkpt lat="50.14283" lon="4.06774">
        <ele>215.3</ele>
        <time>2024-12-26T13:01:25Z</time>
      </trkpt>
      <trkpt lat="50.14273" lon="4.06776">
        <ele>215.2</ele>
        <time>2024-12-26T13:01:33Z</time>
      </trkpt>
      <trkpt lat="50.14263" lon="4.06775">
        <ele>215</ele>
        <time>2024-12-26T13:01:43Z</time>
      </trkpt>
      <trkpt lat="50.14254" lon="4.06769">
        <ele>214.8</ele>
        <time>2024-12-26T13:01:57Z</time>
      </trkpt>
      <trkpt lat="50.14247" lon="4.0676">
        <ele>214.6</ele>
        <time>2024-12-26T13:02:07Z</time>
      </trkpt>
      <trkpt lat="50.14237" lon="4.06759">
        <ele>214.5</ele>
        <time>2024-12-26T13:02:18Z</time>
      </trkpt>
      <trkpt lat="50.14228" lon="4.06756">
        <ele>214.3</ele>
        <time>2024-12-26T13:02:27Z</time>
      </trkpt>
      <trkpt lat="50.14219" lon="4.06753">
        <ele>214.2</ele>
        <time>2024-12-26T13:02:34Z</time>
      </trkpt>
      <trkpt lat="50.14211" lon="4.06747">
        <ele>214.1</ele>
        <time>2024-12-26T13:02:41Z</time>
      </trkpt>
      <trkpt lat="50.14202" lon="4.06743">
        <ele>214</ele>
        <time>2024-12-26T13:02:53Z</time>
      </trkpt>
      <trkpt lat="50.14191" lon="4.06741">
        <ele>213.8</ele>
        <time>2024-12-26T13:03:04Z</time>
      </trkpt>
      <trkpt lat="50.14181" lon="4.06742">
        <ele>213.6</ele>
        <time>2024-12-26T13:03:11Z</time>
      </trkpt>
      <trkpt lat="50.14172" lon="4.06743">
        <ele>213.3</ele>
        <time>2024-12-26T13:03:19Z</time>
      </trkpt>
      <trkpt lat="50.14163" lon="4.06741">
        <ele>213.1</ele>
        <time>2024-12-26T13:03:29Z</time>
      </trkpt>
      <trkpt lat="50.14154" lon="4.06735">
        <ele>212.8</ele>
        <time>2024-12-26T13:03:38Z</time>
      </trkpt>
      <trkpt lat="50.14146" lon="4.06729">
        <ele>212.7</ele>
        <time>2024-12-26T13:03:46Z</time>
      </trkpt>
      <trkpt lat="50.14137" lon="4.06726">
        <ele>212.5</ele>
        <time>2024-12-26T13:03:57Z</time>
      </trkpt>
      <trkpt lat="50.14127" lon="4.06721">
        <ele>212.3</ele>
        <time>2024-12-26T13:04:07Z</time>
      </trkpt>
      <trkpt lat="50.14117" lon="4.06724">
        <ele>212.1</ele>
        <time>2024-12-26T13:04:16Z</time>
      </trkpt>
      <trkpt lat="50.14109" lon="4.06718">
        <ele>212</ele>
        <time>2024-12-26T13:04:25Z</time>
      </trkpt>
      <trkpt lat="50.141" lon="4.06718">
        <ele>211.8</ele>
        <time>2024-12-26T13:04:37Z</time>
      </trkpt>
      <trkpt lat="50.14091" lon="4.06715">
        <ele>211.7</ele>
        <time>2024-12-26T13:04:45Z</time>
      </trkpt>
      <trkpt lat="50.14081" lon="4.06711">
        <ele>211.5</ele>
        <time>2024-12-26T13:04:57Z</time>
      </trkpt>
      <trkpt lat="50.14071" lon="4.06708">
        <ele>211.4</ele>
        <time>2024-12-26T13:05:06Z</time>
      </trkpt>
      <trkpt lat="50.14062" lon="4.06706">
        <ele>211.2</ele>
        <time>2024-12-26T13:05:17Z</time>
      </trkpt>
      <trkpt lat="50.14052" lon="4.06706">
        <ele>211.1</ele>
        <time>2024-12-26T13:05:27Z</time>
      </trkpt>
      <trkpt lat="50.14043" lon="4.06703">
        <ele>210.9</ele>
        <time>2024-12-26T13:05:37Z</time>
      </trkpt>
      <trkpt lat="50.14033" lon="4.06704">
        <ele>210.7</ele>
        <time>2024-12-26T13:05:45Z</time>
      </trkpt>
      <trkpt lat="50.14025" lon="4.06696">
        <ele>210.6</ele>
        <time>2024-12-26T13:05:57Z</time>
      </trkpt>
      <trkpt lat="50.14016" lon="4.06694">
        <ele>210.4</ele>
        <time>2024-12-26T13:06:06Z</time>
      </trkpt>
      <trkpt lat="50.14006" lon="4.06693">
        <ele>210.2</ele>
        <time>2024-12-26T13:06:13Z</time>
      </trkpt>
      <trkpt lat="50.13998" lon="4.06685">
        <ele>210.1</ele>
        <time>2024-12-26T13:06:20Z</time>
      </trkpt>
      <trkpt lat="50.13989" lon="4.06683">
        <ele>209.9</ele>
        <time>2024-12-26T13:06:30Z</time>
      </trkpt>
      <trkpt lat="50.13979" lon="4.0668">
        <ele>209.7</ele>
        <time>2024-12-26T13:06:40Z</time>
      </trkpt>
      <trkpt lat="50.1397" lon="4.06671">
        <ele>209.5</ele>
        <time>2024-12-26T13:06:53Z</time>
      </trkpt>
      <trkpt lat="50.13962" lon="4.06664">
        <ele>209.3</ele>
        <time>2024-12-26T13:06:59Z</time>
      </trkpt>
      <trkpt lat="50.13952" lon="4.0666">
        <ele>209.1</ele>
        <time>2024-12-26T13:07:05Z</time>
      </trkpt>
      <trkpt lat="50.13942" lon="4.06655">
        <ele>208.9</ele>
        <time>2024-12-26T13:07:16Z</time>
      </trkpt>
      <trkpt lat="50.13934" lon="4.06661">
        <ele>208.8</ele>
        <time>2024-12-26T13:07:31Z</time>
      </trkpt>
      <trkpt lat="50.13924" lon="4.06657">
        <ele>208.6</ele>
        <time>2024-12-26T13:07:41Z</time>
      </trkpt>
      <trkpt lat="50.13914" lon="4.06654">
        <ele>208.5</ele>
        <time>2024-12-26T13:07:49Z</time>
      </trkpt>
      <trkpt lat="50.13904" lon="4.06651">
        <ele>208.3</ele>
        <time>2024-12-26T13:08:04Z</time>
      </trkpt>
      <trkpt lat="50.13895" lon="4.06646">
        <ele>208.1</ele>
        <time>2024-12-26T13:08:10Z</time>
      </trkpt>
      <trkpt lat="50.13886" lon="4.06642">
        <ele>208</ele>
        <time>2024-12-26T13:08:16Z</time>
      </trkpt>
      <trkpt lat="50.13876" lon="4.0664">
        <ele>207.9</ele>
        <time>2024-12-26T13:08:23Z</time>
      </trkpt>
      <trkpt lat="50.13867" lon="4.06643">
        <ele>207.7</ele>
        <time>2024-12-26T13:08:36Z</time>
      </trkpt>
      <trkpt lat="50.13858" lon="4.06638">
        <ele>207.6</ele>
        <time>2024-12-26T13:08:44Z</time>
      </trkpt>
      <trkpt lat="50.13849" lon="4.06638">
        <ele>207.4</ele>
        <time>2024-12-26T13:08:56Z</time>
      </trkpt>
      <trkpt lat="50.13839" lon="4.06636">
        <ele>207.3</ele>
        <time>2024-12-26T13:09:07Z</time>
      </trkpt>
      <trkpt lat="50.1383" lon="4.06632">
        <ele>207.1</ele>
        <time>2024-12-26T13:09:24Z</time>
      </trkpt>
      <trkpt lat="50.13821" lon="4.0663">
        <ele>206.9</ele>
        <time>2024-12-26T13:09:29Z</time>
      </trkpt>
      <trkpt lat="50.13811" lon="4.06627">
        <ele>206.7</ele>
        <time>2024-12-26T13:09:37Z</time>
      </trkpt>
      <trkpt lat="50.13802" lon="4.06627">
        <ele>206.5</ele>
        <time>2024-12-26T13:09:42Z</time>
      </trkpt>
      <trkpt lat="50.13793" lon="4.06625">
        <ele>206.3</ele>
        <time>2024-12-26T13:09:53Z</time>
      </trkpt>
      <trkpt lat="50.13784" lon="4.06625">
        <ele>206.1</ele>
        <time>2024-12-26T13:10:05Z</time>
      </trkpt>
      <trkpt lat="50.13775" lon="4.06622">
        <ele>205.9</ele>
        <time>2024-12-26T13:10:17Z</time>
      </trkpt>
      <trkpt lat="50.13765" lon="4.06622">
        <ele>205.7</ele>
        <time>2024-12-26T13:10:24Z</time>
      </trkpt>
      <trkpt lat="50.13756" lon="4.06619">
        <ele>205.6</ele>
        <time>2024-12-26T13:10:31Z</time>
      </trkpt>
      <trkpt lat="50.13746" lon="4.06621">
        <ele>205.4</ele>
        <time>2024-12-26T13:10:39Z</time>
      </trkpt>
      <trkpt lat="50.13737" lon="4.06619">
        <ele>205.2</ele>
        <time>2024-12-26T13:10:45Z</time>
      </trkpt>
      <trkpt lat="50.13727" lon="4.06622">
        <ele>205</ele>
        <time>2024-12-26T13:11:02Z</time>
      </trkpt>
      <trkpt lat="50.13718" lon="4.06622">
        <ele>204.9</ele>
        <time>2024-12-26T13:11:11Z</time>
      </trkpt>
      <trkpt lat="50.13709" lon="4.0662">
        <ele>204.8</ele>
        <time>2024-12-26T13:11:22Z</time>
      </trkpt>
      <trkpt lat="50.13698" lon="4.06617">
        <ele>204.7</ele>
        <time>2024-12-26T13:11:31Z</time>
      </trkpt>
      <trkpt lat="50.13688" lon="4.06614">
        <ele>204.5</ele>
        <time>2024-12-26T13:11:41Z</time>
      </trkpt>
      <trkpt lat="50.13679" lon="4.06611">
        <ele>204.3</ele>
        <time>2024-12-26T13:11:50Z</time>
      </trkpt>
      <trkpt lat="50.13669" lon="4.06612">
        <ele>204.2</ele>
        <time>2024-12-26T13:11:56Z</time>
      </trkpt>
      <trkpt lat="50.1366" lon="4.06617">
        <ele>204</ele>
        <time>2024-12-26T13:12:08Z</time>
      </trkpt>
      <trkpt lat="50.1365" lon="4.06619">
        <ele>203.9</ele>
        <time>2024-12-26T13:12:17Z</time>
      </trkpt>
      <trkpt lat="50.13641" lon="4.06619">
        <ele>203.7</ele>
        <time>2024-12-26T13:12:28Z</time>
      </trkpt>
      <trkpt lat="50.13631" lon="4.06615">
        <ele>203.5</ele>
        <time>2024-12-26T13:12:35Z</time>
      </trkpt>
      <trkpt lat="50.13622" lon="4.06617">
        <ele>203.3</ele>
        <time>2024-12-26T13:12:51Z</time>
      </trkpt>
      <trkpt lat="50.13612" lon="4.06621">
        <ele>203.2</ele>
        <time>2024-12-26T13:13:00Z</time>
      </trkpt>
      <trkpt lat="50.13603" lon="4.06625">
        <ele>203</ele>
        <time>2024-12-26T13:13:07Z</time>
      </trkpt>
      <trkpt lat="50.13592" lon="4.06624">
        <ele>202.8</ele>
        <time>2024-12-26T13:13:13Z</time>
      </trkpt>
      <trkpt lat="50.13582" lon="4.06624">
        <ele>202.6</ele>
        <time>2024-12-26T13:13:21Z</time>
      </trkpt>
      <trkpt lat="50.13573" lon="4.06625">
        <ele>202.3</ele>
        <time>2024-12-26T13:13:28Z</time>
      </trkpt>
      <trkpt lat="50.13564" lon="4.06621">
        <ele>202.1</ele>
        <time>2024-12-26T13:13:41Z</time>
      </trkpt>
      <trkpt lat="50.13554" lon="4.06621">
        <ele>201.9</ele>
        <time>2024-12-26T13:13:49Z</time>
      </trkpt>
      <trkpt lat="50.13545" lon="4.06628">
        <ele>201.7</ele>
        <time>2024-12-26T13:14:05Z</time>
      </trkpt>
      <trkpt lat="50.13537" lon="4.06624">
        <ele>201.6</ele>
        <time>2024-12-26T13:14:09Z</time>
      </trkpt>
      <trkpt lat="50.13527" lon="4.06626">
        <ele>201.5</ele>
        <time>2024-12-26T13:14:18Z</time>
      </trkpt>
      <trkpt lat="50.13518" lon="4.06626">
        <ele>201.3</ele>
        <time>2024-12-26T13:14:33Z</time>
      </trkpt>
      <trkpt lat="50.13509" lon="4.06627">
        <ele>201.2</ele>
        <time>2024-12-26T13:14:43Z</time>
      </trkpt>
      <trkpt lat="50.135" lon="4.06625">
        <ele>201.1</ele>
        <time>2024-12-26T13:14:48Z</time>
      </trkpt>
      <trkpt lat="50.1349" lon="4.06625">
        <ele>200.8</ele>
        <time>2024-12-26T13:14:57Z</time>
      </trkpt>
      <trkpt lat="50.13481" lon="4.06629">
        <ele>200.6</ele>
        <time>2024-12-26T13:15:18Z</time>
      </trkpt>
      <trkpt lat="50.13471" lon="4.06629">
        <ele>200.4</ele>
        <time>2024-12-26T13:15:24Z</time>
      </trkpt>
      <trkpt lat="50.13461" lon="4.06629">
        <ele>200.2</ele>
        <time>2024-12-26T13:15:32Z</time>
      </trkpt>
      <trkpt lat="50.13452" lon="4.06628">
        <ele>200.1</ele>
        <time>2024-12-26T13:15:41Z</time>
      </trkpt>
      <trkpt lat="50.13443" lon="4.06627">
        <ele>199.9</ele>
        <time>2024-12-26T13:15:47Z</time>
      </trkpt>
      <trkpt lat="50.13432" lon="4.06627">
        <ele>199.7</ele>
        <time>2024-12-26T13:15:54Z</time>
      </trkpt>
      <trkpt lat="50.13422" lon="4.06628">
        <ele>199.6</ele>
        <time>2024-12-26T13:16:02Z</time>
      </trkpt>
      <trkpt lat="50.13414" lon="4.06635">
        <ele>199.5</ele>
        <time>2024-12-26T13:16:15Z</time>
      </trkpt>
      <trkpt lat="50.13405" lon="4.06643">
        <ele>199.4</ele>
        <time>2024-12-26T13:16:30Z</time>
      </trkpt>
      <trkpt lat="50.13396" lon="4.06644">
        <ele>199.3</ele>
        <time>2024-12-26T13:16:37Z</time>
      </trkpt>
      <trkpt lat="50.13387" lon="4.0664">
        <ele>199.2</ele>
        <time>2024-12-26T13:16:45Z</time>
      </trkpt>
      <trkpt lat="50.1338" lon="4.06649">
        <ele>199</ele>
        <time>2024-12-26T13:17:00Z</time>
      </trkpt>
      <trkpt lat="50.1337" lon="4.06647">
        <ele>198.9</ele>
        <time>2024-12-26T13:17:15Z</time>
      </trkpt>
      <trkpt lat="50.1336" lon="4.06647">
        <ele>198.8</ele>
        <time>2024-12-26T13:17:28Z</time>
      </trkpt>
      <trkpt lat="50.13348" lon="4.06644">
        <ele>198.6</ele>
        <time>2024-12-26T13:17:34Z</time>
      </trkpt>
      <trkpt lat="50.13337" lon="4.06645">
        <ele>198.4</ele>
        <time>2024-12-26T13:17:39Z</time>
      </trkpt>
      <trkpt lat="50.13327" lon="4.06647">
        <ele>198.2</ele>
        <time>2024-12-26T13:17:42Z</time>
      </trkpt>
      <trkpt lat="50.13316" lon="4.06648">
        <ele>198</ele>
        <time>2024-12-26T13:17:46Z</time>
      </trkpt>
      <trkpt lat="50.13307" lon="4.06644">
        <ele>197.8</ele>
        <time>2024-12-26T13:18:07Z</time>
      </trkpt>
      <trkpt lat="50.13297" lon="4.06644">
        <ele>197.6</ele>
        <time>2024-12-26T13:18:18Z</time>
      </trkpt>
      <trkpt lat="50.13288" lon="4.0664">
        <ele>197.4</ele>
        <time>2024-12-26T13:18:23Z</time>
      </trkpt>
      <trkpt lat="50.13278" lon="4.06641">
        <ele>197.2</ele>
        <time>2024-12-26T13:18:27Z</time>
      </trkpt>
      <trkpt lat="50.13269" lon="4.06644">
        <ele>197</ele>
        <time>2024-12-26T13:18:39Z</time>
      </trkpt>
      <trkpt lat="50.13261" lon="4.0664">
        <ele>196.8</ele>
        <time>2024-12-26T13:18:49Z</time>
      </trkpt>
      <trkpt lat="50.13252" lon="4.06636">
        <ele>196.6</ele>
        <time>2024-12-26T13:19:00Z</time>
      </trkpt>
      <trkpt lat="50.13242" lon="4.06637">
        <ele>196.4</ele>
        <time>2024-12-26T13:19:06Z</time>
      </trkpt>
      <trkpt lat="50.13233" lon="4.06639">
        <ele>196.2</ele>
        <time>2024-12-26T13:19:14Z</time>
      </trkpt>
      <trkpt lat="50.13224" lon="4.0664">
        <ele>195.9</ele>
        <time>2024-12-26T13:19:26Z</time>
      </trkpt>
      <trkpt lat="50.13215" lon="4.06639">
        <ele>195.7</ele>
        <time>2024-12-26T13:19:37Z</time>
      </trkpt>
      <trkpt lat="50.13206" lon="4.0664">
        <ele>195.5</ele>
        <time>2024-12-26T13:19:52Z</time>
      </trkpt>
      <trkpt lat="50.13195" lon="4.06637">
        <ele>195.3</ele>
        <time>2024-12-26T13:19:59Z</time>
      </trkpt>
      <trkpt lat="50.13185" lon="4.06634">
        <ele>195.2</ele>
        <time>2024-12-26T13:20:08Z</time>
      </trkpt>
      <trkpt lat="50.13176" lon="4.06632">
        <ele>195</ele>
        <time>2024-12-26T13:20:19Z</time>
      </trkpt>
      <trkpt lat="50.13166" lon="4.06627">
        <ele>194.9</ele>
        <time>2024-12-26T13:20:36Z</time>
      </trkpt>
      <trkpt lat="50.13156" lon="4.06628">
        <ele>194.7</ele>
        <time>2024-12-26T13:20:40Z</time>
      </trkpt>
      <trkpt lat="50.13147" lon="4.06626">
        <ele>194.5</ele>
        <time>2024-12-26T13:20:45Z</time>
      </trkpt>
      <trkpt lat="50.13137" lon="4.06622">
        <ele>194.4</ele>
        <time>2024-12-26T13:20:54Z</time>
      </trkpt>
      <trkpt lat="50.13128" lon="4.06618">
        <ele>194.2</ele>
        <time>2024-12-26T13:21:07Z</time>
      </trkpt>
      <trkpt lat="50.13119" lon="4.06617">
        <ele>194</ele>
        <time>2024-12-26T13:21:17Z</time>
      </trkpt>
      <trkpt lat="50.13108" lon="4.06613">
        <ele>193.8</ele>
        <time>2024-12-26T13:21:25Z</time>
      </trkpt>
      <trkpt lat="50.13099" lon="4.06611">
        <ele>193.6</ele>
        <time>2024-12-26T13:21:32Z</time>
      </trkpt>
      <trkpt lat="50.13089" lon="4.06612">
        <ele>193.5</ele>
        <time>2024-12-26T13:21:43Z</time>
      </trkpt>
      <trkpt lat="50.13079" lon="4.06608">
        <ele>193.4</ele>
        <time>2024-12-26T13:21:48Z</time>
      </trkpt>
      <trkpt lat="50.1307" lon="4.06603">
        <ele>193.4</ele>
        <time>2024-12-26T13:22:00Z</time>
      </trkpt>
      <trkpt lat="50.13061" lon="4.06603">
        <ele>193.3</ele>
        <time>2024-12-26T13:22:15Z</time>
      </trkpt>
      <trkpt lat="50.13052" lon="4.06603">
        <ele>193.2</ele>
        <time>2024-12-26T13:22:21Z</time>
      </trkpt>
      <trkpt lat="50.13042" lon="4.06596">
        <ele>193.1</ele>
        <time>2024-12-26T13:22:29Z</time>
      </trkpt>
      <trkpt lat="50.13033" lon="4.06595">
        <ele>192.9</ele>
        <time>2024-12-26T13:22:44Z</time>
      </trkpt>
      <trkpt lat="50.13023" lon="4.06593">
        <ele>192.7</ele>
        <time>2024-12-26T13:22:50Z</time>
      </trkpt>
      <trkpt lat="50.12997" lon="4.06587">
        <ele>192.2</ele>
        <time>2024-12-26T13:23:07Z</time>
      </trkpt>
      <trkpt lat="50.12987" lon="4.06587">
        <ele>192.1</ele>
        <time>2024-12-26T13:23:14Z</time>
      </trkpt>
      <trkpt lat="50.12978" lon="4.06584">
        <ele>191.9</ele>
        <time>2024-12-26T13:23:28Z</time>
      </trkpt>
      <trkpt lat="50.12969" lon="4.06578">
        <ele>191.6</ele>
        <time>2024-12-26T13:23:38Z</time>
      </trkpt>
      <trkpt lat="50.1296" lon="4.06577">
        <ele>191.5</ele>
        <time>2024-12-26T13:23:49Z</time>
      </trkpt>
      <trkpt lat="50.12952" lon="4.06569">
        <ele>191.2</ele>
        <time>2024-12-26T13:23:57Z</time>
      </trkpt>
      <trkpt lat="50.12943" lon="4.06564">
        <ele>191</ele>
        <time>2024-12-26T13:24:07Z</time>
      </trkpt>
      <trkpt lat="50.12933" lon="4.06562">
        <ele>190.8</ele>
        <time>2024-12-26T13:24:16Z</time>
      </trkpt>
      <trkpt lat="50.12924" lon="4.06563">
        <ele>190.6</ele>
        <time>2024-12-26T13:24:26Z</time>
      </trkpt>
      <trkpt lat="50.12914" lon="4.06565">
        <ele>190.5</ele>
        <time>2024-12-26T13:24:39Z</time>
      </trkpt>
      <trkpt lat="50.12904" lon="4.06562">
        <ele>190.3</ele>
        <time>2024-12-26T13:24:48Z</time>
      </trkpt>
      <trkpt lat="50.12894" lon="4.06561">
        <ele>190.2</ele>
        <time>2024-12-26T13:24:55Z</time>
      </trkpt>
      <trkpt lat="50.12884" lon="4.06557">
        <ele>190.1</ele>
        <time>2024-12-26T13:25:04Z</time>
      </trkpt>
      <trkpt lat="50.12876" lon="4.0655">
        <ele>189.8</ele>
        <time>2024-12-26T13:25:12Z</time>
      </trkpt>
      <trkpt lat="50.12866" lon="4.06546">
        <ele>189.5</ele>
        <time>2024-12-26T13:25:26Z</time>
      </trkpt>
      <trkpt lat="50.12856" lon="4.0654">
        <ele>189.1</ele>
        <time>2024-12-26T13:25:32Z</time>
      </trkpt>
      <trkpt lat="50.12847" lon="4.0654">
        <ele>188.9</ele>
        <time>2024-12-26T13:25:40Z</time>
      </trkpt>
      <trkpt lat="50.12838" lon="4.0654">
        <ele>188.6</ele>
        <time>2024-12-26T13:25:51Z</time>
      </trkpt>
      <trkpt lat="50.12829" lon="4.06536">
        <ele>188.4</ele>
        <time>2024-12-26T13:26:01Z</time>
      </trkpt>
      <trkpt lat="50.1282" lon="4.0654">
        <ele>188.3</ele>
        <time>2024-12-26T13:26:12Z</time>
      </trkpt>
      <trkpt lat="50.12811" lon="4.06541">
        <ele>188.2</ele>
        <time>2024-12-26T13:26:23Z</time>
      </trkpt>
      <trkpt lat="50.12802" lon="4.0654">
        <ele>188</ele>
        <time>2024-12-26T13:26:29Z</time>
      </trkpt>
      <trkpt lat="50.12792" lon="4.06543">
        <ele>187.8</ele>
        <time>2024-12-26T13:26:39Z</time>
      </trkpt>
      <trkpt lat="50.12783" lon="4.06543">
        <ele>187.6</ele>
        <time>2024-12-26T13:26:47Z</time>
      </trkpt>
      <trkpt lat="50.12774" lon="4.06543">
        <ele>187.3</ele>
        <time>2024-12-26T13:26:54Z</time>
      </trkpt>
      <trkpt lat="50.12764" lon="4.06544">
        <ele>187.1</ele>
        <time>2024-12-26T13:27:03Z</time>
      </trkpt>
      <trkpt lat="50.12755" lon="4.06543">
        <ele>186.9</ele>
        <time>2024-12-26T13:27:12Z</time>
      </trkpt>
      <trkpt lat="50.12746" lon="4.06548">
        <ele>186.8</ele>
        <time>2024-12-26T13:27:21Z</time>
      </trkpt>
      <trkpt lat="50.12736" lon="4.0655">
        <ele>186.7</ele>
        <time>2024-12-26T13:27:29Z</time>
      </trkpt>
      <trkpt lat="50.12727" lon="4.06553">
        <ele>186.7</ele>
        <time>2024-12-26T13:27:41Z</time>
      </trkpt>
      <trkpt lat="50.12719" lon="4.06557">
        <ele>186.6</ele>
        <time>2024-12-26T13:27:48Z</time>
      </trkpt>
      <trkpt lat="50.12709" lon="4.06561">
        <ele>186.5</ele>
        <time>2024-12-26T13:27:56Z</time>
      </trkpt>
      <trkpt lat="50.127" lon="4.06565">
        <ele>186.4</ele>
        <time>2024-12-26T13:28:05Z</time>
      </trkpt>
      <trkpt lat="50.12691" lon="4.06571">
        <ele>186.3</ele>
        <time>2024-12-26T13:28:15Z</time>
      </trkpt>
      <trkpt lat="50.12681" lon="4.06574">
        <ele>186.2</ele>
        <time>2024-12-26T13:28:28Z</time>
      </trkpt>
      <trkpt lat="50.12673" lon="4.06582">
        <ele>186</ele>
        <time>2024-12-26T13:28:39Z</time>
      </trkpt>
      <trkpt lat="50.12663" lon="4.06582">
        <ele>185.9</ele>
        <time>2024-12-26T13:28:48Z</time>
      </trkpt>
      <trkpt lat="50.12654" lon="4.06586">
        <ele>185.9</ele>
        <time>2024-12-26T13:28:55Z</time>
      </trkpt>
      <trkpt lat="50.12645" lon="4.06591">
        <ele>185.8</ele>
        <time>2024-12-26T13:29:06Z</time>
      </trkpt>
      <trkpt lat="50.12636" lon="4.06591">
        <ele>185.6</ele>
        <time>2024-12-26T13:29:13Z</time>
      </trkpt>
      <trkpt lat="50.12627" lon="4.06593">
        <ele>185.4</ele>
        <time>2024-12-26T13:29:18Z</time>
      </trkpt>
      <trkpt lat="50.12619" lon="4.06604">
        <ele>185.2</ele>
        <time>2024-12-26T13:29:24Z</time>
      </trkpt>
      <trkpt lat="50.12611" lon="4.06612">
        <ele>185</ele>
        <time>2024-12-26T13:29:32Z</time>
      </trkpt>
      <trkpt lat="50.12603" lon="4.06619">
        <ele>184.8</ele>
        <time>2024-12-26T13:29:41Z</time>
      </trkpt>
      <trkpt lat="50.12594" lon="4.06624">
        <ele>184.6</ele>
        <time>2024-12-26T13:29:51Z</time>
      </trkpt>
      <trkpt lat="50.12585" lon="4.0663">
        <ele>184.4</ele>
        <time>2024-12-26T13:30:06Z</time>
      </trkpt>
      <trkpt lat="50.12576" lon="4.06638">
        <ele>184.2</ele>
        <time>2024-12-26T13:30:21Z</time>
      </trkpt>
      <trkpt lat="50.1257" lon="4.06648">
        <ele>183.9</ele>
        <time>2024-12-26T13:30:32Z</time>
      </trkpt>
      <trkpt lat="50.12562" lon="4.06657">
        <ele>183.7</ele>
        <time>2024-12-26T13:30:41Z</time>
      </trkpt>
      <trkpt lat="50.12553" lon="4.06659">
        <ele>183.5</ele>
        <time>2024-12-26T13:30:49Z</time>
      </trkpt>
      <trkpt lat="50.12544" lon="4.06664">
        <ele>183.4</ele>
        <time>2024-12-26T13:30:57Z</time>
      </trkpt>
      <trkpt lat="50.12538" lon="4.06675">
        <ele>183.1</ele>
        <time>2024-12-26T13:31:06Z</time>
      </trkpt>
      <trkpt lat="50.1253" lon="4.06681">
        <ele>182.9</ele>
        <time>2024-12-26T13:31:14Z</time>
      </trkpt>
      <trkpt lat="50.12522" lon="4.0669">
        <ele>182.6</ele>
        <time>2024-12-26T13:31:26Z</time>
      </trkpt>
      <trkpt lat="50.12514" lon="4.06698">
        <ele>182.3</ele>
        <time>2024-12-26T13:31:35Z</time>
      </trkpt>
      <trkpt lat="50.12505" lon="4.06704">
        <ele>182.1</ele>
        <time>2024-12-26T13:31:44Z</time>
      </trkpt>
      <trkpt lat="50.12495" lon="4.06708">
        <ele>181.9</ele>
        <time>2024-12-26T13:31:54Z</time>
      </trkpt>
      <trkpt lat="50.12486" lon="4.06714">
        <ele>181.6</ele>
        <time>2024-12-26T13:32:03Z</time>
      </trkpt>
      <trkpt lat="50.12477" lon="4.06717">
        <ele>181.4</ele>
        <time>2024-12-26T13:32:10Z</time>
      </trkpt>
      <trkpt lat="50.12469" lon="4.06724">
        <ele>181.2</ele>
        <time>2024-12-26T13:32:20Z</time>
      </trkpt>
      <trkpt lat="50.1246" lon="4.0673">
        <ele>181</ele>
        <time>2024-12-26T13:32:28Z</time>
      </trkpt>
      <trkpt lat="50.12451" lon="4.06734">
        <ele>180.8</ele>
        <time>2024-12-26T13:32:37Z</time>
      </trkpt>
      <trkpt lat="50.12444" lon="4.06743">
        <ele>180.6</ele>
        <time>2024-12-26T13:32:48Z</time>
      </trkpt>
      <trkpt lat="50.12435" lon="4.0675">
        <ele>180.5</ele>
        <time>2024-12-26T13:33:04Z</time>
      </trkpt>
      <trkpt lat="50.12426" lon="4.06752">
        <ele>180.4</ele>
        <time>2024-12-26T13:33:11Z</time>
      </trkpt>
      <trkpt lat="50.12417" lon="4.06754">
        <ele>180.3</ele>
        <time>2024-12-26T13:33:21Z</time>
      </trkpt>
      <trkpt lat="50.12408" lon="4.06762">
        <ele>180.1</ele>
        <time>2024-12-26T13:33:36Z</time>
      </trkpt>
      <trkpt lat="50.12398" lon="4.06756">
        <ele>179.9</ele>
        <time>2024-12-26T13:33:47Z</time>
      </trkpt>
      <trkpt lat="50.12388" lon="4.06759">
        <ele>179.8</ele>
        <time>2024-12-26T13:33:52Z</time>
      </trkpt>
      <trkpt lat="50.12379" lon="4.06761">
        <ele>179.7</ele>
        <time>2024-12-26T13:34:04Z</time>
      </trkpt>
      <trkpt lat="50.12369" lon="4.06763">
        <ele>179.6</ele>
        <time>2024-12-26T13:34:11Z</time>
      </trkpt>
      <trkpt lat="50.12358" lon="4.06764">
        <ele>179.4</ele>
        <time>2024-12-26T13:34:18Z</time>
      </trkpt>
      <trkpt lat="50.12349" lon="4.06761">
        <ele>179.2</ele>
        <time>2024-12-26T13:34:27Z</time>
      </trkpt>
      <trkpt lat="50.12339" lon="4.06763">
        <ele>179.1</ele>
        <time>2024-12-26T13:34:38Z</time>
      </trkpt>
      <trkpt lat="50.1233" lon="4.06767">
        <ele>179</ele>
        <time>2024-12-26T13:34:46Z</time>
      </trkpt>
      <trkpt lat="50.12321" lon="4.06769">
        <ele>178.9</ele>
        <time>2024-12-26T13:34:56Z</time>
      </trkpt>
      <trkpt lat="50.12312" lon="4.0677">
        <ele>178.7</ele>
        <time>2024-12-26T13:35:06Z</time>
      </trkpt>
      <trkpt lat="50.12302" lon="4.06768">
        <ele>178.6</ele>
        <time>2024-12-26T13:35:19Z</time>
      </trkpt>
      <trkpt lat="50.12291" lon="4.06766">
        <ele>178.4</ele>
        <time>2024-12-26T13:35:26Z</time>
      </trkpt>
      <trkpt lat="50.12282" lon="4.06768">
        <ele>178.2</ele>
        <time>2024-12-26T13:35:33Z</time>
      </trkpt>
      <trkpt lat="50.12272" lon="4.06764">
        <ele>178.1</ele>
        <time>2024-12-26T13:35:46Z</time>
      </trkpt>
      <trkpt lat="50.12262" lon="4.06762">
        <ele>177.9</ele>
        <time>2024-12-26T13:35:54Z</time>
      </trkpt>
      <trkpt lat="50.12253" lon="4.06761">
        <ele>177.7</ele>
        <time>2024-12-26T13:36:03Z</time>
      </trkpt>
      <trkpt lat="50.12243" lon="4.06761">
        <ele>177.6</ele>
        <time>2024-12-26T13:36:12Z</time>
      </trkpt>
      <trkpt lat="50.12234" lon="4.06762">
        <ele>177.4</ele>
        <time>2024-12-26T13:36:21Z</time>
      </trkpt>
      <trkpt lat="50.12225" lon="4.06756">
        <ele>177.3</ele>
        <time>2024-12-26T13:36:33Z</time>
      </trkpt>
      <trkpt lat="50.12216" lon="4.06754">
        <ele>177.2</ele>
        <time>2024-12-26T13:36:38Z</time>
      </trkpt>
      <trkpt lat="50.12207" lon="4.06747">
        <ele>177.2</ele>
        <time>2024-12-26T13:36:49Z</time>
      </trkpt>
      <trkpt lat="50.12198" lon="4.06743">
        <ele>177.1</ele>
        <time>2024-12-26T13:37:01Z</time>
      </trkpt>
      <trkpt lat="50.12188" lon="4.0674">
        <ele>177</ele>
        <time>2024-12-26T13:37:09Z</time>
      </trkpt>
      <trkpt lat="50.12178" lon="4.06734">
        <ele>177</ele>
        <time>2024-12-26T13:37:18Z</time>
      </trkpt>
      <trkpt lat="50.12169" lon="4.06731">
        <ele>176.9</ele>
        <time>2024-12-26T13:37:26Z</time>
      </trkpt>
      <trkpt lat="50.1216" lon="4.06732">
        <ele>176.9</ele>
        <time>2024-12-26T13:37:37Z</time>
      </trkpt>
      <trkpt lat="50.12151" lon="4.0673">
        <ele>176.8</ele>
        <time>2024-12-26T13:37:48Z</time>
      </trkpt>
      <trkpt lat="50.12141" lon="4.06725">
        <ele>176.6</ele>
        <time>2024-12-26T13:37:58Z</time>
      </trkpt>
      <trkpt lat="50.12132" lon="4.0672">
        <ele>176.3</ele>
        <time>2024-12-26T13:38:09Z</time>
      </trkpt>
      <trkpt lat="50.12123" lon="4.06721">
        <ele>176.1</ele>
        <time>2024-12-26T13:38:20Z</time>
      </trkpt>
      <trkpt lat="50.12113" lon="4.06721">
        <ele>175.9</ele>
        <time>2024-12-26T13:38:29Z</time>
      </trkpt>
      <trkpt lat="50.12104" lon="4.06718">
        <ele>175.7</ele>
        <time>2024-12-26T13:38:39Z</time>
      </trkpt>
      <trkpt lat="50.12095" lon="4.06719">
        <ele>175.5</ele>
        <time>2024-12-26T13:38:48Z</time>
      </trkpt>
      <trkpt lat="50.12086" lon="4.06715">
        <ele>175.3</ele>
        <time>2024-12-26T13:38:57Z</time>
      </trkpt>
      <trkpt lat="50.12076" lon="4.06714">
        <ele>175.1</ele>
        <time>2024-12-26T13:39:07Z</time>
      </trkpt>
      <trkpt lat="50.12067" lon="4.0671">
        <ele>174.9</ele>
        <time>2024-12-26T13:39:18Z</time>
      </trkpt>
      <trkpt lat="50.12058" lon="4.06705">
        <ele>174.8</ele>
        <time>2024-12-26T13:39:27Z</time>
      </trkpt>
      <trkpt lat="50.12049" lon="4.067">
        <ele>174.7</ele>
        <time>2024-12-26T13:39:34Z</time>
      </trkpt>
      <trkpt lat="50.12039" lon="4.06699">
        <ele>174.5</ele>
        <time>2024-12-26T13:39:48Z</time>
      </trkpt>
      <trkpt lat="50.1203" lon="4.06697">
        <ele>174.4</ele>
        <time>2024-12-26T13:39:59Z</time>
      </trkpt>
      <trkpt lat="50.12021" lon="4.06702">
        <ele>174.1</ele>
        <time>2024-12-26T13:40:09Z</time>
      </trkpt>
      <trkpt lat="50.12012" lon="4.06707">
        <ele>173.9</ele>
        <time>2024-12-26T13:40:16Z</time>
      </trkpt>
      <trkpt lat="50.12003" lon="4.06704">
        <ele>173.5</ele>
        <time>2024-12-26T13:40:22Z</time>
      </trkpt>
      <trkpt lat="50.11993" lon="4.06705">
        <ele>173.3</ele>
        <time>2024-12-26T13:40:33Z</time>
      </trkpt>
      <trkpt lat="50.11986" lon="4.06697">
        <ele>173</ele>
        <time>2024-12-26T13:40:42Z</time>
      </trkpt>
      <trkpt lat="50.11977" lon="4.06701">
        <ele>172.8</ele>
        <time>2024-12-26T13:40:55Z</time>
      </trkpt>
      <trkpt lat="50.11968" lon="4.06706">
        <ele>172.7</ele>
        <time>2024-12-26T13:41:01Z</time>
      </trkpt>
      <trkpt lat="50.11958" lon="4.06709">
        <ele>172.6</ele>
        <time>2024-12-26T13:41:10Z</time>
      </trkpt>
      <trkpt lat="50.1195" lon="4.06714">
        <ele>172.5</ele>
        <time>2024-12-26T13:41:20Z</time>
      </trkpt>
      <trkpt lat="50.1194" lon="4.06717">
        <ele>172.4</ele>
        <time>2024-12-26T13:41:30Z</time>
      </trkpt>
      <trkpt lat="50.11931" lon="4.06718">
        <ele>172.3</ele>
        <time>2024-12-26T13:41:41Z</time>
      </trkpt>
      <trkpt lat="50.11922" lon="4.06726">
        <ele>172.2</ele>
        <time>2024-12-26T13:41:48Z</time>
      </trkpt>
      <trkpt lat="50.11912" lon="4.06728">
        <ele>172.1</ele>
        <time>2024-12-26T13:41:57Z</time>
      </trkpt>
      <trkpt lat="50.11903" lon="4.06726">
        <ele>172.1</ele>
        <time>2024-12-26T13:42:02Z</time>
      </trkpt>
      <trkpt lat="50.11894" lon="4.06728">
        <ele>172.1</ele>
        <time>2024-12-26T13:42:12Z</time>
      </trkpt>
      <trkpt lat="50.11884" lon="4.06728">
        <ele>172.2</ele>
        <time>2024-12-26T13:42:21Z</time>
      </trkpt>
      <trkpt lat="50.11884" lon="4.0673">
        <ele>172.2</ele>
        <time>2024-12-26T13:42:26Z</time>
      </trkpt>
      <trkpt lat="50.11883" lon="4.0673">
        <ele>172.2</ele>
        <time>2024-12-26T13:42:27Z</time>
      </trkpt>
      <trkpt lat="50.11881" lon="4.06736">
        <ele>172.2</ele>
        <time>2024-12-26T13:42:38Z</time>
      </trkpt>
      <trkpt lat="50.11881" lon="4.06736">
        <ele>172.2</ele>
        <time>2024-12-26T13:42:39Z</time>
      </trkpt>
      <trkpt lat="50.11872" lon="4.06738">
        <ele>172.3</ele>
        <time>2024-12-26T13:42:57Z</time>
      </trkpt>
      <trkpt lat="50.11863" lon="4.06741">
        <ele>172.3</ele>
        <time>2024-12-26T13:43:07Z</time>
      </trkpt>
      <trkpt lat="50.11856" lon="4.06751">
        <ele>172.4</ele>
        <time>2024-12-26T13:43:19Z</time>
      </trkpt>
      <trkpt lat="50.11847" lon="4.06756">
        <ele>172.4</ele>
        <time>2024-12-26T13:43:27Z</time>
      </trkpt>
      <trkpt lat="50.11838" lon="4.06758">
        <ele>172.6</ele>
        <time>2024-12-26T13:43:36Z</time>
      </trkpt>
      <trkpt lat="50.11829" lon="4.06762">
        <ele>172.7</ele>
        <time>2024-12-26T13:43:44Z</time>
      </trkpt>
      <trkpt lat="50.11819" lon="4.06765">
        <ele>172.9</ele>
        <time>2024-12-26T13:43:56Z</time>
      </trkpt>
      <trkpt lat="50.11809" lon="4.06771">
        <ele>173</ele>
        <time>2024-12-26T13:44:05Z</time>
      </trkpt>
      <trkpt lat="50.11802" lon="4.06779">
        <ele>173.2</ele>
        <time>2024-12-26T13:44:11Z</time>
      </trkpt>
      <trkpt lat="50.11795" lon="4.0679">
        <ele>173.3</ele>
        <time>2024-12-26T13:44:19Z</time>
      </trkpt>
      <trkpt lat="50.11788" lon="4.068">
        <ele>173.5</ele>
        <time>2024-12-26T13:44:29Z</time>
      </trkpt>
      <trkpt lat="50.11781" lon="4.06808">
        <ele>173.6</ele>
        <time>2024-12-26T13:44:41Z</time>
      </trkpt>
      <trkpt lat="50.11772" lon="4.06811">
        <ele>173.8</ele>
        <time>2024-12-26T13:44:46Z</time>
      </trkpt>
      <trkpt lat="50.11763" lon="4.06817">
        <ele>174</ele>
        <time>2024-12-26T13:44:56Z</time>
      </trkpt>
      <trkpt lat="50.11754" lon="4.06823">
        <ele>174.2</ele>
        <time>2024-12-26T13:45:10Z</time>
      </trkpt>
      <trkpt lat="50.11745" lon="4.0683">
        <ele>174.3</ele>
        <time>2024-12-26T13:45:18Z</time>
      </trkpt>
      <trkpt lat="50.11738" lon="4.0684">
        <ele>174.4</ele>
        <time>2024-12-26T13:45:25Z</time>
      </trkpt>
      <trkpt lat="50.1173" lon="4.06848">
        <ele>174.5</ele>
        <time>2024-12-26T13:45:34Z</time>
      </trkpt>
      <trkpt lat="50.11722" lon="4.06855">
        <ele>174.6</ele>
        <time>2024-12-26T13:45:42Z</time>
      </trkpt>
      <trkpt lat="50.11716" lon="4.06867">
        <ele>174.7</ele>
        <time>2024-12-26T13:45:53Z</time>
      </trkpt>
      <trkpt lat="50.11708" lon="4.06875">
        <ele>174.9</ele>
        <time>2024-12-26T13:46:01Z</time>
      </trkpt>
      <trkpt lat="50.11701" lon="4.06885">
        <ele>175</ele>
        <time>2024-12-26T13:46:13Z</time>
      </trkpt>
      <trkpt lat="50.11694" lon="4.06896">
        <ele>175.2</ele>
        <time>2024-12-26T13:46:20Z</time>
      </trkpt>
      <trkpt lat="50.11692" lon="4.06909">
        <ele>175.3</ele>
        <time>2024-12-26T13:46:29Z</time>
      </trkpt>
      <trkpt lat="50.11687" lon="4.06922">
        <ele>175.4</ele>
        <time>2024-12-26T13:46:39Z</time>
      </trkpt>
      <trkpt lat="50.11679" lon="4.0693">
        <ele>175.6</ele>
        <time>2024-12-26T13:46:47Z</time>
      </trkpt>
      <trkpt lat="50.11674" lon="4.06943">
        <ele>175.7</ele>
        <time>2024-12-26T13:46:56Z</time>
      </trkpt>
      <trkpt lat="50.11667" lon="4.06952">
        <ele>175.9</ele>
        <time>2024-12-26T13:47:06Z</time>
      </trkpt>
      <trkpt lat="50.11659" lon="4.06961">
        <ele>176</ele>
        <time>2024-12-26T13:47:15Z</time>
      </trkpt>
      <trkpt lat="50.11655" lon="4.06974">
        <ele>176.2</ele>
        <time>2024-12-26T13:47:23Z</time>
      </trkpt>
      <trkpt lat="50.11647" lon="4.06985">
        <ele>176.3</ele>
        <time>2024-12-26T13:47:40Z</time>
      </trkpt>
      <trkpt lat="50.11643" lon="4.06998">
        <ele>176.4</ele>
        <time>2024-12-26T13:47:46Z</time>
      </trkpt>
      <trkpt lat="50.11636" lon="4.07008">
        <ele>176.5</ele>
        <time>2024-12-26T13:47:52Z</time>
      </trkpt>
      <trkpt lat="50.11632" lon="4.07022">
        <ele>176.5</ele>
        <time>2024-12-26T13:48:04Z</time>
      </trkpt>
      <trkpt lat="50.11624" lon="4.07031">
        <ele>176.7</ele>
        <time>2024-12-26T13:48:15Z</time>
      </trkpt>
      <trkpt lat="50.11617" lon="4.07041">
        <ele>176.8</ele>
        <time>2024-12-26T13:48:25Z</time>
      </trkpt>
      <trkpt lat="50.1161" lon="4.07053">
        <ele>177</ele>
        <time>2024-12-26T13:48:31Z</time>
      </trkpt>
      <trkpt lat="50.11603" lon="4.07065">
        <ele>177.2</ele>
        <time>2024-12-26T13:48:39Z</time>
      </trkpt>
      <trkpt lat="50.11597" lon="4.07075">
        <ele>177.3</ele>
        <time>2024-12-26T13:48:51Z</time>
      </trkpt>
      <trkpt lat="50.11593" lon="4.07089">
        <ele>177.4</ele>
        <time>2024-12-26T13:48:59Z</time>
      </trkpt>
      <trkpt lat="50.11584" lon="4.07097">
        <ele>177.5</ele>
        <time>2024-12-26T13:49:07Z</time>
      </trkpt>
      <trkpt lat="50.11578" lon="4.07108">
        <ele>177.7</ele>
        <time>2024-12-26T13:49:15Z</time>
      </trkpt>
      <trkpt lat="50.11573" lon="4.0712">
        <ele>177.8</ele>
        <time>2024-12-26T13:49:23Z</time>
      </trkpt>
      <trkpt lat="50.11568" lon="4.07132">
        <ele>177.9</ele>
        <time>2024-12-26T13:49:32Z</time>
      </trkpt>
      <trkpt lat="50.11562" lon="4.07142">
        <ele>178.1</ele>
        <time>2024-12-26T13:49:39Z</time>
      </trkpt>
      <trkpt lat="50.11556" lon="4.07154">
        <ele>178.3</ele>
        <time>2024-12-26T13:49:50Z</time>
      </trkpt>
      <trkpt lat="50.11551" lon="4.07165">
        <ele>178.4</ele>
        <time>2024-12-26T13:50:01Z</time>
      </trkpt>
      <trkpt lat="50.11544" lon="4.07175">
        <ele>178.5</ele>
        <time>2024-12-26T13:50:10Z</time>
      </trkpt>
      <trkpt lat="50.11535" lon="4.07183">
        <ele>178.6</ele>
        <time>2024-12-26T13:50:17Z</time>
      </trkpt>
      <trkpt lat="50.11529" lon="4.07195">
        <ele>178.8</ele>
        <time>2024-12-26T13:50:28Z</time>
      </trkpt>
      <trkpt lat="50.1152" lon="4.072">
        <ele>178.9</ele>
        <time>2024-12-26T13:50:36Z</time>
      </trkpt>
      <trkpt lat="50.11512" lon="4.07209">
        <ele>179</ele>
        <time>2024-12-26T13:50:46Z</time>
      </trkpt>
      <trkpt lat="50.11504" lon="4.07216">
        <ele>179.1</ele>
        <time>2024-12-26T13:50:55Z</time>
      </trkpt>
      <trkpt lat="50.11496" lon="4.07223">
        <ele>179.3</ele>
        <time>2024-12-26T13:51:04Z</time>
      </trkpt>
      <trkpt lat="50.11487" lon="4.0723">
        <ele>179.5</ele>
        <time>2024-12-26T13:51:14Z</time>
      </trkpt>
      <trkpt lat="50.11478" lon="4.07235">
        <ele>179.7</ele>
        <time>2024-12-26T13:51:22Z</time>
      </trkpt>
      <trkpt lat="50.11471" lon="4.07245">
        <ele>179.9</ele>
        <time>2024-12-26T13:51:33Z</time>
      </trkpt>
      <trkpt lat="50.11462" lon="4.07249">
        <ele>180.2</ele>
        <time>2024-12-26T13:51:45Z</time>
      </trkpt>
      <trkpt lat="50.11453" lon="4.07253">
        <ele>180.5</ele>
        <time>2024-12-26T13:51:55Z</time>
      </trkpt>
      <trkpt lat="50.11443" lon="4.07255">
        <ele>180.8</ele>
        <time>2024-12-26T13:52:04Z</time>
      </trkpt>
      <trkpt lat="50.11434" lon="4.07259">
        <ele>181.1</ele>
        <time>2024-12-26T13:52:16Z</time>
      </trkpt>
      <trkpt lat="50.11425" lon="4.07265">
        <ele>181.3</ele>
        <time>2024-12-26T13:52:23Z</time>
      </trkpt>
      <trkpt lat="50.11427" lon="4.0728">
        <ele>181.1</ele>
        <time>2024-12-26T13:52:33Z</time>
      </trkpt>
      <trkpt lat="50.11429" lon="4.07294">
        <ele>180.8</ele>
        <time>2024-12-26T13:52:41Z</time>
      </trkpt>
      <trkpt lat="50.1143" lon="4.07309">
        <ele>180.5</ele>
        <time>2024-12-26T13:52:50Z</time>
      </trkpt>
      <trkpt lat="50.11435" lon="4.0732">
        <ele>180.3</ele>
        <time>2024-12-26T13:53:01Z</time>
      </trkpt>
      <trkpt lat="50.11437" lon="4.07322">
        <ele>180.2</ele>
        <time>2024-12-26T13:53:06Z</time>
      </trkpt>
      <trkpt lat="50.1144" lon="4.0732">
        <ele>180.1</ele>
        <time>2024-12-26T14:11:39Z</time>
      </trkpt>
      <trkpt lat="50.1144" lon="4.07321">
        <ele>180.1</ele>
        <time>2024-12-26T14:11:40Z</time>
      </trkpt>
      <trkpt lat="50.11438" lon="4.07321">
        <ele>180.1</ele>
        <time>2024-12-26T14:11:41Z</time>
      </trkpt>
      <trkpt lat="50.11438" lon="4.0732">
        <ele>180.1</ele>
        <time>2024-12-26T14:11:42Z</time>
      </trkpt>
      <trkpt lat="50.11436" lon="4.07305">
        <ele>180.5</ele>
        <time>2024-12-26T14:11:58Z</time>
      </trkpt>
      <trkpt lat="50.11436" lon="4.07291">
        <ele>180.8</ele>
        <time>2024-12-26T14:12:14Z</time>
      </trkpt>
      <trkpt lat="50.11431" lon="4.07277">
        <ele>181.1</ele>
        <time>2024-12-26T14:12:26Z</time>
      </trkpt>
      <trkpt lat="50.11427" lon="4.07264">
        <ele>181.3</ele>
        <time>2024-12-26T14:12:37Z</time>
      </trkpt>
      <trkpt lat="50.11437" lon="4.0726">
        <ele>181.2</ele>
        <time>2024-12-26T14:12:51Z</time>
      </trkpt>
      <trkpt lat="50.11446" lon="4.07257">
        <ele>180.9</ele>
        <time>2024-12-26T14:13:01Z</time>
      </trkpt>
      <trkpt lat="50.11456" lon="4.07254">
        <ele>180.7</ele>
        <time>2024-12-26T14:13:14Z</time>
      </trkpt>
      <trkpt lat="50.11465" lon="4.07248">
        <ele>180.4</ele>
        <time>2024-12-26T14:13:26Z</time>
      </trkpt>
      <trkpt lat="50.11474" lon="4.07245">
        <ele>180.1</ele>
        <time>2024-12-26T14:13:35Z</time>
      </trkpt>
      <trkpt lat="50.11482" lon="4.07238">
        <ele>179.8</ele>
        <time>2024-12-26T14:13:45Z</time>
      </trkpt>
      <trkpt lat="50.11486" lon="4.07235">
        <ele>179.7</ele>
        <time>2024-12-26T14:13:58Z</time>
      </trkpt>
      <trkpt lat="50.11488" lon="4.07234">
        <ele>179.7</ele>
        <time>2024-12-26T14:14:19Z</time>
      </trkpt>
      <trkpt lat="50.11488" lon="4.07234">
        <ele>179.7</ele>
        <time>2024-12-26T14:14:20Z</time>
      </trkpt>
      <trkpt lat="50.11488" lon="4.07235">
        <ele>179.6</ele>
        <time>2024-12-26T14:14:25Z</time>
      </trkpt>
      <trkpt lat="50.11488" lon="4.07235">
        <ele>179.6</ele>
        <time>2024-12-26T14:14:26Z</time>
      </trkpt>
      <trkpt lat="50.11488" lon="4.07235">
        <ele>179.6</ele>
        <time>2024-12-26T14:14:27Z</time>
      </trkpt>
      <trkpt lat="50.11488" lon="4.07232">
        <ele>179.6</ele>
        <time>2024-12-26T14:14:33Z</time>
      </trkpt>
      <trkpt lat="50.11489" lon="4.07231">
        <ele>179.6</ele>
        <time>2024-12-26T14:14:34Z</time>
      </trkpt>
      <trkpt lat="50.1149" lon="4.07228">
        <ele>179.5</ele>
        <time>2024-12-26T14:14:40Z</time>
      </trkpt>
      <trkpt lat="50.1149" lon="4.07228">
        <ele>179.5</ele>
        <time>2024-12-26T14:14:41Z</time>
      </trkpt>
      <trkpt lat="50.11491" lon="4.07228">
        <ele>179.5</ele>
        <time>2024-12-26T14:14:42Z</time>
      </trkpt>
      <trkpt lat="50.11491" lon="4.07228">
        <ele>179.5</ele>
        <time>2024-12-26T14:14:43Z</time>
      </trkpt>
      <trkpt lat="50.11492" lon="4.07227">
        <ele>179.5</ele>
        <time>2024-12-26T14:14:44Z</time>
      </trkpt>
      <trkpt lat="50.115" lon="4.07219">
        <ele>179.3</ele>
        <time>2024-12-26T14:14:57Z</time>
      </trkpt>
      <trkpt lat="50.11508" lon="4.07211">
        <ele>179.1</ele>
        <time>2024-12-26T14:15:07Z</time>
      </trkpt>
      <trkpt lat="50.11516" lon="4.07204">
        <ele>179</ele>
        <time>2024-12-26T14:15:24Z</time>
      </trkpt>
      <trkpt lat="50.1152" lon="4.072">
        <ele>178.9</ele>
        <time>2024-12-26T14:15:36Z</time>
      </trkpt>
      <trkpt lat="50.1152" lon="4.072">
        <ele>178.9</ele>
        <time>2024-12-26T14:15:37Z</time>
      </trkpt>
      <trkpt lat="50.1152" lon="4.072">
        <ele>178.9</ele>
        <time>2024-12-26T14:15:38Z</time>
      </trkpt>
      <trkpt lat="50.1152" lon="4.07199">
        <ele>178.9</ele>
        <time>2024-12-26T14:15:39Z</time>
      </trkpt>
      <trkpt lat="50.1152" lon="4.07199">
        <ele>178.9</ele>
        <time>2024-12-26T14:15:40Z</time>
      </trkpt>
      <trkpt lat="50.11519" lon="4.07198">
        <ele>178.9</ele>
        <time>2024-12-26T14:15:41Z</time>
      </trkpt>
      <trkpt lat="50.11519" lon="4.07198">
        <ele>178.9</ele>
        <time>2024-12-26T14:15:42Z</time>
      </trkpt>
      <trkpt lat="50.11521" lon="4.07195">
        <ele>178.9</ele>
        <time>2024-12-26T14:15:48Z</time>
      </trkpt>
      <trkpt lat="50.11521" lon="4.07195">
        <ele>178.9</ele>
        <time>2024-12-26T14:15:49Z</time>
      </trkpt>
      <trkpt lat="50.11529" lon="4.07186">
        <ele>178.7</ele>
        <time>2024-12-26T14:16:00Z</time>
      </trkpt>
      <trkpt lat="50.11537" lon="4.07179">
        <ele>178.6</ele>
        <time>2024-12-26T14:16:13Z</time>
      </trkpt>
      <trkpt lat="50.11546" lon="4.07171">
        <ele>178.5</ele>
        <time>2024-12-26T14:16:24Z</time>
      </trkpt>
      <trkpt lat="50.11553" lon="4.07161">
        <ele>178.4</ele>
        <time>2024-12-26T14:16:32Z</time>
      </trkpt>
      <trkpt lat="50.11559" lon="4.07148">
        <ele>178.2</ele>
        <time>2024-12-26T14:16:43Z</time>
      </trkpt>
      <trkpt lat="50.11567" lon="4.07138">
        <ele>178.1</ele>
        <time>2024-12-26T14:16:53Z</time>
      </trkpt>
      <trkpt lat="50.11573" lon="4.07126">
        <ele>177.9</ele>
        <time>2024-12-26T14:17:05Z</time>
      </trkpt>
      <trkpt lat="50.1158" lon="4.07114">
        <ele>177.7</ele>
        <time>2024-12-26T14:17:16Z</time>
      </trkpt>
      <trkpt lat="50.11586" lon="4.07104">
        <ele>177.6</ele>
        <time>2024-12-26T14:17:25Z</time>
      </trkpt>
      <trkpt lat="50.11593" lon="4.07093">
        <ele>177.5</ele>
        <time>2024-12-26T14:17:30Z</time>
      </trkpt>
      <trkpt lat="50.11599" lon="4.07082">
        <ele>177.4</ele>
        <time>2024-12-26T14:17:40Z</time>
      </trkpt>
      <trkpt lat="50.11605" lon="4.0707">
        <ele>177.2</ele>
        <time>2024-12-26T14:17:50Z</time>
      </trkpt>
      <trkpt lat="50.1161" lon="4.07057">
        <ele>177</ele>
        <time>2024-12-26T14:18:01Z</time>
      </trkpt>
      <trkpt lat="50.11616" lon="4.07045">
        <ele>176.9</ele>
        <time>2024-12-26T14:18:10Z</time>
      </trkpt>
      <trkpt lat="50.11621" lon="4.07033">
        <ele>176.7</ele>
        <time>2024-12-26T14:18:19Z</time>
      </trkpt>
      <trkpt lat="50.11628" lon="4.07021">
        <ele>176.6</ele>
        <time>2024-12-26T14:18:28Z</time>
      </trkpt>
      <trkpt lat="50.11633" lon="4.07008">
        <ele>176.5</ele>
        <time>2024-12-26T14:18:39Z</time>
      </trkpt>
      <trkpt lat="50.11641" lon="4.07">
        <ele>176.4</ele>
        <time>2024-12-26T14:18:49Z</time>
      </trkpt>
      <trkpt lat="50.11647" lon="4.06989">
        <ele>176.3</ele>
        <time>2024-12-26T14:19:00Z</time>
      </trkpt>
      <trkpt lat="50.11653" lon="4.06977">
        <ele>176.2</ele>
        <time>2024-12-26T14:19:11Z</time>
      </trkpt>
      <trkpt lat="50.11659" lon="4.06964">
        <ele>176.1</ele>
        <time>2024-12-26T14:19:21Z</time>
      </trkpt>
      <trkpt lat="50.11665" lon="4.06952">
        <ele>175.9</ele>
        <time>2024-12-26T14:19:31Z</time>
      </trkpt>
      <trkpt lat="50.11671" lon="4.06941">
        <ele>175.8</ele>
        <time>2024-12-26T14:19:41Z</time>
      </trkpt>
      <trkpt lat="50.11677" lon="4.06929">
        <ele>175.6</ele>
        <time>2024-12-26T14:19:53Z</time>
      </trkpt>
      <trkpt lat="50.11683" lon="4.06917">
        <ele>175.5</ele>
        <time>2024-12-26T14:20:01Z</time>
      </trkpt>
      <trkpt lat="50.11688" lon="4.06905">
        <ele>175.3</ele>
        <time>2024-12-26T14:20:13Z</time>
      </trkpt>
      <trkpt lat="50.11693" lon="4.06893">
        <ele>175.2</ele>
        <time>2024-12-26T14:20:22Z</time>
      </trkpt>
      <trkpt lat="50.117" lon="4.06884">
        <ele>175.1</ele>
        <time>2024-12-26T14:20:32Z</time>
      </trkpt>
      <trkpt lat="50.11707" lon="4.06874">
        <ele>174.9</ele>
        <time>2024-12-26T14:20:40Z</time>
      </trkpt>
      <trkpt lat="50.11715" lon="4.06864">
        <ele>174.8</ele>
        <time>2024-12-26T14:20:51Z</time>
      </trkpt>
      <trkpt lat="50.11723" lon="4.06855">
        <ele>174.6</ele>
        <time>2024-12-26T14:21:01Z</time>
      </trkpt>
      <trkpt lat="50.1173" lon="4.06845">
        <ele>174.5</ele>
        <time>2024-12-26T14:21:11Z</time>
      </trkpt>
      <trkpt lat="50.11737" lon="4.06836">
        <ele>174.4</ele>
        <time>2024-12-26T14:21:20Z</time>
      </trkpt>
      <trkpt lat="50.11746" lon="4.06829">
        <ele>174.3</ele>
        <time>2024-12-26T14:21:31Z</time>
      </trkpt>
      <trkpt lat="50.11754" lon="4.06821">
        <ele>174.2</ele>
        <time>2024-12-26T14:21:39Z</time>
      </trkpt>
      <trkpt lat="50.11761" lon="4.06812">
        <ele>174</ele>
        <time>2024-12-26T14:21:50Z</time>
      </trkpt>
      <trkpt lat="50.11768" lon="4.06802">
        <ele>173.8</ele>
        <time>2024-12-26T14:22:00Z</time>
      </trkpt>
      <trkpt lat="50.11778" lon="4.06795">
        <ele>173.6</ele>
        <time>2024-12-26T14:22:11Z</time>
      </trkpt>
      <trkpt lat="50.11785" lon="4.06787">
        <ele>173.5</ele>
        <time>2024-12-26T14:22:20Z</time>
      </trkpt>
      <trkpt lat="50.11794" lon="4.0678">
        <ele>173.3</ele>
        <time>2024-12-26T14:22:30Z</time>
      </trkpt>
      <trkpt lat="50.11802" lon="4.06773">
        <ele>173.2</ele>
        <time>2024-12-26T14:22:38Z</time>
      </trkpt>
      <trkpt lat="50.11811" lon="4.06766">
        <ele>173</ele>
        <time>2024-12-26T14:22:48Z</time>
      </trkpt>
      <trkpt lat="50.1182" lon="4.06765">
        <ele>172.8</ele>
        <time>2024-12-26T14:23:04Z</time>
      </trkpt>
      <trkpt lat="50.11828" lon="4.06759">
        <ele>172.7</ele>
        <time>2024-12-26T14:23:14Z</time>
      </trkpt>
      <trkpt lat="50.11837" lon="4.06753">
        <ele>172.5</ele>
        <time>2024-12-26T14:23:21Z</time>
      </trkpt>
      <trkpt lat="50.11845" lon="4.06748">
        <ele>172.4</ele>
        <time>2024-12-26T14:23:28Z</time>
      </trkpt>
      <trkpt lat="50.11855" lon="4.06745">
        <ele>172.3</ele>
        <time>2024-12-26T14:23:39Z</time>
      </trkpt>
      <trkpt lat="50.11864" lon="4.06743">
        <ele>172.3</ele>
        <time>2024-12-26T14:23:46Z</time>
      </trkpt>
      <trkpt lat="50.11872" lon="4.06736">
        <ele>172.3</ele>
        <time>2024-12-26T14:23:53Z</time>
      </trkpt>
      <trkpt lat="50.11881" lon="4.06733">
        <ele>172.2</ele>
        <time>2024-12-26T14:24:13Z</time>
      </trkpt>
      <trkpt lat="50.11891" lon="4.0673">
        <ele>172.1</ele>
        <time>2024-12-26T14:24:21Z</time>
      </trkpt>
      <trkpt lat="50.119" lon="4.06729">
        <ele>172.1</ele>
        <time>2024-12-26T14:24:30Z</time>
      </trkpt>
      <trkpt lat="50.11908" lon="4.06722">
        <ele>172.1</ele>
        <time>2024-12-26T14:24:41Z</time>
      </trkpt>
      <trkpt lat="50.11917" lon="4.06717">
        <ele>172.1</ele>
        <time>2024-12-26T14:24:48Z</time>
      </trkpt>
      <trkpt lat="50.11927" lon="4.06711">
        <ele>172.2</ele>
        <time>2024-12-26T14:24:59Z</time>
      </trkpt>
      <trkpt lat="50.11936" lon="4.06706">
        <ele>172.3</ele>
        <time>2024-12-26T14:25:09Z</time>
      </trkpt>
      <trkpt lat="50.11945" lon="4.06706">
        <ele>172.4</ele>
        <time>2024-12-26T14:25:17Z</time>
      </trkpt>
      <trkpt lat="50.11955" lon="4.06705">
        <ele>172.5</ele>
        <time>2024-12-26T14:25:26Z</time>
      </trkpt>
      <trkpt lat="50.11964" lon="4.06707">
        <ele>172.6</ele>
        <time>2024-12-26T14:25:35Z</time>
      </trkpt>
      <trkpt lat="50.11974" lon="4.06705">
        <ele>172.8</ele>
        <time>2024-12-26T14:25:45Z</time>
      </trkpt>
      <trkpt lat="50.11982" lon="4.06702">
        <ele>173</ele>
        <time>2024-12-26T14:25:55Z</time>
      </trkpt>
      <trkpt lat="50.11991" lon="4.06699">
        <ele>173.2</ele>
        <time>2024-12-26T14:26:05Z</time>
      </trkpt>
      <trkpt lat="50.11992" lon="4.06701">
        <ele>173.2</ele>
        <time>2024-12-26T14:26:08Z</time>
      </trkpt>
      <trkpt lat="50.11992" lon="4.06701">
        <ele>173.2</ele>
        <time>2024-12-26T14:26:09Z</time>
      </trkpt>
      <trkpt lat="50.11992" lon="4.067">
        <ele>173.2</ele>
        <time>2024-12-26T14:26:18Z</time>
      </trkpt>
      <trkpt lat="50.11993" lon="4.06699">
        <ele>173.3</ele>
        <time>2024-12-26T14:26:19Z</time>
      </trkpt>
      <trkpt lat="50.12002" lon="4.067">
        <ele>173.6</ele>
        <time>2024-12-26T14:26:27Z</time>
      </trkpt>
      <trkpt lat="50.12012" lon="4.06699">
        <ele>173.9</ele>
        <time>2024-12-26T14:26:37Z</time>
      </trkpt>
      <trkpt lat="50.12021" lon="4.06701">
        <ele>174.2</ele>
        <time>2024-12-26T14:26:50Z</time>
      </trkpt>
      <trkpt lat="50.12031" lon="4.06703">
        <ele>174.4</ele>
        <time>2024-12-26T14:26:58Z</time>
      </trkpt>
      <trkpt lat="50.1204" lon="4.06705">
        <ele>174.6</ele>
        <time>2024-12-26T14:27:04Z</time>
      </trkpt>
      <trkpt lat="50.1205" lon="4.06706">
        <ele>174.7</ele>
        <time>2024-12-26T14:27:13Z</time>
      </trkpt>
      <trkpt lat="50.12059" lon="4.06706">
        <ele>174.8</ele>
        <time>2024-12-26T14:27:21Z</time>
      </trkpt>
      <trkpt lat="50.12068" lon="4.06709">
        <ele>174.9</ele>
        <time>2024-12-26T14:27:30Z</time>
      </trkpt>
      <trkpt lat="50.12078" lon="4.0671">
        <ele>175.1</ele>
        <time>2024-12-26T14:27:40Z</time>
      </trkpt>
      <trkpt lat="50.12088" lon="4.06712">
        <ele>175.3</ele>
        <time>2024-12-26T14:27:53Z</time>
      </trkpt>
      <trkpt lat="50.12097" lon="4.06715">
        <ele>175.5</ele>
        <time>2024-12-26T14:28:03Z</time>
      </trkpt>
      <trkpt lat="50.12106" lon="4.06718">
        <ele>175.7</ele>
        <time>2024-12-26T14:28:11Z</time>
      </trkpt>
      <trkpt lat="50.12115" lon="4.06719">
        <ele>175.9</ele>
        <time>2024-12-26T14:28:20Z</time>
      </trkpt>
      <trkpt lat="50.12123" lon="4.06726">
        <ele>176.1</ele>
        <time>2024-12-26T14:28:30Z</time>
      </trkpt>
      <trkpt lat="50.12132" lon="4.06731">
        <ele>176.4</ele>
        <time>2024-12-26T14:28:39Z</time>
      </trkpt>
      <trkpt lat="50.12141" lon="4.06731">
        <ele>176.7</ele>
        <time>2024-12-26T14:28:49Z</time>
      </trkpt>
      <trkpt lat="50.12151" lon="4.06735">
        <ele>176.8</ele>
        <time>2024-12-26T14:28:57Z</time>
      </trkpt>
      <trkpt lat="50.1216" lon="4.06739">
        <ele>176.9</ele>
        <time>2024-12-26T14:29:09Z</time>
      </trkpt>
      <trkpt lat="50.1217" lon="4.06741">
        <ele>176.9</ele>
        <time>2024-12-26T14:29:20Z</time>
      </trkpt>
      <trkpt lat="50.12179" lon="4.06741">
        <ele>177</ele>
        <time>2024-12-26T14:29:29Z</time>
      </trkpt>
      <trkpt lat="50.12188" lon="4.06745">
        <ele>177</ele>
        <time>2024-12-26T14:29:38Z</time>
      </trkpt>
      <trkpt lat="50.12196" lon="4.0675">
        <ele>177.1</ele>
        <time>2024-12-26T14:29:49Z</time>
      </trkpt>
      <trkpt lat="50.12196" lon="4.06753">
        <ele>177.1</ele>
        <time>2024-12-26T14:29:53Z</time>
      </trkpt>
      <trkpt lat="50.12197" lon="4.06753">
        <ele>177.1</ele>
        <time>2024-12-26T14:29:54Z</time>
      </trkpt>
      <trkpt lat="50.12198" lon="4.06753">
        <ele>177.1</ele>
        <time>2024-12-26T14:29:55Z</time>
      </trkpt>
      <trkpt lat="50.12198" lon="4.06752">
        <ele>177.1</ele>
        <time>2024-12-26T14:29:56Z</time>
      </trkpt>
      <trkpt lat="50.12199" lon="4.06751">
        <ele>177.1</ele>
        <time>2024-12-26T14:29:57Z</time>
      </trkpt>
      <trkpt lat="50.122" lon="4.06751">
        <ele>177.1</ele>
        <time>2024-12-26T14:29:58Z</time>
      </trkpt>
      <trkpt lat="50.12209" lon="4.06753">
        <ele>177.2</ele>
        <time>2024-12-26T14:30:07Z</time>
      </trkpt>
      <trkpt lat="50.12218" lon="4.06756">
        <ele>177.3</ele>
        <time>2024-12-26T14:30:18Z</time>
      </trkpt>
      <trkpt lat="50.12228" lon="4.06759">
        <ele>177.4</ele>
        <time>2024-12-26T14:30:31Z</time>
      </trkpt>
      <trkpt lat="50.12237" lon="4.06761">
        <ele>177.5</ele>
        <time>2024-12-26T14:30:38Z</time>
      </trkpt>
      <trkpt lat="50.12246" lon="4.06767">
        <ele>177.6</ele>
        <time>2024-12-26T14:30:48Z</time>
      </trkpt>
      <trkpt lat="50.12256" lon="4.06767">
        <ele>177.8</ele>
        <time>2024-12-26T14:30:59Z</time>
      </trkpt>
      <trkpt lat="50.12266" lon="4.06768">
        <ele>178</ele>
        <time>2024-12-26T14:31:07Z</time>
      </trkpt>
      <trkpt lat="50.12275" lon="4.0677">
        <ele>178.2</ele>
        <time>2024-12-26T14:31:17Z</time>
      </trkpt>
      <trkpt lat="50.12285" lon="4.06773">
        <ele>178.3</ele>
        <time>2024-12-26T14:31:27Z</time>
      </trkpt>
      <trkpt lat="50.12295" lon="4.06771">
        <ele>178.5</ele>
        <time>2024-12-26T14:31:36Z</time>
      </trkpt>
      <trkpt lat="50.12305" lon="4.06773">
        <ele>178.6</ele>
        <time>2024-12-26T14:31:52Z</time>
      </trkpt>
      <trkpt lat="50.12314" lon="4.06776">
        <ele>178.8</ele>
        <time>2024-12-26T14:32:01Z</time>
      </trkpt>
      <trkpt lat="50.12323" lon="4.06775">
        <ele>178.9</ele>
        <time>2024-12-26T14:32:05Z</time>
      </trkpt>
      <trkpt lat="50.12333" lon="4.06773">
        <ele>179</ele>
        <time>2024-12-26T14:32:12Z</time>
      </trkpt>
      <trkpt lat="50.12343" lon="4.0677">
        <ele>179.2</ele>
        <time>2024-12-26T14:32:24Z</time>
      </trkpt>
      <trkpt lat="50.12352" lon="4.06767">
        <ele>179.3</ele>
        <time>2024-12-26T14:32:35Z</time>
      </trkpt>
      <trkpt lat="50.12361" lon="4.0677">
        <ele>179.4</ele>
        <time>2024-12-26T14:32:47Z</time>
      </trkpt>
      <trkpt lat="50.12371" lon="4.06769">
        <ele>179.6</ele>
        <time>2024-12-26T14:32:58Z</time>
      </trkpt>
      <trkpt lat="50.1238" lon="4.06764">
        <ele>179.7</ele>
        <time>2024-12-26T14:33:10Z</time>
      </trkpt>
      <trkpt lat="50.1239" lon="4.06762">
        <ele>179.9</ele>
        <time>2024-12-26T14:33:18Z</time>
      </trkpt>
      <trkpt lat="50.12399" lon="4.06761">
        <ele>180</ele>
        <time>2024-12-26T14:33:26Z</time>
      </trkpt>
      <trkpt lat="50.12408" lon="4.06758">
        <ele>180.1</ele>
        <time>2024-12-26T14:33:37Z</time>
      </trkpt>
      <trkpt lat="50.12418" lon="4.06755">
        <ele>180.3</ele>
        <time>2024-12-26T14:33:46Z</time>
      </trkpt>
      <trkpt lat="50.12427" lon="4.06752">
        <ele>180.4</ele>
        <time>2024-12-26T14:33:55Z</time>
      </trkpt>
      <trkpt lat="50.12435" lon="4.06753">
        <ele>180.5</ele>
        <time>2024-12-26T14:34:08Z</time>
      </trkpt>
      <trkpt lat="50.12435" lon="4.06753">
        <ele>180.5</ele>
        <time>2024-12-26T14:34:09Z</time>
      </trkpt>
      <trkpt lat="50.12436" lon="4.06752">
        <ele>180.5</ele>
        <time>2024-12-26T14:34:13Z</time>
      </trkpt>
      <trkpt lat="50.12436" lon="4.06752">
        <ele>180.5</ele>
        <time>2024-12-26T14:34:14Z</time>
      </trkpt>
      <trkpt lat="50.12446" lon="4.0675">
        <ele>180.7</ele>
        <time>2024-12-26T14:34:24Z</time>
      </trkpt>
      <trkpt lat="50.12454" lon="4.06745">
        <ele>180.9</ele>
        <time>2024-12-26T14:34:35Z</time>
      </trkpt>
      <trkpt lat="50.12464" lon="4.06741">
        <ele>181.1</ele>
        <time>2024-12-26T14:34:41Z</time>
      </trkpt>
      <trkpt lat="50.12473" lon="4.06733">
        <ele>181.3</ele>
        <time>2024-12-26T14:34:51Z</time>
      </trkpt>
      <trkpt lat="50.12482" lon="4.06725">
        <ele>181.5</ele>
        <time>2024-12-26T14:35:00Z</time>
      </trkpt>
      <trkpt lat="50.12491" lon="4.06721">
        <ele>181.7</ele>
        <time>2024-12-26T14:35:11Z</time>
      </trkpt>
      <trkpt lat="50.125" lon="4.06714">
        <ele>182</ele>
        <time>2024-12-26T14:35:24Z</time>
      </trkpt>
      <trkpt lat="50.12508" lon="4.06708">
        <ele>182.2</ele>
        <time>2024-12-26T14:35:35Z</time>
      </trkpt>
      <trkpt lat="50.12517" lon="4.067">
        <ele>182.4</ele>
        <time>2024-12-26T14:35:44Z</time>
      </trkpt>
      <trkpt lat="50.12525" lon="4.06694">
        <ele>182.7</ele>
        <time>2024-12-26T14:35:53Z</time>
      </trkpt>
      <trkpt lat="50.12534" lon="4.06691">
        <ele>183</ele>
        <time>2024-12-26T14:35:59Z</time>
      </trkpt>
      <trkpt lat="50.12544" lon="4.06686">
        <ele>183.2</ele>
        <time>2024-12-26T14:36:07Z</time>
      </trkpt>
      <trkpt lat="50.12551" lon="4.06676">
        <ele>183.4</ele>
        <time>2024-12-26T14:36:22Z</time>
      </trkpt>
      <trkpt lat="50.12558" lon="4.06668">
        <ele>183.6</ele>
        <time>2024-12-26T14:36:35Z</time>
      </trkpt>
      <trkpt lat="50.12567" lon="4.06663">
        <ele>183.8</ele>
        <time>2024-12-26T14:36:43Z</time>
      </trkpt>
      <trkpt lat="50.12575" lon="4.06656">
        <ele>184</ele>
        <time>2024-12-26T14:36:51Z</time>
      </trkpt>
      <trkpt lat="50.12584" lon="4.06647">
        <ele>184.3</ele>
        <time>2024-12-26T14:37:03Z</time>
      </trkpt>
      <trkpt lat="50.12592" lon="4.06641">
        <ele>184.5</ele>
        <time>2024-12-26T14:37:12Z</time>
      </trkpt>
      <trkpt lat="50.126" lon="4.06634">
        <ele>184.7</ele>
        <time>2024-12-26T14:37:20Z</time>
      </trkpt>
      <trkpt lat="50.12609" lon="4.06627">
        <ele>184.9</ele>
        <time>2024-12-26T14:37:32Z</time>
      </trkpt>
      <trkpt lat="50.12617" lon="4.06621">
        <ele>185.1</ele>
        <time>2024-12-26T14:37:42Z</time>
      </trkpt>
      <trkpt lat="50.12626" lon="4.06614">
        <ele>185.3</ele>
        <time>2024-12-26T14:37:51Z</time>
      </trkpt>
      <trkpt lat="50.12634" lon="4.06608">
        <ele>185.5</ele>
        <time>2024-12-26T14:38:02Z</time>
      </trkpt>
      <trkpt lat="50.12643" lon="4.06604">
        <ele>185.7</ele>
        <time>2024-12-26T14:38:10Z</time>
      </trkpt>
      <trkpt lat="50.12651" lon="4.06597">
        <ele>185.8</ele>
        <time>2024-12-26T14:38:19Z</time>
      </trkpt>
      <trkpt lat="50.1266" lon="4.06597">
        <ele>185.9</ele>
        <time>2024-12-26T14:38:31Z</time>
      </trkpt>
      <trkpt lat="50.12669" lon="4.06592">
        <ele>186</ele>
        <time>2024-12-26T14:38:40Z</time>
      </trkpt>
      <trkpt lat="50.12678" lon="4.06586">
        <ele>186.1</ele>
        <time>2024-12-26T14:38:49Z</time>
      </trkpt>
      <trkpt lat="50.12688" lon="4.06581">
        <ele>186.2</ele>
        <time>2024-12-26T14:39:02Z</time>
      </trkpt>
      <trkpt lat="50.12697" lon="4.06576">
        <ele>186.3</ele>
        <time>2024-12-26T14:39:09Z</time>
      </trkpt>
      <trkpt lat="50.12705" lon="4.06569">
        <ele>186.4</ele>
        <time>2024-12-26T14:39:18Z</time>
      </trkpt>
      <trkpt lat="50.12714" lon="4.06569">
        <ele>186.5</ele>
        <time>2024-12-26T14:39:28Z</time>
      </trkpt>
      <trkpt lat="50.12723" lon="4.06566">
        <ele>186.6</ele>
        <time>2024-12-26T14:39:40Z</time>
      </trkpt>
      <trkpt lat="50.12733" lon="4.06563">
        <ele>186.7</ele>
        <time>2024-12-26T14:39:45Z</time>
      </trkpt>
      <trkpt lat="50.12743" lon="4.06564">
        <ele>186.8</ele>
        <time>2024-12-26T14:40:03Z</time>
      </trkpt>
      <trkpt lat="50.12753" lon="4.06562">
        <ele>186.9</ele>
        <time>2024-12-26T14:40:14Z</time>
      </trkpt>
      <trkpt lat="50.12763" lon="4.06559">
        <ele>187</ele>
        <time>2024-12-26T14:40:26Z</time>
      </trkpt>
      <trkpt lat="50.12773" lon="4.06556">
        <ele>187.2</ele>
        <time>2024-12-26T14:40:37Z</time>
      </trkpt>
      <trkpt lat="50.12782" lon="4.06555">
        <ele>187.5</ele>
        <time>2024-12-26T14:40:47Z</time>
      </trkpt>
      <trkpt lat="50.12792" lon="4.06551">
        <ele>187.7</ele>
        <time>2024-12-26T14:40:55Z</time>
      </trkpt>
      <trkpt lat="50.12801" lon="4.06548">
        <ele>188</ele>
        <time>2024-12-26T14:41:02Z</time>
      </trkpt>
      <trkpt lat="50.12811" lon="4.06547">
        <ele>188.1</ele>
        <time>2024-12-26T14:41:11Z</time>
      </trkpt>
      <trkpt lat="50.1282" lon="4.06547">
        <ele>188.3</ele>
        <time>2024-12-26T14:41:19Z</time>
      </trkpt>
      <trkpt lat="50.1283" lon="4.06549">
        <ele>188.4</ele>
        <time>2024-12-26T14:41:33Z</time>
      </trkpt>
      <trkpt lat="50.12838" lon="4.06554">
        <ele>188.6</ele>
        <time>2024-12-26T14:41:43Z</time>
      </trkpt>
      <trkpt lat="50.12848" lon="4.06555">
        <ele>188.8</ele>
        <time>2024-12-26T14:41:51Z</time>
      </trkpt>
      <trkpt lat="50.12857" lon="4.06559">
        <ele>189.1</ele>
        <time>2024-12-26T14:42:01Z</time>
      </trkpt>
      <trkpt lat="50.12866" lon="4.06558">
        <ele>189.4</ele>
        <time>2024-12-26T14:42:09Z</time>
      </trkpt>
      <trkpt lat="50.12875" lon="4.0656">
        <ele>189.7</ele>
        <time>2024-12-26T14:42:20Z</time>
      </trkpt>
      <trkpt lat="50.12885" lon="4.06559">
        <ele>190</ele>
        <time>2024-12-26T14:42:28Z</time>
      </trkpt>
      <trkpt lat="50.12894" lon="4.06563">
        <ele>190.2</ele>
        <time>2024-12-26T14:42:38Z</time>
      </trkpt>
      <trkpt lat="50.12904" lon="4.06566">
        <ele>190.3</ele>
        <time>2024-12-26T14:42:49Z</time>
      </trkpt>
      <trkpt lat="50.12913" lon="4.06563">
        <ele>190.4</ele>
        <time>2024-12-26T14:42:58Z</time>
      </trkpt>
      <trkpt lat="50.12922" lon="4.06561">
        <ele>190.5</ele>
        <time>2024-12-26T14:43:07Z</time>
      </trkpt>
      <trkpt lat="50.12931" lon="4.06565">
        <ele>190.6</ele>
        <time>2024-12-26T14:43:16Z</time>
      </trkpt>
      <trkpt lat="50.12938" lon="4.06572">
        <ele>190.8</ele>
        <time>2024-12-26T14:43:29Z</time>
      </trkpt>
      <trkpt lat="50.12939" lon="4.06568">
        <ele>190.9</ele>
        <time>2024-12-26T14:43:33Z</time>
      </trkpt>
      <trkpt lat="50.12939" lon="4.06568">
        <ele>190.9</ele>
        <time>2024-12-26T14:43:34Z</time>
      </trkpt>
      <trkpt lat="50.12939" lon="4.06567">
        <ele>190.9</ele>
        <time>2024-12-26T14:43:38Z</time>
      </trkpt>
      <trkpt lat="50.1294" lon="4.06567">
        <ele>190.9</ele>
        <time>2024-12-26T14:43:39Z</time>
      </trkpt>
      <trkpt lat="50.12942" lon="4.06568">
        <ele>191</ele>
        <time>2024-12-26T14:43:40Z</time>
      </trkpt>
      <trkpt lat="50.12949" lon="4.06577">
        <ele>191.2</ele>
        <time>2024-12-26T14:43:51Z</time>
      </trkpt>
      <trkpt lat="50.12958" lon="4.06579">
        <ele>191.4</ele>
        <time>2024-12-26T14:43:57Z</time>
      </trkpt>
      <trkpt lat="50.12967" lon="4.06582">
        <ele>191.6</ele>
        <time>2024-12-26T14:44:09Z</time>
      </trkpt>
      <trkpt lat="50.12976" lon="4.06584">
        <ele>191.8</ele>
        <time>2024-12-26T14:44:17Z</time>
      </trkpt>
      <trkpt lat="50.12984" lon="4.06592">
        <ele>192</ele>
        <time>2024-12-26T14:44:30Z</time>
      </trkpt>
      <trkpt lat="50.12994" lon="4.06592">
        <ele>192.2</ele>
        <time>2024-12-26T14:44:38Z</time>
      </trkpt>
      <trkpt lat="50.13004" lon="4.06595">
        <ele>192.3</ele>
        <time>2024-12-26T14:44:49Z</time>
      </trkpt>
      <trkpt lat="50.13013" lon="4.06593">
        <ele>192.5</ele>
        <time>2024-12-26T14:44:56Z</time>
      </trkpt>
      <trkpt lat="50.13022" lon="4.06599">
        <ele>192.7</ele>
        <time>2024-12-26T14:45:08Z</time>
      </trkpt>
      <trkpt lat="50.13031" lon="4.06604">
        <ele>192.9</ele>
        <time>2024-12-26T14:45:18Z</time>
      </trkpt>
      <trkpt lat="50.13041" lon="4.06606">
        <ele>193.1</ele>
        <time>2024-12-26T14:45:27Z</time>
      </trkpt>
      <trkpt lat="50.13051" lon="4.0661">
        <ele>193.2</ele>
        <time>2024-12-26T14:45:38Z</time>
      </trkpt>
      <trkpt lat="50.1306" lon="4.0661">
        <ele>193.3</ele>
        <time>2024-12-26T14:45:48Z</time>
      </trkpt>
      <trkpt lat="50.13068" lon="4.06615">
        <ele>193.4</ele>
        <time>2024-12-26T14:45:58Z</time>
      </trkpt>
      <trkpt lat="50.13078" lon="4.06617">
        <ele>193.4</ele>
        <time>2024-12-26T14:46:09Z</time>
      </trkpt>
      <trkpt lat="50.13087" lon="4.0662">
        <ele>193.5</ele>
        <time>2024-12-26T14:46:19Z</time>
      </trkpt>
      <trkpt lat="50.13097" lon="4.06622">
        <ele>193.6</ele>
        <time>2024-12-26T14:46:29Z</time>
      </trkpt>
      <trkpt lat="50.13106" lon="4.06626">
        <ele>193.8</ele>
        <time>2024-12-26T14:46:39Z</time>
      </trkpt>
      <trkpt lat="50.13116" lon="4.06625">
        <ele>194</ele>
        <time>2024-12-26T14:46:48Z</time>
      </trkpt>
      <trkpt lat="50.13125" lon="4.06631">
        <ele>194.2</ele>
        <time>2024-12-26T14:47:02Z</time>
      </trkpt>
      <trkpt lat="50.13135" lon="4.06633">
        <ele>194.4</ele>
        <time>2024-12-26T14:47:12Z</time>
      </trkpt>
      <trkpt lat="50.13145" lon="4.06635">
        <ele>194.6</ele>
        <time>2024-12-26T14:47:21Z</time>
      </trkpt>
      <trkpt lat="50.13154" lon="4.06635">
        <ele>194.7</ele>
        <time>2024-12-26T14:47:31Z</time>
      </trkpt>
      <trkpt lat="50.13163" lon="4.06639">
        <ele>194.9</ele>
        <time>2024-12-26T14:47:43Z</time>
      </trkpt>
      <trkpt lat="50.13172" lon="4.06642">
        <ele>195</ele>
        <time>2024-12-26T14:47:54Z</time>
      </trkpt>
      <trkpt lat="50.13181" lon="4.06644">
        <ele>195.1</ele>
        <time>2024-12-26T14:48:04Z</time>
      </trkpt>
      <trkpt lat="50.1319" lon="4.06644">
        <ele>195.3</ele>
        <time>2024-12-26T14:48:14Z</time>
      </trkpt>
      <trkpt lat="50.132" lon="4.06646">
        <ele>195.5</ele>
        <time>2024-12-26T14:48:23Z</time>
      </trkpt>
      <trkpt lat="50.13208" lon="4.06649">
        <ele>195.7</ele>
        <time>2024-12-26T14:48:35Z</time>
      </trkpt>
      <trkpt lat="50.13218" lon="4.06654">
        <ele>195.9</ele>
        <time>2024-12-26T14:48:48Z</time>
      </trkpt>
      <trkpt lat="50.13227" lon="4.06655">
        <ele>196.1</ele>
        <time>2024-12-26T14:48:57Z</time>
      </trkpt>
      <trkpt lat="50.13237" lon="4.06649">
        <ele>196.4</ele>
        <time>2024-12-26T14:49:03Z</time>
      </trkpt>
      <trkpt lat="50.13246" lon="4.06649">
        <ele>196.6</ele>
        <time>2024-12-26T14:49:13Z</time>
      </trkpt>
      <trkpt lat="50.13255" lon="4.06648">
        <ele>196.8</ele>
        <time>2024-12-26T14:49:21Z</time>
      </trkpt>
      <trkpt lat="50.13264" lon="4.0665">
        <ele>197</ele>
        <time>2024-12-26T14:49:31Z</time>
      </trkpt>
      <trkpt lat="50.13274" lon="4.06648">
        <ele>197.2</ele>
        <time>2024-12-26T14:49:42Z</time>
      </trkpt>
      <trkpt lat="50.13283" lon="4.06646">
        <ele>197.4</ele>
        <time>2024-12-26T14:49:49Z</time>
      </trkpt>
      <trkpt lat="50.13292" lon="4.06647">
        <ele>197.5</ele>
        <time>2024-12-26T14:49:58Z</time>
      </trkpt>
      <trkpt lat="50.133" lon="4.06652">
        <ele>197.7</ele>
        <time>2024-12-26T14:50:13Z</time>
      </trkpt>
      <trkpt lat="50.1331" lon="4.06653">
        <ele>197.9</ele>
        <time>2024-12-26T14:50:24Z</time>
      </trkpt>
      <trkpt lat="50.13319" lon="4.06653">
        <ele>198.1</ele>
        <time>2024-12-26T14:50:31Z</time>
      </trkpt>
      <trkpt lat="50.13328" lon="4.06655">
        <ele>198.3</ele>
        <time>2024-12-26T14:50:41Z</time>
      </trkpt>
      <trkpt lat="50.13338" lon="4.06656">
        <ele>198.4</ele>
        <time>2024-12-26T14:50:54Z</time>
      </trkpt>
      <trkpt lat="50.13347" lon="4.06655">
        <ele>198.6</ele>
        <time>2024-12-26T14:51:04Z</time>
      </trkpt>
      <trkpt lat="50.13357" lon="4.06652">
        <ele>198.8</ele>
        <time>2024-12-26T14:51:13Z</time>
      </trkpt>
      <trkpt lat="50.13366" lon="4.06652">
        <ele>198.9</ele>
        <time>2024-12-26T14:51:21Z</time>
      </trkpt>
      <trkpt lat="50.13376" lon="4.06651">
        <ele>199</ele>
        <time>2024-12-26T14:51:33Z</time>
      </trkpt>
      <trkpt lat="50.13385" lon="4.0665">
        <ele>199.2</ele>
        <time>2024-12-26T14:51:41Z</time>
      </trkpt>
      <trkpt lat="50.13395" lon="4.06654">
        <ele>199.3</ele>
        <time>2024-12-26T14:51:53Z</time>
      </trkpt>
      <trkpt lat="50.13405" lon="4.06654">
        <ele>199.4</ele>
        <time>2024-12-26T14:52:02Z</time>
      </trkpt>
      <trkpt lat="50.13414" lon="4.06652">
        <ele>199.5</ele>
        <time>2024-12-26T14:52:15Z</time>
      </trkpt>
      <trkpt lat="50.13424" lon="4.06651">
        <ele>199.6</ele>
        <time>2024-12-26T14:52:25Z</time>
      </trkpt>
      <trkpt lat="50.13433" lon="4.06651">
        <ele>199.7</ele>
        <time>2024-12-26T14:52:38Z</time>
      </trkpt>
      <trkpt lat="50.13443" lon="4.06651">
        <ele>199.9</ele>
        <time>2024-12-26T14:52:45Z</time>
      </trkpt>
      <trkpt lat="50.13452" lon="4.0665">
        <ele>200.1</ele>
        <time>2024-12-26T14:52:52Z</time>
      </trkpt>
      <trkpt lat="50.13455" lon="4.06651">
        <ele>200.1</ele>
        <time>2024-12-26T14:52:58Z</time>
      </trkpt>
      <trkpt lat="50.13455" lon="4.06651">
        <ele>200.1</ele>
        <time>2024-12-26T14:52:59Z</time>
      </trkpt>
      <trkpt lat="50.13456" lon="4.0665">
        <ele>200.1</ele>
        <time>2024-12-26T14:53:00Z</time>
      </trkpt>
      <trkpt lat="50.13456" lon="4.0665">
        <ele>200.1</ele>
        <time>2024-12-26T14:53:01Z</time>
      </trkpt>
      <trkpt lat="50.13456" lon="4.06649">
        <ele>200.1</ele>
        <time>2024-12-26T14:53:02Z</time>
      </trkpt>
      <trkpt lat="50.13465" lon="4.06643">
        <ele>200.3</ele>
        <time>2024-12-26T14:53:11Z</time>
      </trkpt>
      <trkpt lat="50.13474" lon="4.06638">
        <ele>200.5</ele>
        <time>2024-12-26T14:53:20Z</time>
      </trkpt>
      <trkpt lat="50.13484" lon="4.06637">
        <ele>200.7</ele>
        <time>2024-12-26T14:53:25Z</time>
      </trkpt>
      <trkpt lat="50.13494" lon="4.06637">
        <ele>201</ele>
        <time>2024-12-26T14:53:33Z</time>
      </trkpt>
      <trkpt lat="50.13502" lon="4.06641">
        <ele>201.1</ele>
        <time>2024-12-26T14:53:43Z</time>
      </trkpt>
      <trkpt lat="50.13513" lon="4.06639">
        <ele>201.3</ele>
        <time>2024-12-26T14:53:55Z</time>
      </trkpt>
      <trkpt lat="50.13523" lon="4.06635">
        <ele>201.4</ele>
        <time>2024-12-26T14:54:00Z</time>
      </trkpt>
      <trkpt lat="50.13532" lon="4.06634">
        <ele>201.5</ele>
        <time>2024-12-26T14:54:10Z</time>
      </trkpt>
      <trkpt lat="50.13541" lon="4.06633">
        <ele>201.7</ele>
        <time>2024-12-26T14:54:17Z</time>
      </trkpt>
      <trkpt lat="50.13551" lon="4.06633">
        <ele>201.9</ele>
        <time>2024-12-26T14:54:29Z</time>
      </trkpt>
      <trkpt lat="50.1356" lon="4.06631">
        <ele>202</ele>
        <time>2024-12-26T14:54:38Z</time>
      </trkpt>
      <trkpt lat="50.1357" lon="4.06632">
        <ele>202.2</ele>
        <time>2024-12-26T14:54:52Z</time>
      </trkpt>
      <trkpt lat="50.1358" lon="4.06633">
        <ele>202.5</ele>
        <time>2024-12-26T14:55:00Z</time>
      </trkpt>
      <trkpt lat="50.13589" lon="4.06632">
        <ele>202.8</ele>
        <time>2024-12-26T14:55:15Z</time>
      </trkpt>
      <trkpt lat="50.13598" lon="4.06631">
        <ele>202.9</ele>
        <time>2024-12-26T14:55:23Z</time>
      </trkpt>
      <trkpt lat="50.13608" lon="4.06628">
        <ele>203.1</ele>
        <time>2024-12-26T14:55:33Z</time>
      </trkpt>
      <trkpt lat="50.13617" lon="4.06627">
        <ele>203.3</ele>
        <time>2024-12-26T14:55:46Z</time>
      </trkpt>
      <trkpt lat="50.13626" lon="4.06625">
        <ele>203.4</ele>
        <time>2024-12-26T14:55:54Z</time>
      </trkpt>
      <trkpt lat="50.13636" lon="4.06625">
        <ele>203.6</ele>
        <time>2024-12-26T14:56:01Z</time>
      </trkpt>
      <trkpt lat="50.13645" lon="4.06626">
        <ele>203.7</ele>
        <time>2024-12-26T14:56:09Z</time>
      </trkpt>
      <trkpt lat="50.13654" lon="4.06626">
        <ele>203.9</ele>
        <time>2024-12-26T14:56:21Z</time>
      </trkpt>
      <trkpt lat="50.13663" lon="4.06622">
        <ele>204.1</ele>
        <time>2024-12-26T14:56:28Z</time>
      </trkpt>
      <trkpt lat="50.13673" lon="4.06623">
        <ele>204.2</ele>
        <time>2024-12-26T14:56:41Z</time>
      </trkpt>
      <trkpt lat="50.13682" lon="4.06621">
        <ele>204.4</ele>
        <time>2024-12-26T14:56:50Z</time>
      </trkpt>
      <trkpt lat="50.13691" lon="4.06623">
        <ele>204.5</ele>
        <time>2024-12-26T14:56:58Z</time>
      </trkpt>
      <trkpt lat="50.13701" lon="4.06624">
        <ele>204.7</ele>
        <time>2024-12-26T14:57:07Z</time>
      </trkpt>
      <trkpt lat="50.13711" lon="4.06624">
        <ele>204.8</ele>
        <time>2024-12-26T14:57:20Z</time>
      </trkpt>
      <trkpt lat="50.1372" lon="4.06625">
        <ele>204.9</ele>
        <time>2024-12-26T14:57:27Z</time>
      </trkpt>
      <trkpt lat="50.13729" lon="4.06627">
        <ele>205.1</ele>
        <time>2024-12-26T14:57:40Z</time>
      </trkpt>
      <trkpt lat="50.13738" lon="4.06631">
        <ele>205.2</ele>
        <time>2024-12-26T14:57:49Z</time>
      </trkpt>
      <trkpt lat="50.13748" lon="4.06626">
        <ele>205.4</ele>
        <time>2024-12-26T14:57:56Z</time>
      </trkpt>
      <trkpt lat="50.13757" lon="4.06626">
        <ele>205.6</ele>
        <time>2024-12-26T14:58:05Z</time>
      </trkpt>
      <trkpt lat="50.13765" lon="4.06634">
        <ele>205.8</ele>
        <time>2024-12-26T14:58:16Z</time>
      </trkpt>
      <trkpt lat="50.13774" lon="4.06637">
        <ele>205.9</ele>
        <time>2024-12-26T14:58:28Z</time>
      </trkpt>
      <trkpt lat="50.13783" lon="4.06637">
        <ele>206.1</ele>
        <time>2024-12-26T14:58:38Z</time>
      </trkpt>
      <trkpt lat="50.13792" lon="4.06642">
        <ele>206.3</ele>
        <time>2024-12-26T14:58:53Z</time>
      </trkpt>
      <trkpt lat="50.13802" lon="4.06642">
        <ele>206.5</ele>
        <time>2024-12-26T14:59:02Z</time>
      </trkpt>
      <trkpt lat="50.13811" lon="4.06642">
        <ele>206.7</ele>
        <time>2024-12-26T14:59:11Z</time>
      </trkpt>
      <trkpt lat="50.13821" lon="4.0664">
        <ele>206.9</ele>
        <time>2024-12-26T14:59:19Z</time>
      </trkpt>
      <trkpt lat="50.13831" lon="4.06644">
        <ele>207.1</ele>
        <time>2024-12-26T14:59:30Z</time>
      </trkpt>
      <trkpt lat="50.1384" lon="4.06647">
        <ele>207.3</ele>
        <time>2024-12-26T14:59:40Z</time>
      </trkpt>
      <trkpt lat="50.13849" lon="4.0665">
        <ele>207.4</ele>
        <time>2024-12-26T14:59:50Z</time>
      </trkpt>
      <trkpt lat="50.13859" lon="4.06652">
        <ele>207.6</ele>
        <time>2024-12-26T15:00:01Z</time>
      </trkpt>
      <trkpt lat="50.13868" lon="4.06656">
        <ele>207.7</ele>
        <time>2024-12-26T15:00:14Z</time>
      </trkpt>
      <trkpt lat="50.13877" lon="4.0666">
        <ele>207.9</ele>
        <time>2024-12-26T15:00:25Z</time>
      </trkpt>
      <trkpt lat="50.13887" lon="4.0666">
        <ele>208</ele>
        <time>2024-12-26T15:00:35Z</time>
      </trkpt>
      <trkpt lat="50.13896" lon="4.06664">
        <ele>208.1</ele>
        <time>2024-12-26T15:00:45Z</time>
      </trkpt>
      <trkpt lat="50.13899" lon="4.06668">
        <ele>208.2</ele>
        <time>2024-12-26T15:00:55Z</time>
      </trkpt>
      <trkpt lat="50.13899" lon="4.06668">
        <ele>208.2</ele>
        <time>2024-12-26T15:00:56Z</time>
      </trkpt>
      <trkpt lat="50.13899" lon="4.06668">
        <ele>208.2</ele>
        <time>2024-12-26T15:00:57Z</time>
      </trkpt>
      <trkpt lat="50.13898" lon="4.06669">
        <ele>208.2</ele>
        <time>2024-12-26T15:01:00Z</time>
      </trkpt>
      <trkpt lat="50.13898" lon="4.06669">
        <ele>208.2</ele>
        <time>2024-12-26T15:01:01Z</time>
      </trkpt>
      <trkpt lat="50.13898" lon="4.0667">
        <ele>208.2</ele>
        <time>2024-12-26T15:01:02Z</time>
      </trkpt>
      <trkpt lat="50.13901" lon="4.06665">
        <ele>208.3</ele>
        <time>2024-12-26T15:01:10Z</time>
      </trkpt>
      <trkpt lat="50.13901" lon="4.06664">
        <ele>208.3</ele>
        <time>2024-12-26T15:01:11Z</time>
      </trkpt>
      <trkpt lat="50.13901" lon="4.06663">
        <ele>208.3</ele>
        <time>2024-12-26T15:01:12Z</time>
      </trkpt>
      <trkpt lat="50.13905" lon="4.06665">
        <ele>208.3</ele>
        <time>2024-12-26T15:01:36Z</time>
      </trkpt>
      <trkpt lat="50.13905" lon="4.06666">
        <ele>208.3</ele>
        <time>2024-12-26T15:01:37Z</time>
      </trkpt>
      <trkpt lat="50.13915" lon="4.06666">
        <ele>208.5</ele>
        <time>2024-12-26T15:01:45Z</time>
      </trkpt>
      <trkpt lat="50.13924" lon="4.0667">
        <ele>208.6</ele>
        <time>2024-12-26T15:01:53Z</time>
      </trkpt>
      <trkpt lat="50.13933" lon="4.06675">
        <ele>208.8</ele>
        <time>2024-12-26T15:02:01Z</time>
      </trkpt>
      <trkpt lat="50.13944" lon="4.06675">
        <ele>209</ele>
        <time>2024-12-26T15:02:09Z</time>
      </trkpt>
      <trkpt lat="50.13953" lon="4.06679">
        <ele>209.2</ele>
        <time>2024-12-26T15:02:16Z</time>
      </trkpt>
      <trkpt lat="50.13963" lon="4.06683">
        <ele>209.3</ele>
        <time>2024-12-26T15:02:26Z</time>
      </trkpt>
      <trkpt lat="50.13972" lon="4.06684">
        <ele>209.5</ele>
        <time>2024-12-26T15:02:35Z</time>
      </trkpt>
      <trkpt lat="50.13982" lon="4.06685">
        <ele>209.7</ele>
        <time>2024-12-26T15:02:45Z</time>
      </trkpt>
      <trkpt lat="50.13991" lon="4.06692">
        <ele>209.9</ele>
        <time>2024-12-26T15:02:55Z</time>
      </trkpt>
      <trkpt lat="50.14001" lon="4.06693">
        <ele>210.1</ele>
        <time>2024-12-26T15:03:04Z</time>
      </trkpt>
      <trkpt lat="50.14011" lon="4.06694">
        <ele>210.3</ele>
        <time>2024-12-26T15:03:10Z</time>
      </trkpt>
      <trkpt lat="50.1402" lon="4.06696">
        <ele>210.5</ele>
        <time>2024-12-26T15:03:21Z</time>
      </trkpt>
      <trkpt lat="50.14029" lon="4.06701">
        <ele>210.7</ele>
        <time>2024-12-26T15:03:31Z</time>
      </trkpt>
      <trkpt lat="50.14032" lon="4.06702">
        <ele>210.7</ele>
        <time>2024-12-26T15:03:38Z</time>
      </trkpt>
      <trkpt lat="50.14032" lon="4.06702">
        <ele>210.7</ele>
        <time>2024-12-26T15:03:39Z</time>
      </trkpt>
      <trkpt lat="50.14036" lon="4.06701">
        <ele>210.8</ele>
        <time>2024-12-26T15:03:46Z</time>
      </trkpt>
      <trkpt lat="50.14037" lon="4.06701">
        <ele>210.8</ele>
        <time>2024-12-26T15:03:47Z</time>
      </trkpt>
      <trkpt lat="50.14038" lon="4.06701">
        <ele>210.8</ele>
        <time>2024-12-26T15:03:48Z</time>
      </trkpt>
      <trkpt lat="50.14047" lon="4.06701">
        <ele>211</ele>
        <time>2024-12-26T15:03:57Z</time>
      </trkpt>
      <trkpt lat="50.14057" lon="4.06705">
        <ele>211.1</ele>
        <time>2024-12-26T15:04:09Z</time>
      </trkpt>
      <trkpt lat="50.14065" lon="4.06712">
        <ele>211.3</ele>
        <time>2024-12-26T15:04:18Z</time>
      </trkpt>
      <trkpt lat="50.14075" lon="4.06714">
        <ele>211.4</ele>
        <time>2024-12-26T15:04:29Z</time>
      </trkpt>
      <trkpt lat="50.14084" lon="4.06716">
        <ele>211.6</ele>
        <time>2024-12-26T15:04:41Z</time>
      </trkpt>
      <trkpt lat="50.14094" lon="4.06718">
        <ele>211.8</ele>
        <time>2024-12-26T15:04:53Z</time>
      </trkpt>
      <trkpt lat="50.14103" lon="4.06724">
        <ele>211.9</ele>
        <time>2024-12-26T15:05:05Z</time>
      </trkpt>
      <trkpt lat="50.14113" lon="4.06725">
        <ele>212.1</ele>
        <time>2024-12-26T15:05:12Z</time>
      </trkpt>
      <trkpt lat="50.14122" lon="4.06729">
        <ele>212.2</ele>
        <time>2024-12-26T15:05:23Z</time>
      </trkpt>
      <trkpt lat="50.1413" lon="4.06733">
        <ele>212.4</ele>
        <time>2024-12-26T15:05:33Z</time>
      </trkpt>
      <trkpt lat="50.14139" lon="4.06739">
        <ele>212.6</ele>
        <time>2024-12-26T15:05:45Z</time>
      </trkpt>
      <trkpt lat="50.14148" lon="4.06742">
        <ele>212.8</ele>
        <time>2024-12-26T15:05:52Z</time>
      </trkpt>
      <trkpt lat="50.14157" lon="4.06746">
        <ele>213</ele>
        <time>2024-12-26T15:06:02Z</time>
      </trkpt>
      <trkpt lat="50.14167" lon="4.06746">
        <ele>213.2</ele>
        <time>2024-12-26T15:06:10Z</time>
      </trkpt>
      <trkpt lat="50.14176" lon="4.06745">
        <ele>213.5</ele>
        <time>2024-12-26T15:06:19Z</time>
      </trkpt>
      <trkpt lat="50.14184" lon="4.06751">
        <ele>213.7</ele>
        <time>2024-12-26T15:06:32Z</time>
      </trkpt>
      <trkpt lat="50.14194" lon="4.06752">
        <ele>213.9</ele>
        <time>2024-12-26T15:06:43Z</time>
      </trkpt>
      <trkpt lat="50.14204" lon="4.06754">
        <ele>214.1</ele>
        <time>2024-12-26T15:06:52Z</time>
      </trkpt>
      <trkpt lat="50.14209" lon="4.06759">
        <ele>214.1</ele>
        <time>2024-12-26T15:07:05Z</time>
      </trkpt>
      <trkpt lat="50.1421" lon="4.06759">
        <ele>214.1</ele>
        <time>2024-12-26T15:07:06Z</time>
      </trkpt>
      <trkpt lat="50.1421" lon="4.0676">
        <ele>214.2</ele>
        <time>2024-12-26T15:07:07Z</time>
      </trkpt>
      <trkpt lat="50.14211" lon="4.06761">
        <ele>214.2</ele>
        <time>2024-12-26T15:07:08Z</time>
      </trkpt>
      <trkpt lat="50.14212" lon="4.06762">
        <ele>214.2</ele>
        <time>2024-12-26T15:07:09Z</time>
      </trkpt>
      <trkpt lat="50.14213" lon="4.06762">
        <ele>214.2</ele>
        <time>2024-12-26T15:07:10Z</time>
      </trkpt>
      <trkpt lat="50.14222" lon="4.06766">
        <ele>214.3</ele>
        <time>2024-12-26T15:07:22Z</time>
      </trkpt>
      <trkpt lat="50.14232" lon="4.06769">
        <ele>214.5</ele>
        <time>2024-12-26T15:07:29Z</time>
      </trkpt>
      <trkpt lat="50.14241" lon="4.06769">
        <ele>214.6</ele>
        <time>2024-12-26T15:07:37Z</time>
      </trkpt>
      <trkpt lat="50.14249" lon="4.06774">
        <ele>214.8</ele>
        <time>2024-12-26T15:07:51Z</time>
      </trkpt>
      <trkpt lat="50.14259" lon="4.06775">
        <ele>215</ele>
        <time>2024-12-26T15:08:01Z</time>
      </trkpt>
      <trkpt lat="50.14268" lon="4.06779">
        <ele>215.2</ele>
        <time>2024-12-26T15:08:12Z</time>
      </trkpt>
      <trkpt lat="50.14277" lon="4.06784">
        <ele>215.3</ele>
        <time>2024-12-26T15:08:22Z</time>
      </trkpt>
      <trkpt lat="50.14286" lon="4.06789">
        <ele>215.4</ele>
        <time>2024-12-26T15:08:31Z</time>
      </trkpt>
      <trkpt lat="50.14295" lon="4.06792">
        <ele>215.5</ele>
        <time>2024-12-26T15:08:40Z</time>
      </trkpt>
      <trkpt lat="50.14304" lon="4.06791">
        <ele>215.6</ele>
        <time>2024-12-26T15:08:48Z</time>
      </trkpt>
      <trkpt lat="50.14313" lon="4.06793">
        <ele>215.7</ele>
        <time>2024-12-26T15:08:58Z</time>
      </trkpt>
      <trkpt lat="50.14322" lon="4.06798">
        <ele>215.9</ele>
        <time>2024-12-26T15:09:08Z</time>
      </trkpt>
      <trkpt lat="50.14332" lon="4.06801">
        <ele>216</ele>
        <time>2024-12-26T15:09:17Z</time>
      </trkpt>
      <trkpt lat="50.14341" lon="4.06802">
        <ele>216.2</ele>
        <time>2024-12-26T15:09:27Z</time>
      </trkpt>
      <trkpt lat="50.1435" lon="4.06803">
        <ele>216.3</ele>
        <time>2024-12-26T15:09:39Z</time>
      </trkpt>
      <trkpt lat="50.14359" lon="4.06805">
        <ele>216.3</ele>
        <time>2024-12-26T15:09:52Z</time>
      </trkpt>
      <trkpt lat="50.14368" lon="4.06806">
        <ele>216.4</ele>
        <time>2024-12-26T15:10:01Z</time>
      </trkpt>
      <trkpt lat="50.14377" lon="4.06807">
        <ele>216.5</ele>
        <time>2024-12-26T15:10:09Z</time>
      </trkpt>
      <trkpt lat="50.14387" lon="4.0681">
        <ele>216.5</ele>
        <time>2024-12-26T15:10:19Z</time>
      </trkpt>
      <trkpt lat="50.14396" lon="4.0681">
        <ele>216.6</ele>
        <time>2024-12-26T15:10:28Z</time>
      </trkpt>
      <trkpt lat="50.14405" lon="4.06812">
        <ele>216.6</ele>
        <time>2024-12-26T15:10:38Z</time>
      </trkpt>
      <trkpt lat="50.14414" lon="4.06815">
        <ele>216.7</ele>
        <time>2024-12-26T15:10:47Z</time>
      </trkpt>
      <trkpt lat="50.14424" lon="4.06813">
        <ele>216.7</ele>
        <time>2024-12-26T15:10:58Z</time>
      </trkpt>
      <trkpt lat="50.14434" lon="4.06816">
        <ele>216.7</ele>
        <time>2024-12-26T15:11:07Z</time>
      </trkpt>
      <trkpt lat="50.14443" lon="4.06818">
        <ele>216.7</ele>
        <time>2024-12-26T15:11:17Z</time>
      </trkpt>
      <trkpt lat="50.14453" lon="4.06818">
        <ele>216.6</ele>
        <time>2024-12-26T15:11:27Z</time>
      </trkpt>
      <trkpt lat="50.14462" lon="4.06819">
        <ele>216.6</ele>
        <time>2024-12-26T15:11:36Z</time>
      </trkpt>
      <trkpt lat="50.14471" lon="4.06821">
        <ele>216.5</ele>
        <time>2024-12-26T15:11:46Z</time>
      </trkpt>
      <trkpt lat="50.1448" lon="4.06821">
        <ele>216.4</ele>
        <time>2024-12-26T15:11:57Z</time>
      </trkpt>
      <trkpt lat="50.1449" lon="4.06819">
        <ele>216.3</ele>
        <time>2024-12-26T15:12:06Z</time>
      </trkpt>
      <trkpt lat="50.14499" lon="4.06823">
        <ele>216.2</ele>
        <time>2024-12-26T15:12:17Z</time>
      </trkpt>
      <trkpt lat="50.14509" lon="4.06824">
        <ele>216.2</ele>
        <time>2024-12-26T15:12:26Z</time>
      </trkpt>
      <trkpt lat="50.14518" lon="4.06822">
        <ele>216.1</ele>
        <time>2024-12-26T15:12:38Z</time>
      </trkpt>
      <trkpt lat="50.14528" lon="4.0682">
        <ele>216</ele>
        <time>2024-12-26T15:12:46Z</time>
      </trkpt>
      <trkpt lat="50.14537" lon="4.06821">
        <ele>215.8</ele>
        <time>2024-12-26T15:12:53Z</time>
      </trkpt>
      <trkpt lat="50.14545" lon="4.06827">
        <ele>215.6</ele>
        <time>2024-12-26T15:13:08Z</time>
      </trkpt>
      <trkpt lat="50.14555" lon="4.06828">
        <ele>215.4</ele>
        <time>2024-12-26T15:13:17Z</time>
      </trkpt>
      <trkpt lat="50.14564" lon="4.06829">
        <ele>215.3</ele>
        <time>2024-12-26T15:13:27Z</time>
      </trkpt>
      <trkpt lat="50.14573" lon="4.06829">
        <ele>215.2</ele>
        <time>2024-12-26T15:13:43Z</time>
      </trkpt>
      <trkpt lat="50.14582" lon="4.06828">
        <ele>215</ele>
        <time>2024-12-26T15:13:49Z</time>
      </trkpt>
      <trkpt lat="50.14591" lon="4.0683">
        <ele>214.9</ele>
        <time>2024-12-26T15:13:58Z</time>
      </trkpt>
      <trkpt lat="50.14601" lon="4.06832">
        <ele>214.8</ele>
        <time>2024-12-26T15:14:06Z</time>
      </trkpt>
      <trkpt lat="50.14611" lon="4.06831">
        <ele>214.6</ele>
        <time>2024-12-26T15:14:16Z</time>
      </trkpt>
      <trkpt lat="50.14621" lon="4.06828">
        <ele>214.4</ele>
        <time>2024-12-26T15:14:23Z</time>
      </trkpt>
      <trkpt lat="50.1463" lon="4.06829">
        <ele>214.2</ele>
        <time>2024-12-26T15:14:36Z</time>
      </trkpt>
      <trkpt lat="50.1464" lon="4.0683">
        <ele>214</ele>
        <time>2024-12-26T15:14:46Z</time>
      </trkpt>
      <trkpt lat="50.14649" lon="4.0683">
        <ele>213.7</ele>
        <time>2024-12-26T15:14:53Z</time>
      </trkpt>
      <trkpt lat="50.14658" lon="4.06832">
        <ele>213.5</ele>
        <time>2024-12-26T15:15:01Z</time>
      </trkpt>
      <trkpt lat="50.14666" lon="4.06836">
        <ele>213.3</ele>
        <time>2024-12-26T15:15:11Z</time>
      </trkpt>
      <trkpt lat="50.14676" lon="4.06835">
        <ele>213.1</ele>
        <time>2024-12-26T15:15:18Z</time>
      </trkpt>
      <trkpt lat="50.14685" lon="4.06839">
        <ele>212.9</ele>
        <time>2024-12-26T15:15:29Z</time>
      </trkpt>
      <trkpt lat="50.14695" lon="4.06841">
        <ele>212.6</ele>
        <time>2024-12-26T15:15:40Z</time>
      </trkpt>
      <trkpt lat="50.14704" lon="4.06843">
        <ele>212.4</ele>
        <time>2024-12-26T15:15:52Z</time>
      </trkpt>
      <trkpt lat="50.14713" lon="4.06844">
        <ele>212.2</ele>
        <time>2024-12-26T15:16:02Z</time>
      </trkpt>
      <trkpt lat="50.14723" lon="4.06844">
        <ele>212</ele>
        <time>2024-12-26T15:16:13Z</time>
      </trkpt>
      <trkpt lat="50.14732" lon="4.06846">
        <ele>211.8</ele>
        <time>2024-12-26T15:16:23Z</time>
      </trkpt>
      <trkpt lat="50.14742" lon="4.06847">
        <ele>211.6</ele>
        <time>2024-12-26T15:16:34Z</time>
      </trkpt>
      <trkpt lat="50.14751" lon="4.06848">
        <ele>211.5</ele>
        <time>2024-12-26T15:16:45Z</time>
      </trkpt>
      <trkpt lat="50.14761" lon="4.06849">
        <ele>211.3</ele>
        <time>2024-12-26T15:16:56Z</time>
      </trkpt>
      <trkpt lat="50.14771" lon="4.0685">
        <ele>211.1</ele>
        <time>2024-12-26T15:17:06Z</time>
      </trkpt>
      <trkpt lat="50.1478" lon="4.06851">
        <ele>210.9</ele>
        <time>2024-12-26T15:17:16Z</time>
      </trkpt>
      <trkpt lat="50.1479" lon="4.06851">
        <ele>210.7</ele>
        <time>2024-12-26T15:17:26Z</time>
      </trkpt>
      <trkpt lat="50.14799" lon="4.06853">
        <ele>210.5</ele>
        <time>2024-12-26T15:17:37Z</time>
      </trkpt>
      <trkpt lat="50.14809" lon="4.06855">
        <ele>210.3</ele>
        <time>2024-12-26T15:17:47Z</time>
      </trkpt>
      <trkpt lat="50.14818" lon="4.06856">
        <ele>210.2</ele>
        <time>2024-12-26T15:17:57Z</time>
      </trkpt>
      <trkpt lat="50.14828" lon="4.06857">
        <ele>210.1</ele>
        <time>2024-12-26T15:18:06Z</time>
      </trkpt>
      <trkpt lat="50.14837" lon="4.0686">
        <ele>210</ele>
        <time>2024-12-26T15:18:20Z</time>
      </trkpt>
      <trkpt lat="50.14846" lon="4.06861">
        <ele>209.9</ele>
        <time>2024-12-26T15:18:30Z</time>
      </trkpt>
      <trkpt lat="50.14855" lon="4.06864">
        <ele>209.9</ele>
        <time>2024-12-26T15:18:39Z</time>
      </trkpt>
      <trkpt lat="50.14864" lon="4.06866">
        <ele>209.8</ele>
        <time>2024-12-26T15:18:51Z</time>
      </trkpt>
      <trkpt lat="50.14874" lon="4.06868">
        <ele>209.8</ele>
        <time>2024-12-26T15:19:01Z</time>
      </trkpt>
      <trkpt lat="50.14883" lon="4.06869">
        <ele>209.7</ele>
        <time>2024-12-26T15:19:10Z</time>
      </trkpt>
      <trkpt lat="50.14893" lon="4.06872">
        <ele>209.7</ele>
        <time>2024-12-26T15:19:23Z</time>
      </trkpt>
      <trkpt lat="50.14901" lon="4.06877">
        <ele>209.6</ele>
        <time>2024-12-26T15:19:32Z</time>
      </trkpt>
      <trkpt lat="50.14911" lon="4.06879">
        <ele>209.5</ele>
        <time>2024-12-26T15:19:42Z</time>
      </trkpt>
      <trkpt lat="50.1492" lon="4.0688">
        <ele>209.5</ele>
        <time>2024-12-26T15:19:51Z</time>
      </trkpt>
      <trkpt lat="50.14929" lon="4.06882">
        <ele>209.5</ele>
        <time>2024-12-26T15:20:01Z</time>
      </trkpt>
      <trkpt lat="50.14939" lon="4.06886">
        <ele>209.5</ele>
        <time>2024-12-26T15:20:13Z</time>
      </trkpt>
      <trkpt lat="50.14948" lon="4.06886">
        <ele>209.5</ele>
        <time>2024-12-26T15:20:21Z</time>
      </trkpt>
      <trkpt lat="50.14957" lon="4.06886">
        <ele>209.6</ele>
        <time>2024-12-26T15:20:30Z</time>
      </trkpt>
      <trkpt lat="50.14967" lon="4.06889">
        <ele>209.7</ele>
        <time>2024-12-26T15:20:40Z</time>
      </trkpt>
      <trkpt lat="50.14977" lon="4.0689">
        <ele>209.8</ele>
        <time>2024-12-26T15:20:49Z</time>
      </trkpt>
      <trkpt lat="50.14986" lon="4.06892">
        <ele>210.1</ele>
        <time>2024-12-26T15:21:00Z</time>
      </trkpt>
      <trkpt lat="50.14996" lon="4.06892">
        <ele>210.4</ele>
        <time>2024-12-26T15:21:10Z</time>
      </trkpt>
      <trkpt lat="50.15006" lon="4.06891">
        <ele>210.7</ele>
        <time>2024-12-26T15:21:18Z</time>
      </trkpt>
      <trkpt lat="50.15014" lon="4.06897">
        <ele>210.9</ele>
        <time>2024-12-26T15:21:28Z</time>
      </trkpt>
      <trkpt lat="50.15024" lon="4.06899">
        <ele>211.2</ele>
        <time>2024-12-26T15:21:39Z</time>
      </trkpt>
      <trkpt lat="50.15033" lon="4.06901">
        <ele>211.4</ele>
        <time>2024-12-26T15:21:52Z</time>
      </trkpt>
      <trkpt lat="50.15042" lon="4.06901">
        <ele>211.6</ele>
        <time>2024-12-26T15:22:02Z</time>
      </trkpt>
      <trkpt lat="50.15052" lon="4.06902">
        <ele>211.8</ele>
        <time>2024-12-26T15:22:11Z</time>
      </trkpt>
      <trkpt lat="50.15061" lon="4.06902">
        <ele>212</ele>
        <time>2024-12-26T15:22:19Z</time>
      </trkpt>
      <trkpt lat="50.15071" lon="4.06905">
        <ele>212.2</ele>
        <time>2024-12-26T15:22:29Z</time>
      </trkpt>
      <trkpt lat="50.15081" lon="4.06908">
        <ele>212.4</ele>
        <time>2024-12-26T15:22:38Z</time>
      </trkpt>
      <trkpt lat="50.1509" lon="4.0691">
        <ele>212.6</ele>
        <time>2024-12-26T15:22:48Z</time>
      </trkpt>
      <trkpt lat="50.15099" lon="4.06913">
        <ele>212.8</ele>
        <time>2024-12-26T15:23:01Z</time>
      </trkpt>
      <trkpt lat="50.15108" lon="4.06914">
        <ele>213.1</ele>
        <time>2024-12-26T15:23:11Z</time>
      </trkpt>
      <trkpt lat="50.15118" lon="4.06916">
        <ele>213.3</ele>
        <time>2024-12-26T15:23:21Z</time>
      </trkpt>
      <trkpt lat="50.15127" lon="4.06918">
        <ele>213.6</ele>
        <time>2024-12-26T15:23:31Z</time>
      </trkpt>
      <trkpt lat="50.15137" lon="4.0692">
        <ele>213.8</ele>
        <time>2024-12-26T15:23:41Z</time>
      </trkpt>
      <trkpt lat="50.15146" lon="4.06922">
        <ele>214</ele>
        <time>2024-12-26T15:23:52Z</time>
      </trkpt>
      <trkpt lat="50.15156" lon="4.06922">
        <ele>214.2</ele>
        <time>2024-12-26T15:24:02Z</time>
      </trkpt>
      <trkpt lat="50.15164" lon="4.06927">
        <ele>214.4</ele>
        <time>2024-12-26T15:24:12Z</time>
      </trkpt>
      <trkpt lat="50.15174" lon="4.06929">
        <ele>214.6</ele>
        <time>2024-12-26T15:24:23Z</time>
      </trkpt>
      <trkpt lat="50.15183" lon="4.06929">
        <ele>214.8</ele>
        <time>2024-12-26T15:24:34Z</time>
      </trkpt>
      <trkpt lat="50.15193" lon="4.06932">
        <ele>215</ele>
        <time>2024-12-26T15:24:42Z</time>
      </trkpt>
      <trkpt lat="50.15202" lon="4.06934">
        <ele>215.2</ele>
        <time>2024-12-26T15:24:52Z</time>
      </trkpt>
      <trkpt lat="50.15212" lon="4.06935">
        <ele>215.4</ele>
        <time>2024-12-26T15:25:02Z</time>
      </trkpt>
      <trkpt lat="50.15221" lon="4.06937">
        <ele>215.5</ele>
        <time>2024-12-26T15:25:12Z</time>
      </trkpt>
      <trkpt lat="50.15231" lon="4.0694">
        <ele>215.7</ele>
        <time>2024-12-26T15:25:22Z</time>
      </trkpt>
      <trkpt lat="50.1524" lon="4.0694">
        <ele>215.9</ele>
        <time>2024-12-26T15:25:34Z</time>
      </trkpt>
      <trkpt lat="50.15249" lon="4.0694">
        <ele>216.1</ele>
        <time>2024-12-26T15:25:43Z</time>
      </trkpt>
      <trkpt lat="50.15258" lon="4.06943">
        <ele>216.3</ele>
        <time>2024-12-26T15:25:54Z</time>
      </trkpt>
      <trkpt lat="50.15267" lon="4.06948">
        <ele>216.6</ele>
        <time>2024-12-26T15:26:03Z</time>
      </trkpt>
      <trkpt lat="50.15277" lon="4.06951">
        <ele>216.9</ele>
        <time>2024-12-26T15:26:12Z</time>
      </trkpt>
      <trkpt lat="50.15287" lon="4.06952">
        <ele>217.3</ele>
        <time>2024-12-26T15:26:22Z</time>
      </trkpt>
      <trkpt lat="50.15296" lon="4.06953">
        <ele>217.6</ele>
        <time>2024-12-26T15:26:31Z</time>
      </trkpt>
      <trkpt lat="50.15305" lon="4.06953">
        <ele>217.6</ele>
        <time>2024-12-26T15:26:48Z</time>
      </trkpt>
      <trkpt lat="50.15315" lon="4.06954">
        <ele>217.5</ele>
        <time>2024-12-26T15:27:01Z</time>
      </trkpt>
      <trkpt lat="50.15325" lon="4.06956">
        <ele>217.5</ele>
        <time>2024-12-26T15:27:11Z</time>
      </trkpt>
      <trkpt lat="50.15334" lon="4.06956">
        <ele>217.5</ele>
        <time>2024-12-26T15:27:19Z</time>
      </trkpt>
      <trkpt lat="50.15343" lon="4.06959">
        <ele>217.5</ele>
        <time>2024-12-26T15:27:30Z</time>
      </trkpt>
      <trkpt lat="50.15353" lon="4.06962">
        <ele>217.6</ele>
        <time>2024-12-26T15:27:40Z</time>
      </trkpt>
      <trkpt lat="50.15363" lon="4.06966">
        <ele>217.6</ele>
        <time>2024-12-26T15:27:50Z</time>
      </trkpt>
      <trkpt lat="50.15372" lon="4.06967">
        <ele>217.6</ele>
        <time>2024-12-26T15:28:02Z</time>
      </trkpt>
      <trkpt lat="50.15381" lon="4.06968">
        <ele>217.6</ele>
        <time>2024-12-26T15:28:11Z</time>
      </trkpt>
      <trkpt lat="50.1539" lon="4.0697">
        <ele>217.6</ele>
        <time>2024-12-26T15:28:21Z</time>
      </trkpt>
      <trkpt lat="50.154" lon="4.0697">
        <ele>217.5</ele>
        <time>2024-12-26T15:28:32Z</time>
      </trkpt>
      <trkpt lat="50.15409" lon="4.06973">
        <ele>217.5</ele>
        <time>2024-12-26T15:28:41Z</time>
      </trkpt>
      <trkpt lat="50.15419" lon="4.06977">
        <ele>217.5</ele>
        <time>2024-12-26T15:28:52Z</time>
      </trkpt>
      <trkpt lat="50.15428" lon="4.0698">
        <ele>217.5</ele>
        <time>2024-12-26T15:29:01Z</time>
      </trkpt>
      <trkpt lat="50.15437" lon="4.0698">
        <ele>217.6</ele>
        <time>2024-12-26T15:29:10Z</time>
      </trkpt>
      <trkpt lat="50.15446" lon="4.06981">
        <ele>217.6</ele>
        <time>2024-12-26T15:29:20Z</time>
      </trkpt>
      <trkpt lat="50.15456" lon="4.06981">
        <ele>217.5</ele>
        <time>2024-12-26T15:29:30Z</time>
      </trkpt>
      <trkpt lat="50.15465" lon="4.06982">
        <ele>217.5</ele>
        <time>2024-12-26T15:29:41Z</time>
      </trkpt>
      <trkpt lat="50.15475" lon="4.06984">
        <ele>217.5</ele>
        <time>2024-12-26T15:29:51Z</time>
      </trkpt>
      <trkpt lat="50.15484" lon="4.06986">
        <ele>217.6</ele>
        <time>2024-12-26T15:30:01Z</time>
      </trkpt>
      <trkpt lat="50.15493" lon="4.06987">
        <ele>217.6</ele>
        <time>2024-12-26T15:30:11Z</time>
      </trkpt>
      <trkpt lat="50.15502" lon="4.0699">
        <ele>217.6</ele>
        <time>2024-12-26T15:30:21Z</time>
      </trkpt>
      <trkpt lat="50.15511" lon="4.06992">
        <ele>217.7</ele>
        <time>2024-12-26T15:30:31Z</time>
      </trkpt>
      <trkpt lat="50.1552" lon="4.06995">
        <ele>217.7</ele>
        <time>2024-12-26T15:30:40Z</time>
      </trkpt>
      <trkpt lat="50.15529" lon="4.06996">
        <ele>217.7</ele>
        <time>2024-12-26T15:30:49Z</time>
      </trkpt>
      <trkpt lat="50.15539" lon="4.06998">
        <ele>217.8</ele>
        <time>2024-12-26T15:31:00Z</time>
      </trkpt>
      <trkpt lat="50.15548" lon="4.06998">
        <ele>217.8</ele>
        <time>2024-12-26T15:31:11Z</time>
      </trkpt>
      <trkpt lat="50.15557" lon="4.07005">
        <ele>217.8</ele>
        <time>2024-12-26T15:31:22Z</time>
      </trkpt>
      <trkpt lat="50.15566" lon="4.07005">
        <ele>217.8</ele>
        <time>2024-12-26T15:31:31Z</time>
      </trkpt>
      <trkpt lat="50.15576" lon="4.07007">
        <ele>217.8</ele>
        <time>2024-12-26T15:31:41Z</time>
      </trkpt>
      <trkpt lat="50.15586" lon="4.07005">
        <ele>217.8</ele>
        <time>2024-12-26T15:31:49Z</time>
      </trkpt>
      <trkpt lat="50.15596" lon="4.07008">
        <ele>217.7</ele>
        <time>2024-12-26T15:31:58Z</time>
      </trkpt>
      <trkpt lat="50.15605" lon="4.07011">
        <ele>217.7</ele>
        <time>2024-12-26T15:32:08Z</time>
      </trkpt>
      <trkpt lat="50.15614" lon="4.07011">
        <ele>217.8</ele>
        <time>2024-12-26T15:32:17Z</time>
      </trkpt>
      <trkpt lat="50.15623" lon="4.07013">
        <ele>217.8</ele>
        <time>2024-12-26T15:32:26Z</time>
      </trkpt>
      <trkpt lat="50.15632" lon="4.07016">
        <ele>217.7</ele>
        <time>2024-12-26T15:32:35Z</time>
      </trkpt>
      <trkpt lat="50.15642" lon="4.07019">
        <ele>217.7</ele>
        <time>2024-12-26T15:32:44Z</time>
      </trkpt>
      <trkpt lat="50.15651" lon="4.0702">
        <ele>217.7</ele>
        <time>2024-12-26T15:32:54Z</time>
      </trkpt>
      <trkpt lat="50.1566" lon="4.07023">
        <ele>217.7</ele>
        <time>2024-12-26T15:33:05Z</time>
      </trkpt>
      <trkpt lat="50.15669" lon="4.07022">
        <ele>217.8</ele>
        <time>2024-12-26T15:33:14Z</time>
      </trkpt>
      <trkpt lat="50.15679" lon="4.07023">
        <ele>217.8</ele>
        <time>2024-12-26T15:33:23Z</time>
      </trkpt>
      <trkpt lat="50.15689" lon="4.07025">
        <ele>217.8</ele>
        <time>2024-12-26T15:33:34Z</time>
      </trkpt>
      <trkpt lat="50.15699" lon="4.07028">
        <ele>217.9</ele>
        <time>2024-12-26T15:33:45Z</time>
      </trkpt>
      <trkpt lat="50.15708" lon="4.07031">
        <ele>217.9</ele>
        <time>2024-12-26T15:33:55Z</time>
      </trkpt>
      <trkpt lat="50.15717" lon="4.07034">
        <ele>217.9</ele>
        <time>2024-12-26T15:34:05Z</time>
      </trkpt>
      <trkpt lat="50.15726" lon="4.07035">
        <ele>218</ele>
        <time>2024-12-26T15:34:15Z</time>
      </trkpt>
      <trkpt lat="50.15736" lon="4.07037">
        <ele>218</ele>
        <time>2024-12-26T15:34:27Z</time>
      </trkpt>
      <trkpt lat="50.15745" lon="4.07037">
        <ele>218.1</ele>
        <time>2024-12-26T15:34:35Z</time>
      </trkpt>
      <trkpt lat="50.15754" lon="4.07038">
        <ele>218.2</ele>
        <time>2024-12-26T15:34:45Z</time>
      </trkpt>
      <trkpt lat="50.15764" lon="4.07041">
        <ele>218.2</ele>
        <time>2024-12-26T15:34:55Z</time>
      </trkpt>
      <trkpt lat="50.15774" lon="4.07041">
        <ele>218.3</ele>
        <time>2024-12-26T15:35:05Z</time>
      </trkpt>
      <trkpt lat="50.15783" lon="4.07043">
        <ele>218.3</ele>
        <time>2024-12-26T15:35:13Z</time>
      </trkpt>
      <trkpt lat="50.15792" lon="4.07043">
        <ele>218.4</ele>
        <time>2024-12-26T15:35:23Z</time>
      </trkpt>
      <trkpt lat="50.15801" lon="4.07045">
        <ele>218.5</ele>
        <time>2024-12-26T15:35:34Z</time>
      </trkpt>
      <trkpt lat="50.15811" lon="4.07048">
        <ele>218.5</ele>
        <time>2024-12-26T15:35:47Z</time>
      </trkpt>
      <trkpt lat="50.15822" lon="4.07051">
        <ele>218.6</ele>
        <time>2024-12-26T15:35:54Z</time>
      </trkpt>
      <trkpt lat="50.15831" lon="4.07052">
        <ele>218.6</ele>
        <time>2024-12-26T15:36:05Z</time>
      </trkpt>
      <trkpt lat="50.15841" lon="4.07054">
        <ele>218.7</ele>
        <time>2024-12-26T15:36:17Z</time>
      </trkpt>
      <trkpt lat="50.1585" lon="4.07057">
        <ele>218.6</ele>
        <time>2024-12-26T15:36:24Z</time>
      </trkpt>
      <trkpt lat="50.1586" lon="4.07058">
        <ele>218.6</ele>
        <time>2024-12-26T15:36:33Z</time>
      </trkpt>
      <trkpt lat="50.15868" lon="4.07063">
        <ele>218.6</ele>
        <time>2024-12-26T15:36:42Z</time>
      </trkpt>
      <trkpt lat="50.15877" lon="4.07063">
        <ele>218.6</ele>
        <time>2024-12-26T15:36:54Z</time>
      </trkpt>
      <trkpt lat="50.15887" lon="4.07064">
        <ele>218.6</ele>
        <time>2024-12-26T15:37:05Z</time>
      </trkpt>
      <trkpt lat="50.15896" lon="4.07068">
        <ele>218.6</ele>
        <time>2024-12-26T15:37:17Z</time>
      </trkpt>
      <trkpt lat="50.15906" lon="4.0707">
        <ele>218.5</ele>
        <time>2024-12-26T15:37:27Z</time>
      </trkpt>
      <trkpt lat="50.15915" lon="4.07074">
        <ele>218.5</ele>
        <time>2024-12-26T15:37:40Z</time>
      </trkpt>
      <trkpt lat="50.15925" lon="4.07074">
        <ele>218.4</ele>
        <time>2024-12-26T15:37:51Z</time>
      </trkpt>
      <trkpt lat="50.15934" lon="4.07074">
        <ele>218.3</ele>
        <time>2024-12-26T15:38:00Z</time>
      </trkpt>
      <trkpt lat="50.15943" lon="4.07076">
        <ele>218.2</ele>
        <time>2024-12-26T15:38:08Z</time>
      </trkpt>
      <trkpt lat="50.15951" lon="4.07085">
        <ele>218</ele>
        <time>2024-12-26T15:38:24Z</time>
      </trkpt>
      <trkpt lat="50.1596" lon="4.07085">
        <ele>217.8</ele>
        <time>2024-12-26T15:38:34Z</time>
      </trkpt>
      <trkpt lat="50.15969" lon="4.07085">
        <ele>217.6</ele>
        <time>2024-12-26T15:38:42Z</time>
      </trkpt>
      <trkpt lat="50.15979" lon="4.07087">
        <ele>217.4</ele>
        <time>2024-12-26T15:38:53Z</time>
      </trkpt>
      <trkpt lat="50.15987" lon="4.07093">
        <ele>217.2</ele>
        <time>2024-12-26T15:39:01Z</time>
      </trkpt>
      <trkpt lat="50.15998" lon="4.07096">
        <ele>217.1</ele>
        <time>2024-12-26T15:39:13Z</time>
      </trkpt>
      <trkpt lat="50.16008" lon="4.07097">
        <ele>216.9</ele>
        <time>2024-12-26T15:39:19Z</time>
      </trkpt>
      <trkpt lat="50.16017" lon="4.07102">
        <ele>216.8</ele>
        <time>2024-12-26T15:39:26Z</time>
      </trkpt>
      <trkpt lat="50.16026" lon="4.07101">
        <ele>216.6</ele>
        <time>2024-12-26T15:39:35Z</time>
      </trkpt>
      <trkpt lat="50.16037" lon="4.07105">
        <ele>216.4</ele>
        <time>2024-12-26T15:39:45Z</time>
      </trkpt>
      <trkpt lat="50.16045" lon="4.07109">
        <ele>216.3</ele>
        <time>2024-12-26T15:39:56Z</time>
      </trkpt>
      <trkpt lat="50.16055" lon="4.07113">
        <ele>216.1</ele>
        <time>2024-12-26T15:40:04Z</time>
      </trkpt>
      <trkpt lat="50.16064" lon="4.07116">
        <ele>215.9</ele>
        <time>2024-12-26T15:40:15Z</time>
      </trkpt>
      <trkpt lat="50.16073" lon="4.07115">
        <ele>215.7</ele>
        <time>2024-12-26T15:40:24Z</time>
      </trkpt>
      <trkpt lat="50.16082" lon="4.07119">
        <ele>215.6</ele>
        <time>2024-12-26T15:40:39Z</time>
      </trkpt>
      <trkpt lat="50.16092" lon="4.07121">
        <ele>215.4</ele>
        <time>2024-12-26T15:40:45Z</time>
      </trkpt>
      <trkpt lat="50.16102" lon="4.07122">
        <ele>215.2</ele>
        <time>2024-12-26T15:40:52Z</time>
      </trkpt>
      <trkpt lat="50.16111" lon="4.0712">
        <ele>215.1</ele>
        <time>2024-12-26T15:41:08Z</time>
      </trkpt>
      <trkpt lat="50.1612" lon="4.07123">
        <ele>214.9</ele>
        <time>2024-12-26T15:41:15Z</time>
      </trkpt>
      <trkpt lat="50.16129" lon="4.07129">
        <ele>214.7</ele>
        <time>2024-12-26T15:41:24Z</time>
      </trkpt>
      <trkpt lat="50.16139" lon="4.07133">
        <ele>214.5</ele>
        <time>2024-12-26T15:41:32Z</time>
      </trkpt>
      <trkpt lat="50.16148" lon="4.07136">
        <ele>214.3</ele>
        <time>2024-12-26T15:41:43Z</time>
      </trkpt>
      <trkpt lat="50.16157" lon="4.0714">
        <ele>214.1</ele>
        <time>2024-12-26T15:41:54Z</time>
      </trkpt>
      <trkpt lat="50.16166" lon="4.07142">
        <ele>213.9</ele>
        <time>2024-12-26T15:42:03Z</time>
      </trkpt>
      <trkpt lat="50.16175" lon="4.07146">
        <ele>213.7</ele>
        <time>2024-12-26T15:42:09Z</time>
      </trkpt>
      <trkpt lat="50.16185" lon="4.07146">
        <ele>213.6</ele>
        <time>2024-12-26T15:42:17Z</time>
      </trkpt>
      <trkpt lat="50.16194" lon="4.07148">
        <ele>213.5</ele>
        <time>2024-12-26T15:42:27Z</time>
      </trkpt>
      <trkpt lat="50.16199" lon="4.07153">
        <ele>213.4</ele>
        <time>2024-12-26T15:42:39Z</time>
      </trkpt>
      <trkpt lat="50.16199" lon="4.07153">
        <ele>213.4</ele>
        <time>2024-12-26T15:42:40Z</time>
      </trkpt>
      <trkpt lat="50.16201" lon="4.07155">
        <ele>213.4</ele>
        <time>2024-12-26T15:42:45Z</time>
      </trkpt>
      <trkpt lat="50.16202" lon="4.07157">
        <ele>213.4</ele>
        <time>2024-12-26T15:42:46Z</time>
      </trkpt>
      <trkpt lat="50.16202" lon="4.07158">
        <ele>213.4</ele>
        <time>2024-12-26T15:42:47Z</time>
      </trkpt>
      <trkpt lat="50.16212" lon="4.07164">
        <ele>213.4</ele>
        <time>2024-12-26T15:42:55Z</time>
      </trkpt>
      <trkpt lat="50.16221" lon="4.07168">
        <ele>213.3</ele>
        <time>2024-12-26T15:43:02Z</time>
      </trkpt>
      <trkpt lat="50.16229" lon="4.0716">
        <ele>213.2</ele>
        <time>2024-12-26T15:43:14Z</time>
      </trkpt>
      <trkpt lat="50.16238" lon="4.07164">
        <ele>213</ele>
        <time>2024-12-26T15:43:21Z</time>
      </trkpt>
      <trkpt lat="50.16247" lon="4.07169">
        <ele>212.7</ele>
        <time>2024-12-26T15:43:32Z</time>
      </trkpt>
      <trkpt lat="50.16257" lon="4.07171">
        <ele>212.4</ele>
        <time>2024-12-26T15:43:40Z</time>
      </trkpt>
      <trkpt lat="50.16266" lon="4.07175">
        <ele>212.1</ele>
        <time>2024-12-26T15:43:49Z</time>
      </trkpt>
      <trkpt lat="50.16276" lon="4.07176">
        <ele>211.8</ele>
        <time>2024-12-26T15:43:57Z</time>
      </trkpt>
      <trkpt lat="50.16285" lon="4.07179">
        <ele>211.5</ele>
        <time>2024-12-26T15:44:06Z</time>
      </trkpt>
      <trkpt lat="50.16294" lon="4.07184">
        <ele>211.3</ele>
        <time>2024-12-26T15:44:15Z</time>
      </trkpt>
      <trkpt lat="50.16302" lon="4.0719">
        <ele>211.1</ele>
        <time>2024-12-26T15:44:24Z</time>
      </trkpt>
      <trkpt lat="50.16311" lon="4.07195">
        <ele>210.9</ele>
        <time>2024-12-26T15:44:35Z</time>
      </trkpt>
      <trkpt lat="50.1632" lon="4.07198">
        <ele>210.7</ele>
        <time>2024-12-26T15:44:45Z</time>
      </trkpt>
      <trkpt lat="50.16329" lon="4.07205">
        <ele>210.5</ele>
        <time>2024-12-26T15:44:56Z</time>
      </trkpt>
      <trkpt lat="50.16339" lon="4.07208">
        <ele>210.3</ele>
        <time>2024-12-26T15:45:02Z</time>
      </trkpt>
      <trkpt lat="50.16348" lon="4.07211">
        <ele>210.1</ele>
        <time>2024-12-26T15:45:14Z</time>
      </trkpt>
      <trkpt lat="50.16358" lon="4.07216">
        <ele>210</ele>
        <time>2024-12-26T15:45:23Z</time>
      </trkpt>
      <trkpt lat="50.16367" lon="4.0722">
        <ele>209.8</ele>
        <time>2024-12-26T15:45:32Z</time>
      </trkpt>
      <trkpt lat="50.16377" lon="4.07222">
        <ele>209.5</ele>
        <time>2024-12-26T15:45:41Z</time>
      </trkpt>
      <trkpt lat="50.16384" lon="4.0723">
        <ele>209.3</ele>
        <time>2024-12-26T15:45:51Z</time>
      </trkpt>
      <trkpt lat="50.16394" lon="4.07231">
        <ele>209.2</ele>
        <time>2024-12-26T15:46:00Z</time>
      </trkpt>
      <trkpt lat="50.16402" lon="4.07239">
        <ele>209</ele>
        <time>2024-12-26T15:46:11Z</time>
      </trkpt>
      <trkpt lat="50.1641" lon="4.07244">
        <ele>208.9</ele>
        <time>2024-12-26T15:46:20Z</time>
      </trkpt>
      <trkpt lat="50.16419" lon="4.0725">
        <ele>208.8</ele>
        <time>2024-12-26T15:46:30Z</time>
      </trkpt>
      <trkpt lat="50.16428" lon="4.07255">
        <ele>208.6</ele>
        <time>2024-12-26T15:46:39Z</time>
      </trkpt>
      <trkpt lat="50.16437" lon="4.0726">
        <ele>208.5</ele>
        <time>2024-12-26T15:46:47Z</time>
      </trkpt>
      <trkpt lat="50.16445" lon="4.07267">
        <ele>208.4</ele>
        <time>2024-12-26T15:46:58Z</time>
      </trkpt>
      <trkpt lat="50.16454" lon="4.07272">
        <ele>208.3</ele>
        <time>2024-12-26T15:47:09Z</time>
      </trkpt>
      <trkpt lat="50.16464" lon="4.07279">
        <ele>208.1</ele>
        <time>2024-12-26T15:47:24Z</time>
      </trkpt>
      <trkpt lat="50.16473" lon="4.07284">
        <ele>208</ele>
        <time>2024-12-26T15:47:33Z</time>
      </trkpt>
      <trkpt lat="50.16482" lon="4.0729">
        <ele>207.9</ele>
        <time>2024-12-26T15:47:40Z</time>
      </trkpt>
      <trkpt lat="50.16491" lon="4.07295">
        <ele>207.7</ele>
        <time>2024-12-26T15:47:47Z</time>
      </trkpt>
      <trkpt lat="50.165" lon="4.07301">
        <ele>207.6</ele>
        <time>2024-12-26T15:47:59Z</time>
      </trkpt>
      <trkpt lat="50.16509" lon="4.0731">
        <ele>207.4</ele>
        <time>2024-12-26T15:48:07Z</time>
      </trkpt>
      <trkpt lat="50.16518" lon="4.0731">
        <ele>207.2</ele>
        <time>2024-12-26T15:48:14Z</time>
      </trkpt>
      <trkpt lat="50.16527" lon="4.07316">
        <ele>207</ele>
        <time>2024-12-26T15:48:25Z</time>
      </trkpt>
      <trkpt lat="50.16535" lon="4.07323">
        <ele>206.8</ele>
        <time>2024-12-26T15:48:34Z</time>
      </trkpt>
      <trkpt lat="50.16544" lon="4.0733">
        <ele>206.6</ele>
        <time>2024-12-26T15:48:43Z</time>
      </trkpt>
      <trkpt lat="50.16553" lon="4.07334">
        <ele>206.4</ele>
        <time>2024-12-26T15:48:52Z</time>
      </trkpt>
      <trkpt lat="50.16561" lon="4.07342">
        <ele>206.2</ele>
        <time>2024-12-26T15:49:02Z</time>
      </trkpt>
      <trkpt lat="50.16571" lon="4.07346">
        <ele>206</ele>
        <time>2024-12-26T15:49:11Z</time>
      </trkpt>
      <trkpt lat="50.16579" lon="4.07353">
        <ele>205.9</ele>
        <time>2024-12-26T15:49:21Z</time>
      </trkpt>
      <trkpt lat="50.16586" lon="4.07363">
        <ele>205.7</ele>
        <time>2024-12-26T15:49:31Z</time>
      </trkpt>
      <trkpt lat="50.16594" lon="4.07372">
        <ele>205.6</ele>
        <time>2024-12-26T15:49:42Z</time>
      </trkpt>
      <trkpt lat="50.16603" lon="4.07377">
        <ele>205.4</ele>
        <time>2024-12-26T15:49:54Z</time>
      </trkpt>
      <trkpt lat="50.16611" lon="4.07384">
        <ele>205.3</ele>
        <time>2024-12-26T15:50:03Z</time>
      </trkpt>
      <trkpt lat="50.1662" lon="4.07391">
        <ele>205.2</ele>
        <time>2024-12-26T15:50:11Z</time>
      </trkpt>
      <trkpt lat="50.16626" lon="4.074">
        <ele>205</ele>
        <time>2024-12-26T15:50:22Z</time>
      </trkpt>
      <trkpt lat="50.16636" lon="4.07405">
        <ele>204.9</ele>
        <time>2024-12-26T15:50:33Z</time>
      </trkpt>
      <trkpt lat="50.16644" lon="4.07412">
        <ele>204.8</ele>
        <time>2024-12-26T15:50:40Z</time>
      </trkpt>
      <trkpt lat="50.16651" lon="4.07421">
        <ele>204.6</ele>
        <time>2024-12-26T15:50:53Z</time>
      </trkpt>
      <trkpt lat="50.1666" lon="4.07426">
        <ele>204.4</ele>
        <time>2024-12-26T15:51:02Z</time>
      </trkpt>
      <trkpt lat="50.16669" lon="4.07433">
        <ele>204.3</ele>
        <time>2024-12-26T15:51:12Z</time>
      </trkpt>
      <trkpt lat="50.16678" lon="4.0744">
        <ele>204.1</ele>
        <time>2024-12-26T15:51:21Z</time>
      </trkpt>
      <trkpt lat="50.16687" lon="4.07449">
        <ele>203.8</ele>
        <time>2024-12-26T15:51:32Z</time>
      </trkpt>
      <trkpt lat="50.16696" lon="4.07455">
        <ele>203.6</ele>
        <time>2024-12-26T15:51:39Z</time>
      </trkpt>
      <trkpt lat="50.16704" lon="4.07464">
        <ele>203.4</ele>
        <time>2024-12-26T15:51:48Z</time>
      </trkpt>
      <trkpt lat="50.16711" lon="4.07473">
        <ele>203.1</ele>
        <time>2024-12-26T15:51:59Z</time>
      </trkpt>
      <trkpt lat="50.1672" lon="4.07479">
        <ele>203</ele>
        <time>2024-12-26T15:52:10Z</time>
      </trkpt>
      <trkpt lat="50.16727" lon="4.07488">
        <ele>202.9</ele>
        <time>2024-12-26T15:52:24Z</time>
      </trkpt>
      <trkpt lat="50.16737" lon="4.07494">
        <ele>202.7</ele>
        <time>2024-12-26T15:52:32Z</time>
      </trkpt>
      <trkpt lat="50.16748" lon="4.07498">
        <ele>202.5</ele>
        <time>2024-12-26T15:52:43Z</time>
      </trkpt>
      <trkpt lat="50.16756" lon="4.07507">
        <ele>202.4</ele>
        <time>2024-12-26T15:52:54Z</time>
      </trkpt>
      <trkpt lat="50.16765" lon="4.07514">
        <ele>202.3</ele>
        <time>2024-12-26T15:53:04Z</time>
      </trkpt>
      <trkpt lat="50.16773" lon="4.0752">
        <ele>202.1</ele>
        <time>2024-12-26T15:53:12Z</time>
      </trkpt>
      <trkpt lat="50.16782" lon="4.07527">
        <ele>202</ele>
        <time>2024-12-26T15:53:24Z</time>
      </trkpt>
      <trkpt lat="50.16791" lon="4.07532">
        <ele>201.9</ele>
        <time>2024-12-26T15:53:31Z</time>
      </trkpt>
      <trkpt lat="50.16799" lon="4.0754">
        <ele>201.7</ele>
        <time>2024-12-26T15:53:41Z</time>
      </trkpt>
      <trkpt lat="50.16806" lon="4.0755">
        <ele>201.6</ele>
        <time>2024-12-26T15:53:51Z</time>
      </trkpt>
      <trkpt lat="50.16813" lon="4.0756">
        <ele>201.5</ele>
        <time>2024-12-26T15:54:01Z</time>
      </trkpt>
      <trkpt lat="50.16822" lon="4.07567">
        <ele>201.4</ele>
        <time>2024-12-26T15:54:11Z</time>
      </trkpt>
      <trkpt lat="50.1683" lon="4.07572">
        <ele>201.3</ele>
        <time>2024-12-26T15:54:19Z</time>
      </trkpt>
      <trkpt lat="50.16839" lon="4.07574">
        <ele>201.2</ele>
        <time>2024-12-26T15:54:30Z</time>
      </trkpt>
      <trkpt lat="50.16849" lon="4.07577">
        <ele>201.1</ele>
        <time>2024-12-26T15:54:42Z</time>
      </trkpt>
      <trkpt lat="50.16858" lon="4.07582">
        <ele>201</ele>
        <time>2024-12-26T15:54:51Z</time>
      </trkpt>
      <trkpt lat="50.16868" lon="4.07587">
        <ele>201</ele>
        <time>2024-12-26T15:54:57Z</time>
      </trkpt>
      <trkpt lat="50.16877" lon="4.0759">
        <ele>200.8</ele>
        <time>2024-12-26T15:55:11Z</time>
      </trkpt>
      <trkpt lat="50.16886" lon="4.07595">
        <ele>200.7</ele>
        <time>2024-12-26T15:55:21Z</time>
      </trkpt>
      <trkpt lat="50.16894" lon="4.076">
        <ele>200.6</ele>
        <time>2024-12-26T15:55:34Z</time>
      </trkpt>
      <trkpt lat="50.16904" lon="4.07602">
        <ele>200.5</ele>
        <time>2024-12-26T15:55:42Z</time>
      </trkpt>
      <trkpt lat="50.16913" lon="4.07608">
        <ele>200.5</ele>
        <time>2024-12-26T15:55:52Z</time>
      </trkpt>
      <trkpt lat="50.16921" lon="4.07614">
        <ele>200.4</ele>
        <time>2024-12-26T15:55:59Z</time>
      </trkpt>
      <trkpt lat="50.1693" lon="4.07621">
        <ele>200.3</ele>
        <time>2024-12-26T15:56:08Z</time>
      </trkpt>
      <trkpt lat="50.16939" lon="4.07626">
        <ele>200.2</ele>
        <time>2024-12-26T15:56:15Z</time>
      </trkpt>
      <trkpt lat="50.16949" lon="4.07632">
        <ele>200.1</ele>
        <time>2024-12-26T15:56:21Z</time>
      </trkpt>
      <trkpt lat="50.1696" lon="4.07636">
        <ele>200</ele>
        <time>2024-12-26T15:56:24Z</time>
      </trkpt>
      <trkpt lat="50.16966" lon="4.07647">
        <ele>199.9</ele>
        <time>2024-12-26T15:56:56Z</time>
      </trkpt>
      <trkpt lat="50.16974" lon="4.07656">
        <ele>199.9</ele>
        <time>2024-12-26T15:57:08Z</time>
      </trkpt>
      <trkpt lat="50.16982" lon="4.07666">
        <ele>199.8</ele>
        <time>2024-12-26T15:57:18Z</time>
      </trkpt>
      <trkpt lat="50.16991" lon="4.07673">
        <ele>199.7</ele>
        <time>2024-12-26T15:57:29Z</time>
      </trkpt>
      <trkpt lat="50.17" lon="4.07677">
        <ele>199.7</ele>
        <time>2024-12-26T15:57:37Z</time>
      </trkpt>
      <trkpt lat="50.17008" lon="4.07686">
        <ele>199.6</ele>
        <time>2024-12-26T15:57:45Z</time>
      </trkpt>
      <trkpt lat="50.17017" lon="4.07691">
        <ele>199.5</ele>
        <time>2024-12-26T15:57:51Z</time>
      </trkpt>
      <trkpt lat="50.17026" lon="4.07697">
        <ele>199.4</ele>
        <time>2024-12-26T15:57:58Z</time>
      </trkpt>
      <trkpt lat="50.17035" lon="4.07702">
        <ele>199.4</ele>
        <time>2024-12-26T15:58:07Z</time>
      </trkpt>
      <trkpt lat="50.17043" lon="4.0771">
        <ele>199.3</ele>
        <time>2024-12-26T15:58:13Z</time>
      </trkpt>
      <trkpt lat="50.1705" lon="4.0772">
        <ele>199.3</ele>
        <time>2024-12-26T15:58:25Z</time>
      </trkpt>
      <trkpt lat="50.17058" lon="4.07728">
        <ele>199.3</ele>
        <time>2024-12-26T15:58:35Z</time>
      </trkpt>
      <trkpt lat="50.17065" lon="4.07737">
        <ele>199.3</ele>
        <time>2024-12-26T15:58:51Z</time>
      </trkpt>
      <trkpt lat="50.17075" lon="4.0774">
        <ele>199.3</ele>
        <time>2024-12-26T15:58:58Z</time>
      </trkpt>
      <trkpt lat="50.17083" lon="4.07747">
        <ele>199.3</ele>
        <time>2024-12-26T15:59:07Z</time>
      </trkpt>
      <trkpt lat="50.17092" lon="4.07752">
        <ele>199.4</ele>
        <time>2024-12-26T15:59:17Z</time>
      </trkpt>
      <trkpt lat="50.17101" lon="4.07757">
        <ele>199.4</ele>
        <time>2024-12-26T15:59:26Z</time>
      </trkpt>
      <trkpt lat="50.17108" lon="4.07767">
        <ele>199.4</ele>
        <time>2024-12-26T15:59:34Z</time>
      </trkpt>
      <trkpt lat="50.17117" lon="4.07771">
        <ele>199.4</ele>
        <time>2024-12-26T15:59:44Z</time>
      </trkpt>
      <trkpt lat="50.17125" lon="4.07779">
        <ele>199.4</ele>
        <time>2024-12-26T15:59:55Z</time>
      </trkpt>
      <trkpt lat="50.17134" lon="4.07785">
        <ele>199.4</ele>
        <time>2024-12-26T16:00:03Z</time>
      </trkpt>
      <trkpt lat="50.17139" lon="4.07797">
        <ele>199.5</ele>
        <time>2024-12-26T16:00:13Z</time>
      </trkpt>
      <trkpt lat="50.17148" lon="4.07804">
        <ele>199.6</ele>
        <time>2024-12-26T16:00:20Z</time>
      </trkpt>
      <trkpt lat="50.17157" lon="4.07812">
        <ele>199.6</ele>
        <time>2024-12-26T16:00:31Z</time>
      </trkpt>
      <trkpt lat="50.17164" lon="4.07822">
        <ele>199.7</ele>
        <time>2024-12-26T16:00:42Z</time>
      </trkpt>
      <trkpt lat="50.17173" lon="4.07829">
        <ele>199.7</ele>
        <time>2024-12-26T16:00:54Z</time>
      </trkpt>
      <trkpt lat="50.17179" lon="4.07839">
        <ele>199.8</ele>
        <time>2024-12-26T16:01:07Z</time>
      </trkpt>
      <trkpt lat="50.17192" lon="4.07849">
        <ele>199.9</ele>
        <time>2024-12-26T16:01:18Z</time>
      </trkpt>
      <trkpt lat="50.17197" lon="4.0785">
        <ele>199.9</ele>
        <time>2024-12-26T16:01:27Z</time>
      </trkpt>
      <trkpt lat="50.17203" lon="4.07852">
        <ele>199.9</ele>
        <time>2024-12-26T16:01:36Z</time>
      </trkpt>
      <trkpt lat="50.17208" lon="4.07853">
        <ele>199.9</ele>
        <time>2024-12-26T16:01:45Z</time>
      </trkpt>
      <trkpt lat="50.17213" lon="4.07854">
        <ele>199.9</ele>
        <time>2024-12-26T16:02:17Z</time>
      </trkpt>
      <trkpt lat="50.17218" lon="4.07856">
        <ele>199.9</ele>
        <time>2024-12-26T16:02:17Z</time>
      </trkpt>
      <trkpt lat="50.17218" lon="4.07856">
        <ele>199.9</ele>
        <time>2024-12-26T16:02:17Z</time>
      </trkpt>
    </trkseg>
  </trk>
</gpx>